1219
Uploads today ƒ pre
We don't do politics.

PRE DATA

Datetime Release
2016-09-12 00:00:58 Jim_Black_-_Alasnoaxis-2000-aAF
2016-09-12 00:01:29 Carl_Cox_-_Global_703__Live_from_Space_(Ibiza)-SAT-09-11-2016-TALiON
2016-09-12 00:01:52 Instant.Mom.S03E20.GERMAN.720p.HDTV.x264-ACED
2016-09-12 00:02:24 Instant.Mom.S03E20.GERMAN.HDTV.x264-ACED
2016-09-12 00:02:39 UFC.203.Preliminary.Fights.720p.HDTV.x264-KYR
2016-09-12 00:02:49 Deepsyck_O_Presente_SLA_Tape-A_Coups_DKromi_Volume_1-(TAPE)-FR-K7PACOJE
2016-09-12 00:02:57 Instant.Mom.S03E21.GERMAN.720p.HDTV.x264-ACED
2016-09-12 00:03:29 Instant.Mom.S03E21.GERMAN.HDTV.x264-ACED
2016-09-12 00:04:03 Powers.S02E09.GERMAN.720p.HDTV.x264-ACED
2016-09-12 00:04:20 The.Block.AU.S12E12.720p.HDTV.x264-ORENJI
2016-09-12 00:04:24 Jim_Centorino_-_Ivory-(1993)-aAF
2016-09-12 00:04:35 Powers.S02E09.GERMAN.HDTV.x264-ACED
2016-09-12 00:05:08 The.Mindy.Project.S04E11.GERMAN.720p.HDTV.x264-ACED
2016-09-12 00:05:40 The.Mindy.Project.S04E11.GERMAN.HDTV.x264-ACED
2016-09-12 00:10:59 Criminal.Minds.Beyond.Borders.S01E07.FRENCH.720p.HDTV.x264-SH0W
2016-09-12 00:15:37 Criminal.Minds.Beyond.Borders.S01E07.FRENCH.HDTV.x264-PANZeR
2016-09-12 00:18:04 Mysteries.at.the.Museum.S01E06.720p.HDTV.x264-DHD
2016-09-12 00:20:20 Mysteries.at.the.Museum.S03E06.720p.HDTV.x264-DHD
2016-09-12 00:20:32 Jim_Lauderdale_-_Pretty_Close_to_the_Truth-(1994)-aAF
2016-09-12 00:21:03 Lynda-On_Sy_Fait_Feat_Maitre_Gims-(WEB)-FR-2016-H5N1_iNT
2016-09-12 00:21:08 Joel_Mull_-_Awakenings_ADE_Drumcode-STREAM-10-19-2013-IND_INT
2016-09-12 00:25:44 Kingdom.2014.S02E18.FRENCH.HDTV.x264-AMB3R
2016-09-12 00:26:25 Mr_JL-Maintenant_Tu_Sais_Qui_Je_Suis-(EP)-(WEB)-FR-2011-CHRIS92
2016-09-12 00:28:19 Allsvenskan.2016.Falkenberg.vs.Djurgarden.SWEDiSH.720p.HDTV.x264-PRiNCE
2016-09-12 00:29:37 Unresolved_-_Awaken-(GBD164)-WEB-2016-SRG
2016-09-12 00:31:53 Die.Ren.und.Stimpy.Show.S05E02.Aberglauben.und.Reisen.bildet.German.DL.FS.BDRiP.x264-ACAW
2016-09-12 00:32:41 Hadess-Letoile_Du_Levant-(WEB)-FR-2011-UNIONS
2016-09-12 00:33:24 Die.Ren.und.Stimpy.Show.S05E03.Wettlauf.im.All.und.Die.Fehde.German.DL.FS.BDRiP.x264-ACAW
2016-09-12 00:33:58 Die.Ren.und.Stimpy.Show.S05E04.Katzenallergie.und.Fuer.eine.Hand.voll.Staub.German.DL.FS.BDRiP.x264-ACAW
2016-09-12 00:35:24 Blue.Collar.Backers.S01E03.Freakin.Banks.720p.HDTV.x264-DHD
2016-09-12 00:35:33 Die.Ren.und.Stimpy.Show.S05E05.Stimpys.Haustier.und.Das.Renhirn.German.DL.FS.BDRiP.x264-ACAW
2016-09-12 00:35:54 Poldark.2015.S02E02.HDTV.x264-TLA
2016-09-12 00:35:57 Alexander_Saykov-City_Lights_020_(Pure_FM)-SBD-09-12-2016-B2RLiVE_INT
2016-09-12 00:35:58 Alexander_Saykov-City_Lights_020_(Pure_FM)-SBD-09-12-2016-B2RLiVE_INT
2016-09-12 00:36:20 Fleabag.S01E04.720p.HDTV.x264-TLA
2016-09-12 00:36:52 Die.Ren.und.Stimpy.Show.S05E06.Stets.zu.Diensten.und.Hund.des.Jahres.German.DL.FS.BDRiP.x264-ACAW
2016-09-12 00:36:59 Fleabag.S01E04.HDTV.x264-TLA
2016-09-12 00:37:31 Die.Ren.und.Stimpy.Show.S05E07.Stimpy.und.die.Pubertaet.und.Wer.ist.hier.der.Bloedian.German.DL.FS.BDRiP.x264-ACAW
2016-09-12 00:37:46 Die.Ren.und.Stimpy.Show.S05E08.Schulfreunde.und.Rens.Dinnerparty.German.DL.FS.BDRiP.x264-ACAW
2016-09-12 00:38:18 Die.Ren.und.Stimpy.Show.S05E09.Sei.schlau.geh.in.den.Bau.und.Huettenzauber.German.DL.FS.BDRiP.x264-ACAW
2016-09-12 00:39:50 Die.Ren.und.Stimpy.Show.S05E10.Das.verflixte.neunte.Leben.und.Pater.Jack.Cheese.German.DL.FS.BDRiP.x264-ACAW
2016-09-12 00:40:12 Die.Ren.und.Stimpy.Show.S05E11.Froehliche.Yaknachten.German.DL.FS.BDRiP.x264-ACAW
2016-09-12 00:40:17 DIABLES_BLEUS_Production_Presente-Le_Mur_Du_Son-(TAPE)-FR-K7PACOJE
2016-09-12 00:40:42 De_Brazza_Records_Presente-Les_Miserables-(TAPE)-FR-K7PACOJE
2016-09-12 00:40:45 DC_Management_Presente-Label_Rouge_Volume_2-(TAPE)-FR-K7PACOJE
2016-09-12 00:40:50 Die.Ren.und.Stimpy.Show.S05E12.Sunny.und.ich.und.Rens.letzte.Versuchung.German.DL.FS.BDRiP.x264-ACAW
2016-09-12 00:41:16 Isaak_Escamilla-Endless_Theories_(Pure_FM)-SBD-09-12-2016-B2RLiVE_INT
2016-09-12 00:43:22 Der.kleine.Rabe.Socke.3D.2012.German.1080p.BluRay.x264-BluRay3D
2016-09-12 00:43:51 Ades-Un_Degre_De_Plus-(Reissue)-(WEB)-FR-2011-UNIONS
2016-09-12 00:46:53 Adamas-Heavy_Thoughts-2015-GRAVEWISH
2016-09-12 00:47:17 Nalin_and_Kane_vs_Beats_International-Just_Be_Good_To_The_Beachball-Bootleg-2001-BPM
2016-09-12 00:47:28 Mindwars-Sworn_to_Secrecy-2016-GRAVEWISH
2016-09-12 00:48:02 Old_Throne-O_Novo_Mundo_Pagao-Reissue-PT-2015-GRAVEWISH
2016-09-12 00:48:03 Old_Throne-O_Novo_Mundo_Pagao-Reissue-PT-2015-GRAVEWISH
2016-09-12 00:48:38 Sulferon-Havoc_Invocatum-2015-GRAVEWISH
2016-09-12 00:49:11 Thrash_Or_Die-Poser_Holocaust-Reissue-2015-GRAVEWISH
2016-09-12 00:49:45 Trizna-Forgotten_Tapes-2015-GRAVEWISH
2016-09-12 00:49:48 NFL.2016.09.11.Packers.vs.Jaguars.720p.HDTV.x264-BAJSKORV
2016-09-12 00:50:18 Ugluk-Hveralundr-Reissue-NO-2015-GRAVEWISH
2016-09-12 00:50:19 Ugluk-Hveralundr-Reissue-NO-2015-GRAVEWISH
2016-09-12 00:52:57 Enemigo.Publico.S01E01.SPANiSH.HDTV.x264-BFN
2016-09-12 00:53:09 Enemigo.Publico.S01E01.SPANiSH.720p.HDTV.x264-BFN
2016-09-12 00:53:10 Enemigo.Publico.S01E01.SPANiSH.720p.HDTV.x264-BFN
2016-09-12 00:53:56 Jeff.Ross.Roasts.Cops.2016.DIRFIX.720p.WEB.x264-spamTV
2016-09-12 00:54:00 Jeff.Ross.Roasts.Cops.2016.DIRFIX.1080p.WEB.x264-spamTV
2016-09-12 00:58:28 Jimmy_Scott_-_Holding_Back_The_Years-(1998)-aAF
2016-09-12 01:00:49 Lost.Land.Of.The.Tiger.S01E01.INTERNAL.720p.HDTV.x264-DEADPOOL
2016-09-12 01:01:32 Lost.Land.Of.The.Tiger.S01E02.INTERNAL.720p.HDTV.x264-DEADPOOL
2016-09-12 01:02:20 Lost.Land.Of.The.Tiger.S01E03.INTERNAL.720p.HDTV.x264-DEADPOOL
2016-09-12 01:06:48 Jimmy_Thackery_And_the_Drivers_-_Sinner_Street-(2000)-aAF
2016-09-12 01:12:09 The.Xtra.Factor.UK.S1306.WEB.x264-spamTV
2016-09-12 01:13:56 The.Xtra.Factor.UK.S13E06.DIRFIX.WEB.x264-spamTV
2016-09-12 01:16:00 Jane.The.Virgin.S02E04.FRENCH.HDTV.x264-AMB3R
2016-09-12 01:21:23 Bering.Sea.Gold.S07E03.The.Plague.iNTERNAL.720p.HDTV.x264-DHD
2016-09-12 01:21:24 Bering.Sea.Gold.S07E03.The.Plague.iNTERNAL.720p.HDTV.x264-DHD
2016-09-12 01:21:41 15.Septembers.Later.2016.iNTERNAL.720p.WEB.H264-TURBO
2016-09-12 01:26:11 Sleepy.Hollow.S03E06.FRENCH.720p.HDTV.x264-SH0W
2016-09-12 01:30:38 Joan_Jett_-_Pure_and_Simple-(1994)-aAF
2016-09-12 01:38:15 Botulistum_-_Goll-Botulistum_-_Goll-2013-GRAVEWISH
2016-09-12 01:38:16 Botulistum_-_Goll-Botulistum_-_Goll-2013-GRAVEWISH
2016-09-12 01:38:52 Demether-Within_the_Mirror-Reissue-2005-GRAVEWISH
2016-09-12 01:39:24 Dodkvlt-III_Domini_Ascensionem-2012-GRAVEWISH
2016-09-12 01:39:57 Obskure_Torture-Nythra_Death_King-2012-GRAVEWISH
2016-09-12 01:40:31 Shades_of_the_Black_Sky-to_Chto_Nas_Poglotit-RU-2014-GRAVEWISH
2016-09-12 01:42:27 Joe_Cocker_-_Joe_Cocker-(1969)-aAF
2016-09-12 01:44:31 Joe_Cocker_-_The_Collective_Series-(1986)-aAF
2016-09-12 01:45:18 Joe_Cocker_-_With_A_Little_Help_From_My_Friends-(1969)-aAF
2016-09-12 01:53:51 Arsenik-Freestyle_Live_At_Skyrock_04-25-01-Radio-FR-2001-HRS
2016-09-12 01:53:56 Last.Girl.Standing.2015.PAL.DVD9-SaMSCLUB
2016-09-12 01:56:01 Franksen_-_Night_Voyage-SAT-09-11-2016-TALiON
2016-09-12 01:57:32 Braindead.S01E12.720p.HDTV.X264-DIMENSION
2016-09-12 02:00:31 Braindead.S01E12.HDTV.x264-LOL
2016-09-12 02:00:41 Murdoch.Mysteries.S09E04.FRENCH.HDTV.x264-AMB3R
2016-09-12 02:01:32 Braindead.S01E13.HDTV.x264-LOL
2016-09-12 02:03:32 Braindead.S01E13.720p.HDTV.X264-DIMENSION
2016-09-12 02:05:42 Silicon.Valley.S03E04.FRENCH.1080p.HDTV.x264-Ryotox
2016-09-12 02:08:09 VA-Acid_Jazz_Reunion-2001-cPE
2016-09-12 02:12:23 Joe_Henderson_-_Straight_No_Chaser-(1968)-aAF
2016-09-12 02:17:29 Capital.Decathlon.Les.Secrets.D.Une.Reussite.Francaise.DOC.FRENCH.720p.HDTV.x264-SH0W
2016-09-12 02:17:51 Capital.Decathlon.Les.Secrets.D.Une.Reussite.Francaise.DOC.FRENCH.HDTV.x264-SH0W
2016-09-12 02:18:44 Enquete.Exclusive.Jungle.Cocaine.Et.Revolution.En.Colombie.DOC.FRENCH.720p.HDTV.x264-SH0W
2016-09-12 02:19:03 Enquete.Exclusive.Jungle.Cocaine.Et.Revolution.En.Colombie.DOC.FRENCH.HDTV.x264-SH0W
2016-09-12 02:23:09 AllInternal.16.09.11.Crystal.Greenvelle.XXX.1080p.MP4-KTR
2016-09-12 02:23:44 Passion-HD.16.09.12.Selena.Santana.Wet.Cock.XXX.INTERNAL.1080p.MP4-KTR
2016-09-12 02:24:23 X-Art.16.09.10.Blake.Eden.Naomi.Woods.And.Lena.Anderson.Sex.In.The.Summertime.XXX.1080p.MP4-KTR
2016-09-12 02:25:32 X-Art.16.09.10.Blake.Eden.Naomi.Woods.And.Lena.Anderson.Sex.In.The.Summertime.XXX.2160p.MP4-KTR
2016-09-12 02:27:06 SapphicErotica.16.09.11.Cassie.Right.And.Lavana.Lou.XXX.1080p.MP4-KTR
2016-09-12 02:28:14 Joe_Henderson_-_The_Milestone_Years-8CD-(1995)-aAF
2016-09-12 02:28:36 DigitalPlayground.16.09.12.Alice.March.Babysitting.Blows.XXX.1080p.MP4-KTR
2016-09-12 02:29:53 Son.of.Zorn.S01E01.720p.HDTV.x264-AVS
2016-09-12 02:32:10 Concept_Art_And_Existenze_-_Illusion_Of_Time-(DT022)-WEB-2016-SRG
2016-09-12 02:32:22 Freakshow_And_Yuna-X_-_Always_Forgotten__The_Rain-(SPOON095)-WEB-2016-SRG
2016-09-12 02:32:23 Freakshow_And_Yuna-X_-_Always_Forgotten__The_Rain-(SPOON095)-WEB-2016-SRG
2016-09-12 02:32:23 Nikita_Galin-Parma_Tunes_008_(Pure_FM)-SBD-09-12-2016-B2RLiVE_INT
2016-09-12 02:32:24 Nikita_Galin-Parma_Tunes_008_(Pure_FM)-SBD-09-12-2016-B2RLiVE_INT
2016-09-12 02:32:44 LetsTryAnal.16.09.12.Felicity.Feline.Tattooed.Busty.Babe.Tries.Anal.XXX.1080p.MP4-KTR
2016-09-12 02:34:32 Braindead.S01E12.1080p.HDTV.X264-DIMENSION
2016-09-12 02:37:03 Sleepy.Hollow.S03E06.FRENCH.HDTV.x264-AMB3R
2016-09-12 02:39:42 Joe_Jackson_-_Laughter_and_Lust-(1991)-aAF
2016-09-12 02:39:50 Son.of.Zorn.S01E01.HDTV.x264-KILLERS
2016-09-12 02:41:35 Joe_Jackson_-_Tucker-The_Man_And_His_Dream-(1988)-aAF
2016-09-12 02:42:45 Babes.com_16.09.10.Slatsjana.The.Good.Wife.XXX.IMAGESET-FuGLi
2016-09-12 02:45:52 Joe_Jackson-Steppin_Out_The_Very_Best_Of-(1990)-aAF
2016-09-12 02:47:30 Silicon.Valley.S03E05.FRENCH.1080p.HDTV.x264-Ryotox
2016-09-12 02:48:22 Kingdom.2014.S02E17.FRENCH.1080p.HDTV.x264-Ryotox
2016-09-12 02:50:58 FullyClothedPissing.16.09.11.Barra.Brass.Washing.Her.Face.With.Piss.XXX.1080p.MP4-KTR
2016-09-12 02:51:26 Killergram.16.09.10.Misha.Cross.Experience.Misha.Cross.XXX.720p.MP4-KTR
2016-09-12 02:51:31 Braindead.S01E13.1080p.HDTV.X264-DIMENSION
2016-09-12 02:51:37 Apexx_-_State_Of_Hate_EP-(FUSION310)-WEB-2016-SRG
2016-09-12 02:51:58 Stuback_-_Revolution-(DMW166)-WEB-2016-SRG
2016-09-12 02:52:06 PornMegaLoad.16.09.11.Joana.Bliss.Juicy.Fruits.XXX.1080p.MP4-KTR
2016-09-12 02:52:14 Physika_-_Such_Silence-(GBR002)-WEB-2016-SRG
2016-09-12 02:53:25 Joe_Perry_-_Ive_Got_The_Rock_N_Rolls_Again-(1981)-aAF
2016-09-12 02:53:26 Joe_Perry_-_Ive_Got_The_Rock_N_Rolls_Again-(1981)-aAF
2016-09-12 02:59:16 Trebor_-_Planetarium_EP-(SICKRAGE005)-WEB-2016-SRG
2016-09-12 03:00:34 Yellowstone.S01E01.REAL.PROPER.720p.BluRay.x264-YELLOWBiRD
2016-09-12 03:01:07 Yellowstone.S01E02.REAL.PROPER.720p.BluRay.x264-YELLOWBiRD
2016-09-12 03:01:45 Yellowstone.S01E03.REAL.PROPER.720p.BluRay.x264-YELLOWBiRD
2016-09-12 03:01:46 Yellowstone.S01E03.REAL.PROPER.720p.BluRay.x264-YELLOWBiRD
2016-09-12 03:02:21 Yellowstone.S01E01.PROPER.1080p.BluRay.x264-YELLOWBiRD
2016-09-12 03:02:42 Yellowstone.S01E02.PROPER.1080p.BluRay.x264-YELLOWBiRD
2016-09-12 03:02:56 Yellowstone.S01E03.PROPER.1080p.BluRay.x264-YELLOWBiRD
2016-09-12 03:02:57 Yellowstone.S01E03.PROPER.1080p.BluRay.x264-YELLOWBiRD
2016-09-12 03:05:52 Murder.In.Successville.S02E04.720p.HDTV.x264-BiA
2016-09-12 03:09:49 Reckless.US.S01E08.FRENCH.1080p.HDTV.x264-Ryotox
2016-09-12 03:09:54 Joe_Walsh_-_But_Seriously_Folks-(1978)-aAF
2016-09-12 03:10:36 Basketball.Wives.LA.S05E09.720p.HDTV.x264-FIRST
2016-09-12 03:11:42 Joe_Walsh_-_Got_Any_Gum-(1987)-aAF
2016-09-12 03:11:47 MilfHunter.16.09.12.Dana.Dearmond.Sexy.MILF.XXX.1080p.MP4-KTR
2016-09-12 03:12:06 Basketball.Wives.LA.S05E09.HDTV.x264-FIRST
2016-09-12 03:12:25 Robin.Hood.Mischief.in.Sherwood.S01E11.720p.HDTV.x264-W4F
2016-09-12 03:13:13 Robin.Hood.Mischief.in.Sherwood.S01E11.HDTV.x264-W4F
2016-09-12 03:13:45 Joe_Walsh_-_Ordinary_Average_Guy-(1991)-aAF
2016-09-12 03:14:24 The.Coroner-I.Speak.for.the.Dead.S01E07.720p.HDTV.x264-W4F
2016-09-12 03:14:59 The.Coroner-I.Speak.for.the.Dead.S01E07.HDTV.x264-W4F
2016-09-12 03:15:26 FirstTimeAuditions.16.09.12.Bea.Wolf.Beautiful.Bea.XXX.1080p.MP4-KTR
2016-09-12 03:15:48 The.New.Adventures.of.Peter.Pan.S01E19.720p.HDTV.x264-W4F
2016-09-12 03:16:32 The.New.Adventures.of.Peter.Pan.S01E19.HDTV.x264-W4F
2016-09-12 03:16:43 GFRevenge.16.09.12.Scarlett.Jennings.Sassy.Ass.XXX.1080p.MP4-KTR
2016-09-12 03:17:23 CzechCasting.16.09.12.Aneta.0524.XXX.1080p.MP4-KTR
2016-09-12 03:18:33 CzechCasting.16.09.12.Aneta.0524.XXX.2160p.MP4-KTR
2016-09-12 03:19:01 CzechMassage.16.09.12.Massage.279.XXX.1080p.MP4-KTR
2016-09-12 03:20:53 Porn18.E11.Lady.Dee.Mouthful.For.Lady.Dee.XXX.1080p.MP4-KTR
2016-09-12 03:21:45 CBBC.Official.Chart.Show.2016.WEB.h264-ROFL
2016-09-12 03:21:45 Silicon.Valley.S03E06.FRENCH.1080p.HDTV.x264-Ryotox
2016-09-12 03:21:46 CBBC.Official.Chart.Show.2016.720p.WEB.h264-ROFL
2016-09-12 03:21:47 CBBC.Official.Chart.Show.2016.720p.WEB.h264-ROFL
2016-09-12 03:21:50 Meet.the.Author.2016.09.08.Gillian.Slovo.WEB.h264-ROFL
2016-09-12 03:21:50 Meet.the.Author.2016.09.08.Gillian.Slovo.720p.WEB.h264-ROFL
2016-09-12 03:21:53 The.Sky.at.Night.Interstellar.The.Journey.to.Proxima.b.720p.WEB.h264-ROFL
2016-09-12 03:21:53 The.Sky.at.Night.Interstellar.The.Journey.to.Proxima.b.WEB.h264-ROFL
2016-09-12 03:21:59 The.Womens.Football.Show.S01E11.WEB.h264-ROFL
2016-09-12 03:22:00 The.Womens.Football.Show.S01E11.720p.WEB.h264-ROFL
2016-09-12 03:22:01 Porn18.E12.Alexis.Crystal.Riding.Bikers.Cock.XXX.1080p.MP4-KTR
2016-09-12 03:22:06 The.Womens.Football.Show.S01E12.WEB.h264-ROFL
2016-09-12 03:22:09 The.Womens.Football.Show.S01E12.720p.WEB.h264-ROFL
2016-09-12 03:23:57 Porn18.E13.Olivia.Grace.Young.And.Irresistible.XXX.1080p.MP4-KTR
2016-09-12 03:24:23 PS2.DOC.Spy.Hunter.GERMAN.eBOOk-sUppLeX
2016-09-12 03:24:23 PS2.DOC.SX.Superstar.GERMAN.eBOOk-sUppLeX
2016-09-12 03:24:23 PS2.DOC.Terminator.Dawn.of.Fate.GERMAN.eBOOk-sUppLeX
2016-09-12 03:24:23 PS2.DOC.V.Rally.3.GERMAN.eBOOk-sUppLeX
2016-09-12 03:24:24 PS2.DOC.SX.Superstar.GERMAN.eBOOk-sUppLeX
2016-09-12 03:24:24 PS2.DOC.Crash.N.Burn.GERMAN.eBOOk-sUppLeX
2016-09-12 03:24:24 PS2.DOC.GTA.San.Andreas.GERMAN.eBOOk-sUppLeX
2016-09-12 03:24:24 PS2.DOC.Prince.of.Persia.Warrior.Within.GERMAN.eBOOk-sUppLeX
2016-09-12 03:24:24 PS2.DOC.Rayman.3.GERMAN.eBOOk-sUppLeX
2016-09-12 03:24:25 PS2.DOC.V.Rally.3.GERMAN.eBOOk-sUppLeX
2016-09-12 03:24:25 PS2.DOC.F1.2002.GERMAN.eBOOk-sUppLeX
2016-09-12 03:24:25 PS2.DOC.Sonic.Heroes.GERMAN.eBOOk-sUppLeX
2016-09-12 03:24:26 PS2.DOC.Terminator.Dawn.of.Fate.GERMAN.eBOOk-sUppLeX
2016-09-12 03:24:26 PS2.DOC.Virtua.Evolution.Fighter.4.GERMAN.eBOOk-sUppLeX
2016-09-12 03:24:27 PS2.DOC.GTA.San.Andreas.GERMAN.eBOOk-sUppLeX
2016-09-12 03:24:28 PS2.DOC.Rayman.3.GERMAN.eBOOk-sUppLeX
2016-09-12 03:24:29 PS2.DOC.Prince.of.Persia.Warrior.Within.GERMAN.eBOOk-sUppLeX
2016-09-12 03:24:29 PS2.DOC.Tekken.4.GERMAN.eBOOk-sUppLeX
2016-09-12 03:24:30 PS2.DOC.Crash.N.Burn.GERMAN.eBOOk-sUppLeX
2016-09-12 03:24:31 PS2.DOC.F1.2002.GERMAN.eBOOk-sUppLeX
2016-09-12 03:24:32 PS2.DOC.Sonic.Heroes.GERMAN.eBOOk-sUppLeX
2016-09-12 03:24:33 PS2.DOC.Virtua.Evolution.Fighter.4.GERMAN.eBOOk-sUppLeX
2016-09-12 03:24:34 Porn18.E14.Lovenia.Lux.Enjoys.Anal.XXX.1080p.MP4-KTR
2016-09-12 03:24:35 PS2.DOC.Tekken.4.GERMAN.eBOOk-sUppLeX
2016-09-12 03:24:35 Porn18.E14.Lovenia.Lux.Enjoys.Anal.XXX.1080p.MP4-KTR
2016-09-12 03:24:43 WWE.Backlash.2016.Kickoff.720p.WEB.h264-KYR
2016-09-12 03:25:12 Porn18.E15.Dominika.Just.Turned.18.XXX.1080p.MP4-KTR
2016-09-12 03:32:36 Kingdom.2014.S02E18.FRENCH.1080p.HDTV.x264-Ryotox
2016-09-12 03:33:34 Big.Brother.US.S18E38.720p.HDTV.x264-BAJSKORV
2016-09-12 03:33:42 PS12_-_Hjem_Til_Aarhus-1993-CRSmp3
2016-09-12 03:33:56 John_Anderson_-_Country_Til_I_Die-(1994)-aAF
2016-09-12 03:36:27 John_Anderson_-_Greatest_Hits-(1996)-aAF
2016-09-12 03:39:10 Sorenson.Squeeze.Pro.v11.0.0.185.Incl.Keymaker-CORE
2016-09-12 03:39:20 Sorenson.Squeeze.Pro.v11.0.0.185.MacOSX.Incl.Keymaker-CORE
2016-09-12 03:39:21 Sorenson.Squeeze.Pro.v11.0.0.185.MacOSX.Incl.Keymaker-CORE
2016-09-12 03:39:21 John_Anderson_-_Paradise-(1996)-aAF
2016-09-12 03:39:22 John_Anderson_-_Paradise-(1996)-aAF
2016-09-12 03:41:11 John_Anderson_-_Seminole_Wind-(1992)-aAF
2016-09-12 03:41:37 Jose_Marquez-Live_at_Schlachthof_Krefeld-SAT-09-03-2016-PTC
2016-09-12 03:42:19 Makossa_and_Sugar_B_and_Max_Doblhoff-Live_at_Vienna_City_Beach_Club-SAT-08-31-2016-PTC
2016-09-12 03:42:20 Makossa_and_Sugar_B_and_Max_Doblhoff-Live_at_Vienna_City_Beach_Club-SAT-08-31-2016-PTC
2016-09-12 03:43:02 John_Anderson_-_Solid_Ground-(1993)-aAF
2016-09-12 03:43:35 BoxTruckSex.16.06.24.Kayla.Green.XXX.1080p.MP4-KTR
2016-09-12 03:43:45 Renegades_Of_Jazz-Selektor-SAT-09-10-2016-PTC
2016-09-12 03:44:47 Solomun_and_Adriano_Trolio-Selektor-SAT-09-10-2016-PTC
2016-09-12 03:45:31 BoxTruckSex.16.06.24.Kira.Queen.XXX.1080p.MP4-KTR
2016-09-12 03:47:14 John_Anderson_-_Takin_The_Country_Back-(1997)-aAF
2016-09-12 03:47:16 Ray.Donovan.S04E11.720p.HDTV.x264-FLEET
2016-09-12 03:47:27 BoxTruckSex.16.06.28.Leyla.Bentho.XXX.1080p.MP4-KTR
2016-09-12 03:48:36 Ray.Donovan.S04E11.HDTV.x264-FLEET
2016-09-12 03:49:29 BoxTruckSex.16.06.28.Veronica.Morre.XXX.1080p.MP4-KTR
2016-09-12 03:57:32 The.Last.Ship.S03E13.720p.HDTV.X264-DIMENSION
2016-09-12 03:57:41 va-star_academie_2012-fr-2012-320
2016-09-12 03:58:32 The.Last.Ship.S03E13.HDTV.x264-LOL
2016-09-12 03:59:05 Fear.the.Walking.Dead.S02E11.720p.HDTV.x264-FLEET
2016-09-12 03:59:13 John_Berry_-_My_Heart_is_Bethlehem-(2000)-aAF
2016-09-12 04:00:30 Fear.the.Walking.Dead.S02E11.HDTV.x264-FLEET
2016-09-12 04:11:54 A_Race_Of_Angels-Before_the_First_Goodbye-(FSX010)-WEB-2016-MOHAWK
2016-09-12 04:12:32 The.Last.Ship.S03E13.1080p.HDTV.X264-DIMENSION
2016-09-12 04:14:18 John_Cougar_Mellencamp_-_Big_Daddy-(1989)-aAF
2016-09-12 04:14:47 Countryfile.S28E37.Anglesey.WEB.h264-ROFL
2016-09-12 04:14:50 Countryfile.S28E37.Anglesey.720p.WEB.h264-ROFL
2016-09-12 04:14:51 Countryfile.S28E37.Anglesey.720p.WEB.h264-ROFL
2016-09-12 04:14:51 Pointless.Celebrities.S10E05.Music.WEB.h264-ROFL
2016-09-12 04:14:52 Pointless.Celebrities.S10E05.Music.WEB.h264-ROFL
2016-09-12 04:14:52 Pointless.Celebrities.S10E05.Music.720p.WEB.h264-ROFL
2016-09-12 04:15:08 Eva.Braun.Bean.Hitler.Eva.Braun.Hitlers.Wife.SUBBED.WEB.h264-ROFL
2016-09-12 04:15:27 John_Cougar_Mellencamp_-_Dance_Naked-(1994)-aAF
2016-09-12 04:16:47 Forbidden_To_Fly-Resilience-CDEP-2016-UTP
2016-09-12 04:17:05 Coultrain-Side_Effex_of_Make-Believe_Divided_for_Loves_Sake-(FSX004)-WEB-2014-MOHAWK
2016-09-12 04:17:23 John_Cougar_Mellencamp_-_The_Lonesome_Jubilee-(1987)-aAF
2016-09-12 04:17:53 Kirkis-Cold_Crush-(FSX008)-WEB-2016-MOHAWK
2016-09-12 04:17:54 Kirkis-Cold_Crush-(FSX008)-WEB-2016-MOHAWK
2016-09-12 04:19:20 Toddlers.and.Tiaras.S07E03.Cambrie.vs.Jaimie.The.Birth.Certificate.HDTV.x264-CRiMSON
2016-09-12 04:19:26 Low_Leaf-Akashaalay-(FSX002)-WEB-2014-MOHAWK
2016-09-12 04:20:13 Lydmor_And_Bon_Homme-Things_We_Do_For_Love_Remixes-(hfndisk23)-WEB-2015-MOHAWK
2016-09-12 04:20:20 Cleveland.Hustles.S01E01.Bagels.or.Blowouts.REAL.PROPER.720p.HDTV.x264-CRiMSON
2016-09-12 04:21:04 Max_Cooper-Kindred_EP-(FLDS011)-WEB-2014-MOHAWK
2016-09-12 04:21:18 Mndsgn-Cosmic_Perspective-(STH2372C)-WEB-2016-MOHAWK
2016-09-12 04:21:28 Mndsgn-Daypass-EP-(MND004)-WEB-2013-MOHAWK
2016-09-12 04:21:50 Mndsgn-Feels-(MND005)-WEB-2013-MOHAWK
2016-09-12 04:22:30 Mndsgn-Inedia-(FSX002)-WEB-2014-MOHAWK
2016-09-12 04:22:38 Cleveland.Hustles.S01E01.Bagels.or.Blowouts.REAL.PROPER.HDTV.x264-CRiMSON
2016-09-12 04:22:55 Mndsgn-Nomaps-(MND007)-WEB-2013-MOHAWK
2016-09-12 04:23:16 Mndsgn-Obliquekitchn-(MND003)-WEB-2013-MOHAWK
2016-09-12 04:23:40 Mndsgn-Use_Ya_Mnd_(Twentyfourseven)-(STH2372D)-WEB-2016-MOHAWK
2016-09-12 04:23:50 Another.E02.Blaupause.German.2012.ANiME.DL.BDRiP.x264-STARS
2016-09-12 04:24:01 The_Slow_Revolt-All_Your_Own-(FLDS010)-WEB-2014-MOHAWK
2016-09-12 04:24:40 The_Slow_Revolt-Never_Get_Close-(FLDS009)-WEB-2014-MOHAWK
2016-09-12 04:25:09 NFL.2016.09.11.Bengals.vs.Jets.720p.HDTV.x264-BAJSKORV
2016-09-12 04:25:09 The_Slow_Revolt-Sketches-(FLDS013)-WEB-2016-MOHAWK
2016-09-12 04:25:10 The_Slow_Revolt-Sketches-(FLDS013)-WEB-2016-MOHAWK
2016-09-12 04:25:41 VA-Hafendisko_Best_Of_2015-(hfndisk27)-WEB-2015-MOHAWK
2016-09-12 04:26:12 Code.111.S01E01.FRENCH.HDTV.x264-BAWLS
2016-09-12 04:26:29 VA-Timetable_Vol_1-(TT006)-WEB-2016-MOHAWK
2016-09-12 04:26:32 AllFineGirls.16.09.12.Sophia.I.Know.What.Im.Doing.XXX.1080p.MP4-KTR
2016-09-12 04:26:44 Code.111.S01E01.FRENCH.720p.HDTV.x264-BAWLS
2016-09-12 04:27:13 Another.E03.Knochenbau.German.2012.ANiME.DL.BDRiP.x264-STARS
2016-09-12 04:27:17 Another.E04.Umrisse.German.2012.ANiME.DL.BDRiP.x264-STARS
2016-09-12 04:27:21 Prison.School.E04.Begleite.mich.zum.Sumo.sagte.sie.German.2015.ANiME.DL.BDRiP.x264-STARS
2016-09-12 04:27:25 Prison.School.E05.Der.groesste.Verraeter.an.der.Schule.German.2015.ANiME.DL.BDRiP.x264-STARS
2016-09-12 04:27:28 Prison.School.E06.Hanas.Rache.German.2015.ANiME.DL.BDRiP.x264-STARS
2016-09-12 04:27:33 Tokyo.Ghoul.Root.A.E10.Finaler.Regen.German.2015.ANiME.DL.BDRiP.x264-STARS
2016-09-12 04:27:39 Tokyo.Ghoul.Root.A.E11.Bluetenmeer.German.2015.ANiME.DL.BDRiP.x264-STARS
2016-09-12 04:27:41 Tokyo.Ghoul.Root.A.E12.Ken.German.2015.ANiME.DL.BDRiP.x264-STARS
2016-09-12 04:28:24 Samurai.Warriors.E07.Karminrote.Klinge.German.2015.ANiME.DL.BDRiP.x264-STARS
2016-09-12 04:28:27 Samurai.Warriors.E08.Weg.ohne.Wiederkehr.German.2015.ANiME.DL.BDRiP.x264-STARS
2016-09-12 04:28:29 Samurai.Warriors.E09.Der.Wind.von.Osaka.German.2015.ANiME.DL.BDRiP.x264-STARS
2016-09-12 04:28:33 Samurai.Warriors.E10.Eine.Festung.wie.keine.zweite.German.2015.ANiME.DL.BDRiP.x264-STARS
2016-09-12 04:28:35 Samurai.Warriors.E11.Einsame.stolze.Burg.German.2015.ANiME.DL.BDRiP.x264-STARS
2016-09-12 04:28:38 Yellowstone.S01E01.iNTERNAL.BDRip.x264-LiBRARiANS
2016-09-12 04:28:38 Yellowstone.S01E02.iNTERNAL.BDRip.x264-LiBRARiANS
2016-09-12 04:28:39 Yellowstone.S01E03.iNTERNAL.BDRip.x264-LiBRARiANS
2016-09-12 04:28:41 Samurai.Warriors.E12.Der.maechtigste.Krieger.im.Land.der.aufgehenden.Sonne.German.2015.ANiME.DL.BDRiP.x264-STARS
2016-09-12 04:29:19 Fear.The.Walking.Dead.S02E11.FRENCH.720p.HDTV.x264-SH0W
2016-09-12 04:30:35 Another.E02.Blaupause.German.2012.ANiME.DL.720p.BluRay.x264-STARS
2016-09-12 04:30:50 Another.E03.Knochenbau.German.2012.ANiME.DL.720p.BluRay.x264-STARS
2016-09-12 04:30:53 Another.E04.Umrisse.German.2012.ANiME.DL.720p.BluRay.x264-STARS
2016-09-12 04:30:57 Prison.School.E04.Begleite.mich.zum.Sumo.sagte.sie.German.2015.ANiME.DL.720p.BluRay.x264-STARS
2016-09-12 04:31:00 Prison.School.E05.Der.groesste.Verraeter.an.der.Schule.German.2015.ANiME.DL.720p.BluRay.x264-STARS
2016-09-12 04:31:03 Prison.School.E06.Hanas.Rache.German.2015.ANiME.DL.720p.BluRay.x264-STARS
2016-09-12 04:31:22 Tokyo.Ghoul.Root.A.E10.Finaler.Regen.German.2015.ANiME.DL.720p.BluRay.x264-STARS
2016-09-12 04:31:23 Joking.Off.S03E06.HDTV.x264-CRiMSON
2016-09-12 04:31:25 Tokyo.Ghoul.Root.A.E11.Bluetenmeer.German.2015.ANiME.DL.720p.BluRay.x264-STARS
2016-09-12 04:31:29 Tokyo.Ghoul.Root.A.E12.Ken.German.2015.ANiME.DL.720p.BluRay.x264-STARS
2016-09-12 04:31:37 Samurai.Warriors.E07.Karminrote.Klinge.German.2015.ANiME.DL.720p.BluRay.x264-STARS
2016-09-12 04:31:42 Samurai.Warriors.E08.Weg.ohne.Wiederkehr.German.2015.ANiME.DL.720p.BluRay.x264-STARS
2016-09-12 04:32:09 Samurai.Warriors.E09.Der.Wind.von.Osaka.German.2015.ANiME.DL.720p.BluRay.x264-STARS
2016-09-12 04:32:11 Samurai.Warriors.E10.Eine.Festung.wie.keine.zweite.German.2015.ANiME.DL.720p.BluRay.x264-STARS
2016-09-12 04:32:15 Samurai.Warriors.E11.Einsame.stolze.Burg.German.2015.ANiME.DL.720p.BluRay.x264-STARS
2016-09-12 04:32:19 Samurai.Warriors.E12.Der.maechtigste.Krieger.im.Land.der.aufgehenden.Sonne.German.2015.ANiME.DL.720p.BluRay.x264-STARS
2016-09-12 04:33:35 Another.E02.Blaupause.German.2012.ANiME.DL.1080p.BluRay.x264-STARS
2016-09-12 04:33:38 Another.E03.Knochenbau.German.2012.ANiME.DL.1080p.BluRay.x264-STARS
2016-09-12 04:33:47 Another.E04.Umrisse.German.2012.ANiME.DL.1080p.BluRay.x264-STARS
2016-09-12 04:33:51 Prison.School.E04.Begleite.mich.zum.Sumo.sagte.sie.German.2015.ANiME.DL.1080p.BluRay.x264-STARS
2016-09-12 04:33:54 Prison.School.E05.Der.groesste.Verraeter.an.der.Schule.German.2015.ANiME.DL.1080p.BluRay.x264-STARS
2016-09-12 04:33:56 Prison.School.E06.Hanas.Rache.German.2015.ANiME.DL.1080p.BluRay.x264-STARS
2016-09-12 04:34:01 Tokyo.Ghoul.Root.A.E10.Finaler.Regen.German.2015.ANiME.DL.1080p.BluRay.x264-STARS
2016-09-12 04:34:06 Tokyo.Ghoul.Root.A.E11.Bluetenmeer.German.2015.ANiME.DL.1080p.BluRay.x264-STARS
2016-09-12 04:34:07 Tokyo.Ghoul.Root.A.E12.Ken.German.2015.ANiME.DL.1080p.BluRay.x264-STARS
2016-09-12 04:34:26 Samurai.Warriors.E07.Karminrote.Klinge.German.2015.ANiME.DL.1080p.BluRay.x264-STARS
2016-09-12 04:34:36 Samurai.Warriors.E08.Weg.ohne.Wiederkehr.German.2015.ANiME.DL.1080p.BluRay.x264-STARS
2016-09-12 04:34:45 Samurai.Warriors.E09.Der.Wind.von.Osaka.German.2015.ANiME.DL.1080p.BluRay.x264-STARS
2016-09-12 04:34:49 Samurai.Warriors.E10.Eine.Festung.wie.keine.zweite.German.2015.ANiME.DL.1080p.BluRay.x264-STARS
2016-09-12 04:34:52 Samurai.Warriors.E11.Einsame.stolze.Burg.German.2015.ANiME.DL.1080p.BluRay.x264-STARS
2016-09-12 04:34:57 Samurai.Warriors.E12.Der.maechtigste.Krieger.im.Land.der.aufgehenden.Sonne.German.2015.ANiME.DL.1080p.BluRay.x264-STARS
2016-09-12 04:39:29 Escaping.Polygamy.S02E07.HDTV.x264-CRiMSON
2016-09-12 04:40:20 Ballers.2015.S02E08.720p.HDTV.x264-KILLERS
2016-09-12 04:40:58 Ray.Donovan.S04E11.1080p.WEB.H264-DEFLATE
2016-09-12 04:41:23 John_Denver_-_Voice_of_America-(1993)-aAF
2016-09-12 04:41:51 Chesapeake.Shores.S01E05.720p.HDTV.x264-AMBIT
2016-09-12 04:42:17 Chesapeake.Shores.S01E05.HDTV.x264-AMBIT
2016-09-12 04:43:08 Fear.the.Walking.Dead.S02E11.PROPER.720p.HDTV.x264-KILLERS
2016-09-12 04:43:28 Safe.House.S01E03.FRENCH.1080p.HDTV.x264-Ryotox
2016-09-12 04:44:49 Safe.House.S01E04.FiNAL.FRENCH.1080p.HDTV.x264-Ryotox
2016-09-12 04:45:24 Ballers.2015.S02E08.HDTV.x264-KILLERS
2016-09-12 04:45:46 1984.1984.REMASTERED.WEBRip.x264-REGRET
2016-09-12 04:47:25 Kingin.With.Tyga.S02E06.King.of.Dubai.HDTV.x264-CRiMSON
2016-09-12 04:48:04 Ice.Road.Truckers.S10E06.Bridge.to.Nowhere.HDTV.x264-CRiMSON
2016-09-12 04:48:09 633.Squadron.1964.720p.WEBRip.x264-REGRET
2016-09-12 04:50:19 A.Family.Thing.1996.720p.WEB.x264-REGRET
2016-09-12 04:50:39 Fear.the.Walking.Dead.S02E11.PROPER.HDTV.x264-KILLERS
2016-09-12 04:50:43 Escaping.Polygamy.S02E08.HDTV.x264-CRiMSON
2016-09-12 04:51:21 Limitless.S01E01.FRENCH.720p.HDTV.x264-SH0W
2016-09-12 04:51:30 Limitless.S01E01.FRENCH.HDTV.x264-SH0W
2016-09-12 04:51:59 A.Family.Thing.1996.WEBRip.x264-REGRET
2016-09-12 04:53:02 A.K.A.Cassius.Clay.1970.720p.WEBRip.x264-REGRET
2016-09-12 04:53:06 John_Entwhistle_-_King_Biscuit_Flower_Hour-(1997)-aAF
2016-09-12 04:54:52 A.K.A.Cassius.Clay.1970.WEBRip.x264-REGRET
2016-09-12 04:55:48 John_Entwistle_-_The_Best_Of-(1981)-aAF
2016-09-12 04:57:05 Alias.Jesse.James.1959.720p.WEBRip.x264-REGRET
2016-09-12 04:58:27 Who.Can.Cum.The.Most.2.2016.XXX.DVDRip.x264-HAiRYPUSSY
2016-09-12 04:58:53 VA_-_Gartenfeten_Mix_Volume_13_(Mixed_By_DJ_Mischen)-BOOTLEG-WEB-2016-ZzZz_INT
2016-09-12 05:00:37 The.Strain.S03E03.720p.HDTV.x264-AVS
2016-09-12 05:01:05 Alias.Jesse.James.1959.WEBRip.x264-REGRET
2016-09-12 05:01:47 The.Strain.S03E03.HDTV.x264-FLEET
2016-09-12 05:02:35 Article.99.1992.720p.WEBRip.x264-REGRET
2016-09-12 05:05:21 Australia.2008.iNTERNAL.BDRip.x264-REGRET
2016-09-12 05:06:49 Bagdad.Cafe.1987.REMASTERED.WEBRip.x264-REGRET
2016-09-12 05:07:56 Family.Feud.AU.2016.09.11.WEB.h264-ROFL
2016-09-12 05:07:57 iFish.S11E24.WEB.h264-ROFL
2016-09-12 05:07:58 iFish.S11E24.WEB.h264-ROFL
2016-09-12 05:07:59 iFish.S11E25.WEB.h264-ROFL
2016-09-12 05:08:00 iFish.S11E26.WEB.h264-ROFL
2016-09-12 05:08:01 iFish.S11E25.WEB.h264-ROFL
2016-09-12 05:08:01 iFish.S11E27.WEB.h264-ROFL
2016-09-12 05:08:02 iFish.S11E26.WEB.h264-ROFL
2016-09-12 05:08:02 iFish.S11E27.WEB.h264-ROFL
2016-09-12 05:08:02 iFish.S11E28.WEB.h264-ROFL
2016-09-12 05:08:03 Survivor.AU.S03E08.WEB.h264-ROFL
2016-09-12 05:08:04 Survivor.AU.S03E09.WEB.h264-ROFL
2016-09-12 05:08:07 The.Great.Australian.Spelling.Bee.S02E09.WEB.h264-ROFL
2016-09-12 05:09:00 John_Hiatt_-_All_of_a_Sudden-(1982)-aAF
2016-09-12 05:09:27 Bill.Burr.You.People.Are.All.The.Same.2012.iNTERNAL.DVDRip.x264-REGRET
2016-09-12 05:10:45 Brigade.M.En.Lions.Pride.Rock.Voor.Dietsland.2006.iNTERNAL.DVDRip.x264-REGRET
2016-09-12 05:10:58 John_Hiatt_-_Bring_The_Family-(1987)-aAF
2016-09-12 05:11:53 Rob.and.Chyna.S01E01.Are.You.Still.Texting.Bitches.HDTV.x264-CRiMSON
2016-09-12 05:12:58 Vice.Principals.S01E08.720p.HDTV.x264-KILLERS
2016-09-12 05:13:16 Signals_Midwest-At_This_Age-2016-FNT
2016-09-12 05:13:29 Arms_Aloft-What_A_Time_To_Be_Barely_Alive-2016-FNT
2016-09-12 05:13:41 John_Hiatt_-_Comes_Alive_At_Budakon-(1994)-aAF
2016-09-12 05:14:22 Candyman.II.Farewell.to.the.Flesh.1995.iNTERNAL.WEBRip.x264-REGRET
2016-09-12 05:14:44 Charlie.Bartlett.2007.720p.WEB.x264-REGRET
2016-09-12 05:14:45 Charlie.Bartlett.2007.720p.WEB.x264-REGRET
2016-09-12 05:15:02 Vice.Principals.S01E08.HDTV.x264-KILLERS
2016-09-12 05:15:03 Vice.Principals.S01E08.HDTV.x264-KILLERS
2016-09-12 05:15:45 Aly_And_Fila_Meets_Roger_Shah_And_Susana-Unbreakable__Incl_Edit-(FSOE183A)-WEB-2016-UKHx
2016-09-12 05:15:59 Denis_Kenzo_And_Cari-Save_Me-(DKR001)-WEB-2016-UKHx
2016-09-12 05:16:19 Mike_Hawkins-Hollywood-(ARMAS1220)-WEB-2016-UKHx
2016-09-12 05:16:24 Fear.The.Walking.Dead.S02E11.FRENCH.HDTV.x264-AMB3R
2016-09-12 05:17:13 Creature.1985.WS.WEBRip.x264-REGRET
2016-09-12 05:18:16 Crime.and.Punishment.2002.720p.WEBRip.x264-REGRET
2016-09-12 05:18:54 John_Hiatt_-_Perfectly_Good_Guitar-(1993)-aAF
2016-09-12 05:20:19 John_Hiatt_-_Riding_With_The_King-(1983)-aAF
2016-09-12 05:21:22 Crime.and.Punishment.2002.WS.WEBRip.x264-REGRET
2016-09-12 05:22:06 John_Hiatt_-_Two_Bit_Monsters-(1980)-aAF
2016-09-12 05:22:22 Deicide.Doomsday.LA.2007.iNTERNAL.DVDRip.x264-REGRET
2016-09-12 05:23:51 Rob.and.Chyna.S01E01.720p.HDTV.x264-FIRST
2016-09-12 05:23:52 Rob.and.Chyna.S01E01.720p.HDTV.x264-FIRST
2016-09-12 05:24:07 John_Hiatt_-_Walk_On-(1995)-aAF
2016-09-12 05:24:16 Salvage.Dawgs.S06E06.Free.Will.House.HDTV.x264-CRiMSON
2016-09-12 05:25:11 Diggstown.1992.iNTERNAL.WEBRip.x264-REGRET
2016-09-12 05:25:38 John_Hiatt_-_Yall_Caught-(1989)-aAF
2016-09-12 05:25:40 Basketball.Wives.LA.S05E09.HDTV.x264-CRiMSON
2016-09-12 05:27:40 Encryption.Visium.Ritualis.2005.iNTERNAL.DVDRip.x264-REGRET
2016-09-12 05:28:22 Studio.10.2016.09.12.WEB.h264-ROFL
2016-09-12 05:28:46 John_Kay_n_Sparrow_-_John_Kay_n_Sparrow-(1993)-aAF
2016-09-12 05:28:59 VA_-_Gartenfeten_Mix_Volume_12_(Mixed_By_DJ_Mischen)-BOOTLEG-WEB-2016-ZzZz_INT
2016-09-12 05:29:17 WWE.Backlash.2016.720p.WEB.h264-KYR
2016-09-12 05:30:08 Finding.Nemo.2003.iNTERNAL.DVDRip.x264-REGRET
2016-09-12 05:30:26 Flowerman.2014.SUBPACK.720p.WEB.x264-REGRET
2016-09-12 05:30:42 Flowerman.2014.WEBRip.x264-REGRET
2016-09-12 05:31:59 Futureworld.1976.WS.WEBRip.x264-REGRET
2016-09-12 05:37:31 Russell_G-Amber-WEB-2016-TSP
2016-09-12 05:38:42 Geronimo.1962.720p.WEBRip.x264-REGRET
2016-09-12 05:39:24 Celebrity.Family.Feud.2015.S02E10.HDTV.x264-UAV
2016-09-12 05:39:33 Celebrity.Family.Feud.2015.S02E10.720p.HDTV.X264-UAV
2016-09-12 05:39:59 Geronimo.1962.WEBRip.x264-REGRET
2016-09-12 05:40:00 Geronimo.1962.WEBRip.x264-REGRET
2016-09-12 05:41:11 Ghostrider.3.Goes.Crazy.In.Europe.2004.iNTERNAL.DVDRip.x264-REGRET
2016-09-12 05:41:53 Hell.Up.In.Harlem.1973.720p.WEBRip.x264-REGRET
2016-09-12 05:41:54 Hell.Up.In.Harlem.1973.720p.WEBRip.x264-REGRET
2016-09-12 05:45:43 Hell.Up.In.Harlem.1973.REMASTERED.WEBRip.x264-REGRET
2016-09-12 05:49:21 John_Lyon_and_Jimmy_Rogers_-_Rock_Country-(1992)-aAF
2016-09-12 05:50:04 Killing.Streets.1991.720p.WEB.x264-REGRET
2016-09-12 05:51:26 Killing.Streets.1991.WEBRip.x264-REGRET
2016-09-12 05:52:00 Larger.Than.Life.1996.720p.WEB.x264-REGRET
2016-09-12 05:52:44 NDX-Paper_Boy-(WEB)-FR-2012-K0K
2016-09-12 05:53:34 Larger.Than.Life.1996.WS.WEBRip.x264-REGRET
2016-09-12 05:56:31 Legend.of.the.Lost.1957.iNTERNAL.WEBRip.x264-REGRET
2016-09-12 05:56:32 Legend.of.the.Lost.1957.iNTERNAL.WEBRip.x264-REGRET
2016-09-12 05:57:13 ATKGalleria.16.09.12.Dolly.Leigh.Footfetish.XXX.1080p.MP4-KTR
2016-09-12 05:58:06 ATKGalleria.16.09.12.Dolly.Leigh.Masturbation.XXX.1080p.MP4-KTR
2016-09-12 05:58:39 ATKGalleria.16.09.12.Olivia.Lua.Masturbation.XXX.1080p.MP4-KTR
2016-09-12 05:59:12 ATKGalleria.16.09.12.Olivia.Lua.Toys.XXX.1080p.MP4-KTR
2016-09-12 05:59:13 Memories.of.Me.1988.iNTERNAL.WEBRip.x264-REGRET
2016-09-12 06:00:06 ATKGalleria.16.09.12.Sabrina.Rey.Toys.XXX.1080p.MP4-KTR
2016-09-12 06:00:08 Jane.The.Virgin.S02E03.FRENCH.1080p.HDTV.X264-Ryotox
2016-09-12 06:01:03 ATKGalleria.16.09.12.Val.Dodds.Masturbation.XXX.1080p.MP4-KTR
2016-09-12 06:01:17 Metallica.Some.Kind.Of.Monster.2004.iNTERNAL.DVDRip.x264-REGRET
2016-09-12 06:01:49 Metropolis.2001.iNTERNAL.DVDRip.x264-REGRET
2016-09-12 06:01:49 John_McLaughlin_-_Music_Spoken_Here_(RM)-(1997)-aAF
2016-09-12 06:01:50 John_McLaughlin_-_Music_Spoken_Here_(RM)-(1997)-aAF
2016-09-12 06:02:00 ATKGalleria.16.09.12.Val.Dodds.Toys.XXX.1080p.MP4-KTR
2016-09-12 06:02:59 Moby.Dick.1956.WS.WEBRip.x264-REGRET
2016-09-12 06:04:05 Nargaroth.Dead-Ication.2008.iNTERNAL.DVDRip.x264-REGRET
2016-09-12 06:05:02 John_Mellencamp_-_Nothin_Maters_n_What_if_It_Did-(1980)-aAF
2016-09-12 06:06:12 Saila_-_Sun_Token-WEB-2016-iDC
2016-09-12 06:06:57 Ninja.Scroll.1993.iNTERNAL.DVDRip.x264-REGRET
2016-09-12 06:06:58 Ninja.Scroll.1993.iNTERNAL.DVDRip.x264-REGRET
2016-09-12 06:07:33 TeensLikeItBig.16.09.12.Bailey.Brooke.Girl.Next.Door.XXX.1080p.MP4-KTR
2016-09-12 06:07:51 John_Michael_Montgomery_-_Lifes_A_Dance-(1992)-aAF
2016-09-12 06:08:22 Nokturnal.Mortum.Live.In.Katowice.2009.iNTERNAL.DVDRip.x264-REGRET
2016-09-12 06:09:20 HotAndMean.16.09.12.Marsha.May.And.Brooke.Paige.My.Boyfriends.Mom.XXX.1080p.MP4-KTR
2016-09-12 06:10:34 Not.Without.My.Daughter.1991.720p.WEB.x264-REGRET
2016-09-12 06:11:20 1By-Day.16.09.12.Nancy.A.XXX.1080p.MP4-KTR
2016-09-12 06:11:56 HotLegsAndFeet.16.09.12.Cindy.XXX.HR.MP4-KTR
2016-09-12 06:12:06 Not.Without.My.Daughter.1991.iNTERNAL.WEBRip.x264-REGRET
2016-09-12 06:12:50 VIPissy.16.09.12.Oprah.And.Dafne.XXX.1080p.MP4-KTR
2016-09-12 06:13:34 Pablo.Francisco.Bits.And.Pieces.Live.From.Orange.County.2004.iNTERNAL.DVDRip.x264-REGRET
2016-09-12 06:14:09 Shimon-The_Predator-(RAMM10D)-WEB-1994-PRESCRiPTiON
2016-09-12 06:14:47 SweetSinner.Come.Inside.Me.2.BTS.XXX.720p.MP4-KTR
2016-09-12 06:14:52 Shimon-The_Predator_Within_Reason_(Remixes)-(RAMM10RD)-WEB-1995-PRESCRiPTiON
2016-09-12 06:15:19 SweetSinner.Come.Inside.Me.2.BTS.XXX.1080p.MP4-KTR
2016-09-12 06:16:42 1000Facials.16.09.12.Skyler.Nicole.XXX.1080p.MP4-KTR
2016-09-12 06:16:43 1000Facials.16.09.12.Skyler.Nicole.XXX.1080p.MP4-KTR
2016-09-12 06:16:59 Dokken-Back_In_The_Streets-(1989)-aAF
2016-09-12 06:17:20 Paprika.2006.iNTERNAL.DVDRip.x264-REGRET
2016-09-12 06:17:41 AllGirlMassage.16.09.12.Bree.Daniels.And.Stella.Cox.The.New.Formula.Part.Two.XXX.1080p.MP4-KTR
2016-09-12 06:18:13 Origin_Unknown-Valley_Of_The_Shadows-(RAMM16D)-WEB-1996-PRESCRiPTiON_INT
2016-09-12 06:18:27 Peters.Friends.1992.iNTERNAL.WEBRip.x264-REGRET
2016-09-12 06:18:33 GloryHole.16.09.12.Karlee.Grey.XXX.1080p.MP4-KTR
2016-09-12 06:18:50 Limitless.S01E01.FRENCH.1080p.HDTV.x264-SH0W
2016-09-12 06:19:18 MommysGirl.16.09.12.Aaliyah.Love.And.Tiffany.Watson.The.Will.Part.One.XXX.1080p.MP4-KTR
2016-09-12 06:19:45 NFL.2016.09.11.Lions.vs.Colts.720p.HDTV.x264-BAJSKORV
2016-09-12 06:21:05 Ram_Trilogy-Chapter_1-(RAMM22D)-WEB-1998-PRESCRiPTiON
2016-09-12 06:21:46 Sayonara.Itsuka.2010.WEBRip.x264-REGRET
2016-09-12 06:22:18 Ram_Trilogy-Chapter_2-(RAMM23D)-WEB-1998-PRESCRiPTiON
2016-09-12 06:22:39 September.1987.720p.WEB.x264-REGRET
2016-09-12 06:22:43 Ram_Trilogy-Chapter_3-(RAMM24D)-WEB-1998-PRESCRiPTiON
2016-09-12 06:22:49 John_Prine_-_John_Prine-(1971)-aAF
2016-09-12 06:23:32 Moving_Fusion-The_Beginning_EP-(RAMM25D)-WEB-1999-PRESCRiPTiON
2016-09-12 06:23:50 Ram_Trilogy-Chapter_3-(RAMM24D)-WEB-1998-PRESCRiPTi
2016-09-12 06:24:45 Ram_Trilogy-Evolution-(RAMM26D)-WEB-1999-PRESCRiPTiON_INT
2016-09-12 06:25:10 Braquo.S04E05.FRENCH.720p.HDTV.x264-SH0W
2016-09-12 06:26:20 Slayer.Live.In.Montreux.2002.2011.iNTERNAL.DVDRip.x264-REGRET
2016-09-12 06:26:38 Moving_Fusion-Atlantis_EP-(RAMM27D)-WEB-2000-PRESCRiPTiON
2016-09-12 06:27:17 Ram_Trilogy-Titan_EP-(RAMM28D)-WEB-2000-PRESCRiPTiON
2016-09-12 06:27:38 Slayer.War.At.The.Warfield.2003.iNTERNAL.DVDRip.x264-REGRET
2016-09-12 06:28:15 Snow.White.and.the.Magic.Mirror.1994.WEBRip.x264-REGRET
2016-09-12 06:28:37 John_Prine_-_Prime_Pine-The_Best_Of-(1976)-aAF
2016-09-12 06:28:50 Speed.1994.iNTERNAL.BDRip.x264-REGRET
2016-09-12 06:29:06 Star.Trek.2009.iNTERNAL.BDRip.x264-REGRET
2016-09-12 06:29:48 John_Renborn_-_Black_Balloon-(1979)-aAF
2016-09-12 06:29:50 Naked_Fish-Displaced_EP-(APORN045)-WEB-2014-PRESCRiPTiON
2016-09-12 06:30:12 Naked_Fish-Loony_Circus_EP-(APORN049)-WEB-2014-PRESCRiPTiON
2016-09-12 06:30:44 Xilent_Ft_Grimm-Falling_Apart-(APORN046)-WEB-2014-PRESCRiPTiON
2016-09-12 06:30:49 EvilAngel.Hookup.Hotshot.Cuteness.Overload.XXX.720p.MP4-KTR
2016-09-12 06:31:05 Tales.from.the.Darkside.The.Movie.1990.WS.WEBRip.x264-REGRET
2016-09-12 06:31:07 Xilent-Reality-(APORN048)-WEB-2014-PRESCRiPTiON
2016-09-12 06:31:08 Xilent-Reality-(APORN048)-WEB-2014-PRESCRiPTiON
2016-09-12 06:32:39 Tank.Girl.1995.REMASTERED.WEBRip.x264-REGRET
2016-09-12 06:33:31 The.Accused.1988.iNTERNAL.WEBRip.x264-REGRET
2016-09-12 06:34:53 John_Stewart_-_An_American_Folk_Song_Anthology-(1996)-aAF
2016-09-12 06:35:39 The.Claim.2000.720p.WEB.x264-REGRET
2016-09-12 06:36:33 The.Claim.2000.REMASTERED.WEBRip.x264-REGRET
2016-09-12 06:36:49 EvilAngel.Hookup.Hotshot.Cuteness.Overload.XXX.1080p.MP4-KTR
2016-09-12 06:37:04 The.Clown.at.Midnight.1999.iNTERNAL.WEB.x264-REGRET
2016-09-12 06:37:17 My.Neighbors.Daughter.2016.XXX.DVDRip.x264-HAiRYPUSSY
2016-09-12 06:37:32 WAGS.S02E10.Pegging.Party.HDTV.x264-CRiMSON
2016-09-12 06:38:27 Dani_And_Lizzy-Work_Of_Heart-CD-FLAC-2016-PERFECT
2016-09-12 06:38:28 Dani_And_Lizzy-Work_Of_Heart-CD-FLAC-2016-PERFECT
2016-09-12 06:38:39 The.Fugitive.Kind.1959.iNTERNAL.WEBRip.x264-REGRET
2016-09-12 06:38:40 The.Fugitive.Kind.1959.iNTERNAL.WEBRip.x264-REGRET
2016-09-12 06:39:42 John_Stewart_-_Gold-Best_Of_(2CD)-(2000)-aAF
2016-09-12 06:40:32 La.Gazzetta.Dello.Sport.09.12.2016.iTALiAN.RETAiL.eBook-DiVER
2016-09-12 06:40:55 John_Stewart_-_Lonesome_Picker_Rides_Again-(1971)-aAF
2016-09-12 06:42:24 John_Stewart_-_The_Last_Campaign-(1985)-aAF
2016-09-12 06:42:46 The.Incredibles.2004.iNTERNAL.BDRip.x264-REGRET
2016-09-12 06:43:42 John_Stewart_-_The_Trio_Years-(1996)-aAF
2016-09-12 06:43:45 The.Shawshank.Redemption.1994.iNTERNAL.BDRip.x264-REGRET
2016-09-12 06:44:46 EvilAngel.Holly.Hendrixs.Anal.Experience.XXX.720p.MP4-KTR
2016-09-12 06:44:52 John_Sykes_-_20th_Century-(1997)-aAF
2016-09-12 06:45:21 Ray_Ma-The_Flowers_In_Hand-WEB-CPOP-2016-TosK
2016-09-12 06:45:38 Yaoband-Super_Yao-WEB-CPOP-2016-TosK
2016-09-12 06:46:45 The.Social.Network.2010.iNTERNAL.BDRip.x264-REGRET
2016-09-12 06:46:56 Dani_And_Lizzy-Work_Of_Heart-CD-FLAC-2016-PE
2016-09-12 06:47:31 The.Wizard.Of.Oz.1939.iNTERNAL.BDRip.x264-REGRET
2016-09-12 06:49:01 Andrea_Cassino_-_Flux_(Proton_Radio)-SBD-09-11-2016-TALiON_INT
2016-09-12 06:49:17 Christian_Smith_-_Tronic_215__Incl_Wehbba_Guestmix_(Proton_Radio)-SBD-09-11-2016-TALiON_INT
2016-09-12 06:49:30 Kobana_-_Hear_the_Colours_045_(Proton_Radio)-SBD-09-11-2016-TALiON_INT
2016-09-12 06:49:31 Kobana_-_Hear_the_Colours_045_(Proton_Radio)-SBD-09-11-2016-TALiON_INT
2016-09-12 06:49:42 Martin_Landsky_-_Proton_Classics_(Proton_Radio)-SBD-09-11-2016-TALiON_INT
2016-09-12 06:49:47 Thor.2011.iNTERNAL.BDRip.x264-REGRET
2016-09-12 06:49:59 John_Tesh_-_Live_At_Red_Rocks-(1995)-aAF
2016-09-12 06:50:56 PLURALSIGHT.WHAT.IS.NEW.IN.TABLEAU.10-JGTiSO
2016-09-12 06:51:21 Tom.Green.Something.Smells.Funny.1999.iNTERNAL.DVDRip.x264-REGRET
2016-09-12 06:51:36 Tom.Green.Tonsil.Hockey.1999.iNTERNAL.DVDRip.x264-REGRET
2016-09-12 06:51:38 EvilAngel.Holly.Hendrixs.Anal.Experience.XXX.1080p.MP4-KTR
2016-09-12 06:52:19 PLURALSIGHT.AKKANET.PERSISTENCE.FUNDAMENTALS-JGTiSO
2016-09-12 06:53:13 60.Minutes.S48E52.The.911.Museum.Gold.Star.Parents.Earthquake.Alley.WEB.h264-ROFL
2016-09-12 06:53:15 60.Minutes.S48E52.The.911.Museum.Gold.Star.Parents.Earthquake.Alley.720p.WEB.h264-ROFL
2016-09-12 06:53:15 Charlie.Rose.The.Week.2016.09.09.WEB.h264-ROFL
2016-09-12 06:53:16 Charlie.Rose.The.Week.2016.09.09.720p.WEB.h264-ROFL
2016-09-12 06:53:17 Charlie.Rose.The.Week.2016.09.09.WEB.h264-ROFL
2016-09-12 06:53:18 Charlie.Rose.The.Week.2016.09.09.720p.WEB.h264-ROFL
2016-09-12 06:53:18 Charlie.Rose.The.Week.2016.09.09.1080p.WEB.h264-ROFL
2016-09-12 06:53:20 Melody.S02E01.WEB.h264-ROFL
2016-09-12 06:53:21 Melody.S02E01.720p.WEB.h264-ROFL
2016-09-12 06:53:22 Melody.S02E02.WEB.h264-ROFL
2016-09-12 06:53:26 Melody.S02E02.720p.WEB.h264-ROFL
2016-09-12 06:53:29 Melody.S02E03.WEB.h264-ROFL
2016-09-12 06:53:29 Melody.S02E03.720p.WEB.h264-ROFL
2016-09-12 06:53:30 Melody.S02E03.720p.WEB.h264-ROFL
2016-09-12 06:53:33 Melody.S02E04.WEB.h264-ROFL
2016-09-12 06:53:35 Melody.S02E04.720p.WEB.h264-ROFL
2016-09-12 06:53:35 Melody.S02E05.WEB.h264-ROFL
2016-09-12 06:53:38 Melody.S02E06.WEB.h264-ROFL
2016-09-12 06:53:39 Melody.S02E05.720p.WEB.h264-ROFL
2016-09-12 06:53:39 Melody.S02E06.WEB.h264-ROFL
2016-09-12 06:53:41 Melody.S02E06.720p.WEB.h264-ROFL
2016-09-12 06:53:44 Melody.S02E07.WEB.h264-ROFL
2016-09-12 06:53:47 Melody.S02E07.720p.WEB.h264-ROFL
2016-09-12 06:53:48 Melody.S02E08.WEB.h264-ROFL
2016-09-12 06:53:51 PLURALSIGHT.AWS.CERTIFIED.DEVOPS.ENGINEER.SECURITY.GOVERNANCE.AND.VALIDATION-JGTiSO
2016-09-12 06:53:52 Melody.S02E08.720p.WEB.h264-ROFL
2016-09-12 06:53:52 Melody.S02E09.WEB.h264-ROFL
2016-09-12 06:53:54 Melody.S02E09.720p.WEB.h264-ROFL
2016-09-12 06:53:55 Melody.S02E09.720p.WEB.h264-ROFL
2016-09-12 06:53:59 Melody.S02E10.720p.WEB.h264-ROFL
2016-09-12 06:54:01 Melody.S02E10.WEB.h264-ROFL
2016-09-12 06:54:04 Music.For.Misfits.The.Story.Of.Indie.S01E02.WEB.h264-ROFL
2016-09-12 06:54:06 Music.For.Misfits.The.Story.Of.Indie.S01E03.WEB.h264-ROFL
2016-09-12 06:54:07 Music.For.Misfits.The.Story.Of.Indie.S01E03.WEB.h264-ROFL
2016-09-12 06:54:10 Music.For.Misfits.The.Story.Of.Indie.S01E03.720p.WEB.h264-ROFL
2016-09-12 06:54:15 Music.For.Misfits.The.Story.Of.Indie.S01E01.WEB.h264-ROFL
2016-09-12 06:56:09 PLURALSIGHT.BUILDING.AN.MVVM.BASED.ARCHITECTURE.FOR.XAMARIN.MOBILE.APPS-JGTiSO
2016-09-12 06:56:33 Il.Corriere.Della.Sera.09.12.2016.iTALiAN.RETAiL.eBook-DiVER
2016-09-12 06:58:01 PLURALSIGHT.CITRIX.XENDESKTOP.7.6.LTSR.CCPV.INTRODUCTION-JGTiSO
2016-09-12 06:58:12 Wholl.Stop.The.Rain.1978.720p.WEBRip.x264-REGRET
2016-09-12 06:59:15 Wholl.Stop.The.Rain.1978.iNTERNAL.WEBRip.x264-REGRET
2016-09-12 06:59:50 PLURALSIGHT.QUICK.GUIDE.TO.API.TESTING.WITH.HPS.UNIFIED.FUNCTIONAL.TESTING-JGTiSO
2016-09-12 06:59:54 Wuthering.Heights.1970.720p.WEBRip.x264-REGRET
2016-09-12 07:00:34 Kery_James-Lettre_A_La_Republique-(WEB)-FR-2012-OND_iNT
2016-09-12 07:01:44 PLURALSIGHT.LAYER.2.SECURITY.FOR.CCNA.SECURITY.210.260.IINS-JGTiSO
2016-09-12 07:01:45 PLURALSIGHT.LAYER.2.SECURITY.FOR.CCNA.SECURITY.210.260.IINS-JGTiSO
2016-09-12 07:01:53 John_Valby_-_Herniated_Jingle_Balls-(2001)-aAF
2016-09-12 07:02:44 Divine_Elements-Drive_EP-(APORN050)-WEB-2014-PRESCRiPTiON
2016-09-12 07:03:07 Mediks_And_Benny_L_Ft_MC_Coppa-Speakers_Vibrate-(APORN052)-WEB-2014-PRESCRiPTiON
2016-09-12 07:03:23 John_Valby_-_Super_Pixies-(1995)-aAF
2016-09-12 07:03:30 PLURALSIGHT.POSTGRESQL.INDEX.TUNING.AND.PERFORMANCE.OPTIMIZATION-JGTiSO
2016-09-12 07:03:34 Xilent_Ft_Sue_Gerger-The_Place-(APORN051)-WEB-2014-PRESCRiPTiON
2016-09-12 07:03:54 ATKGirlfriends.16.09.12.Brittany.Shae.XXX.1080p.MP4-KTR
2016-09-12 07:05:11 ATKGirlfriends.16.09.12.Brittany.Shae.XXX.2160p.MP4-KTR
2016-09-12 07:05:50 ATKHairy.16.09.12.Lula.Interview.XXX.1080p.MP4-KTR
2016-09-12 07:06:29 AuntJudys.16.09.12.Sheena.Ryder.Toys.XXX.1080p.MP4-KTR
2016-09-12 07:07:41 John_Waite_-_Ignition-(1982)-aAF
2016-09-12 07:07:46 PLURALSIGHT.QUIXEL.SUITE.2.2.DDO.ESSENTIALS-JGTiSO
2016-09-12 07:08:45 John_Waite_-_No_Brakes-(1984)-aAF
2016-09-12 07:10:41 PLURALSIGHT.SQL.SERVER.CONSOLIDATION.TACTICS.AND.BEST.PRACTICES-JGTiSO
2016-09-12 07:12:45 Teenage.Hospital.Fantasies.2016.XXX.PROPER.DVDRip.x264-HAiRYPUSSY
2016-09-12 07:12:46 Teenage.Hospital.Fantasies.2016.XXX.PROPER.DVDRip.x264-HAiRYPUSSY
2016-09-12 07:12:47 PLURALSIGHT.MANAGING.PCS.AND.DEVICES.WITH.MICROSOFT.INTUNE-JGTiSO
2016-09-12 07:14:15 Circus.of.Fear.1966.720p.BluRay.x264-SADPANDA
2016-09-12 07:14:58 PLURALSIGHT.SIMPLIFIED.DOTNET.BACKGROUND.TASKS.WITH.HANGFIRE-JGTiSO
2016-09-12 07:16:24 John_Williams_-_John_Williams-(1995)-aAF
2016-09-12 07:17:15 PLURALSIGHT.NURBS.FOR.ORGANIC.3D.MODELING.IN.AUTOCAD-JGTiSO
2016-09-12 07:18:06 Five.Golden.Dragons.1967.720p.BluRay.x264-SADPANDA
2016-09-12 07:18:31 Five.Golden.Dragons.1967.1080p.BluRay.x264-SADPANDA
2016-09-12 07:19:10 PLURALSIGHT.DESIGN.A.TECH.LOGO.THAT.STANDS.OUT-JGTiSO
2016-09-12 07:20:12 PLURALSIGHT.CREATING.LOW.POLY.TREES.IN.3DS.MAX-JGTiSO
2016-09-12 07:21:35 PLURALSIGHT.OFFICE.365.DEVELOPMENT.GETTING.STARTED-JGTiSO
2016-09-12 07:23:39 PLURALSIGHT.WPF.PRODUCTIVITY.PLAYBOOK-JGTiSO
2016-09-12 07:24:58 PLURALSIGHT.INTRODUCTION.TO.LIGHTING.AND.RENDERING.WITH.VRAY.FOR.NUKE-JGTiSO
2016-09-12 07:25:53 PLURALSIGHT.CITRIX.XENDESKTOP.7.6.LTSR.CCPV.PRE.INSTALLATION-JGTiSO
2016-09-12 07:26:15 Teenage.Hospital.Fantasies.XXX.DVDRip.x264-UPPERCUT
2016-09-12 07:26:58 PLURALSIGHT.UWP.AUDIO.FUNDAMENTALS-JGTiSO
2016-09-12 07:28:50 PLURALSIGHT.COMPILED.DATA.BINDING.FUNDAMENTALS.IN.UWP.USING.XAML-JGTiSO
2016-09-12 07:31:38 PLURALSIGHT.INTRODUCTION.TO.HOUDINI.PYRO-JGTiSO
2016-09-12 07:33:25 PLURALSIGHT.ROUTING.IPV4.AND.IPV6.FOR.CISCO.CCNA.200.125100.105-JGTiSO
2016-09-12 07:35:55 PLURALSIGHT.SOLIDWORKS.ADVANCED.TOP.DOWN.DESIGN-JGTiSO
2016-09-12 07:37:43 PLURALSIGHT.REAL.WORLD.SOA.DESIGN.AND.IMPLEMENTATION-JGTiSO
2016-09-12 07:39:27 Beat_The_Noise_-_Meet_Me_At_The_Dance_Floor-(QTZ0168)-WEB-2016-ZzZz
2016-09-12 07:39:30 Johnnie_Taylor_-_Crazy_Bout_You-(1989)-aAF
2016-09-12 07:39:36 Dario_Trapani_-_Stay_Here_Forever-(BL1614)-WEB-2016-ZzZz
2016-09-12 07:39:44 PLURALSIGHT.THE.SUCCESSFUL.TECHNICAL.INTERVIEW.FOR.INTERVIEWERS-JGTiSO
2016-09-12 07:39:45 FARGO_feat_C_Todd_Nielsen_-_We_Dont_Have_To_Say_Goodnight-(DEPY71600051)-WEB-2016-ZzZz
2016-09-12 07:39:46 FARGO_feat_C_Todd_Nielsen_-_We_Dont_Have_To_Say_Goodnight-(DEPY71600051)-WEB-2016-ZzZz
2016-09-12 07:39:57 Ian_Storm_and_Michael_Ford_-_Paradise_Island-(WOF0029)-WEB-2016-ZzZz
2016-09-12 07:40:07 Philipp_Wolf_and_Nicolas_Hannig_feat_JUSTN_X_-_Wild_Side_(EP)-WEB-2016-ZzZz
2016-09-12 07:40:16 Valiant_Kings_-_As_The_Rush_Comes-(PITAL433D)-WEB-2016-ZzZz
2016-09-12 07:40:17 Valiant_Kings_-_As_The_Rush_Comes-(PITAL433D)-WEB-2016-ZzZz
2016-09-12 07:40:17 Pluralsight.com.Managing.Certificates.with.AWS.Certificate.Manager-ELOHiM
2016-09-12 07:40:26 PLURALSIGHT.UNDERSTANDING.ASPNET.CORE.UPDATE-JGTiSO
2016-09-12 07:40:38 Pluralsight.com.PHP.Web.Application.Security-ELOHiM
2016-09-12 07:40:59 Pluralsight.com.Puppet.4.Working.with.Files.and.Templates-ELOHiM
2016-09-12 07:41:21 Pluralsight.com.Zend.Db.Deep.Dive-ELOHiM
2016-09-12 07:41:48 PLURALSIGHT.SQL.SERVER.IMPROVING.STORAGE.SUBSYSTEM.PERFORMANCE-JGTiSO
2016-09-12 07:42:37 PLURALSIGHT.MASTERING.COMPRESSION.SETTINGS.IN.PREMIERE.PRO.AND.MEDIA.ENCODER-JGTiSO
2016-09-12 07:43:43 PLURALSIGHT.WINDOWS.WORKFLOWS.WITH.POWERSHELL-JGTiSO
2016-09-12 07:43:44 PLURALSIGHT.WINDOWS.WORKFLOWS.WITH.POWERSHELL-JGTiSO
2016-09-12 07:44:20 PLURALSIGHT.WINDOWS.10.CONFIGURING.70.697.MANAGE.REMOTE.ACCESS-JGTiSO
2016-09-12 07:48:19 One.Mississippi.S01E01.720p.WEB.H264-DEFLATE
2016-09-12 07:49:20 One.Mississippi.S01E02.720p.WEB.H264-DEFLATE
2016-09-12 07:50:20 One.Mississippi.S01E03.720p.WEB.H264-DEFLATE
2016-09-12 07:51:20 One.Mississippi.S01E04.720p.WEB.H264-DEFLATE
2016-09-12 07:51:22 Johnny_Cash_-_Essential_Johnny_Cash-1955-1983-3cd-(1992)-aAF
2016-09-12 07:51:35 Geeking.Out.S01E06.HDTV.x264-CRiMSON
2016-09-12 07:52:20 One.Mississippi.S01E05.720p.WEB.H264-DEFLATE
2016-09-12 07:53:20 One.Mississippi.S01E06.720p.WEB.H264-DEFLATE
2016-09-12 07:53:30 Fear.The.Walking.Dead.S02E11.FRENCH.1080p.HDTV.x264-SH0W
2016-09-12 07:55:18 VIPissy.16.09.12.Oprah.And.Dafne.XXX.2160p.MP4-KTR
2016-09-12 08:07:06 UFC.203.720p.HDTV.x264-VERUM
2016-09-12 08:07:21 Gylne.Tider.S05E03.NORWEGiAN.720p.HDTV.x264-TvNORGE
2016-09-12 08:08:00 Talking.Dead.S05E27.HDTV.x264-aAF
2016-09-12 08:08:06 VA-Ram_Raiders_Part_1-(RAMM30D)-WEB-2000-PRESCRiPTiON
2016-09-12 08:08:07 VA-Ram_Raiders_Part_1-(RAMM30D)-WEB-2000-PRESCRiPTiON
2016-09-12 08:08:44 VA-Ram_Raiders_Part_2-(RAMM31D)-WEB-2000-PRESCRiPTiON
2016-09-12 08:08:45 VA-Ram_Raiders_Part_2-(RAMM31D)-WEB-2000-PRESCRiPTiON
2016-09-12 08:09:04 VA-Ram_Raiders_Part_3-(RAMM32D)-WEB-2001-PRESCRiPTiON
2016-09-12 08:09:24 90.Day.Fiance.S04E02.You.Say.Goodbye.I.Say.Hello.HDTV.x264-CRiMSON
2016-09-12 08:09:59 Rett.Fra.Hjertet.S01E03.NORWEGiAN.720p.HDTV.x264-TvNORGE
2016-09-12 08:10:08 Moving_Fusion-Atlantis_(Bad_Company_Remix)-(RAMM33D)-WEB-2001-PRESCRiPTiON
2016-09-12 08:15:18 Shimon_And_Andy_C-Body_Rock-(RAMM34D)-WEB-2001-PRESCRiPTiON_INT
2016-09-12 08:15:40 Johnny_Clegg_-_Heat_Dust_n_Dreams-(1993)-aAF
2016-09-12 08:15:41 Johnny_Clegg_-_Heat_Dust_n_Dreams-(1993)-aAF
2016-09-12 08:16:12 Johnny_Clegg_-_Shadow_Man-(1989)-aAF
2016-09-12 08:16:16 Moving_Fusion-Thunderball-(RAMM35D)-WEB-2001-PRESCRiPTiON
2016-09-12 08:16:54 Canardo-A_La_Youv-FR-2012-TOXi
2016-09-12 08:16:55 Canardo-A_La_Youv-FR-2012-TOXi
2016-09-12 08:17:00 Origin_Unknown-Truly_One_(Remixes)-(RAMM38D)-WEB-2002-PRESCRiPTiON_INT
2016-09-12 08:19:21 Johnny_Crawford_-_Best_of_Johnny_Crawford-(1995)-aAF
2016-09-12 08:20:26 Circus.of.Fear.1966.PROPER.720p.BluRay.x264-SADPANDA
2016-09-12 08:25:52 One.Mississippi.S01E01.WEB.H264-DEFLATE
2016-09-12 08:26:52 One.Mississippi.S01E02.WEB.H264-DEFLATE
2016-09-12 08:27:52 One.Mississippi.S01E03.WEB.H264-DEFLATE
2016-09-12 08:28:52 One.Mississippi.S01E04.WEB.H264-DEFLATE
2016-09-12 08:29:50 Johnny_Mathis_-_16_Most_Requested_Songs-(1989)-aAF
2016-09-12 08:29:52 One.Mississippi.S01E05.WEB.H264-DEFLATE
2016-09-12 08:30:53 One.Mississippi.S01E06.WEB.H264-DEFLATE
2016-09-12 08:33:51 Geeking.Out.S01E06.720p.HDTV.x264-CRiMSON
2016-09-12 08:35:21 Talking.Dead.S05E27.720p.HDTV.x264-aAF
2016-09-12 08:40:14 PlayboyPlus.16.09.12.Clara.Day.In.Bed.XXX.1080p.MP4-KTR
2016-09-12 08:44:17 Johnny_Rodriguez_-_Hits-(1997)-aAF
2016-09-12 08:55:08 TeenDreams.16.09.12.Shelley.XXX.1080p.MP4-YAPG
2016-09-12 08:57:01 One.Mississippi.S01E01.1080p.WEB.H264-DEFLATE
2016-09-12 08:59:02 One.Mississippi.S01E02.1080p.WEB.H264-DEFLATE
2016-09-12 09:01:03 One.Mississippi.S01E03.1080p.WEB.H264-DEFLATE
2016-09-12 09:03:03 One.Mississippi.S01E04.1080p.WEB.H264-DEFLATE
2016-09-12 09:03:53 JulesJordan.16.09.12.Blair.Williams.And.Brooklyn.Chase.XXX.1080p.MP4-KTR
2016-09-12 09:04:08 Match.Of.The.Day.Two.2016.09.11.720p.HDTV.x264-VERUM
2016-09-12 09:05:03 One.Mississippi.S01E05.1080p.WEB.H264-DEFLATE
2016-09-12 09:05:17 ChicasLoca.16.09.12.Liz.Rainbow.And.Nerea.Falco.SPANISH.XXX.1080p.MP4-KTR
2016-09-12 09:05:46 Hot_Tuna_-_Pair_A_Dice_Found-(1990)-aAF
2016-09-12 09:06:20 HausfrauFicken.16.09.12.Debby.Fountain.GERMAN.XXX.1080p.MP4-KTR
2016-09-12 09:06:52 Johns_Children_-_A_Midsummer_Nights_Scene-(1987)-aAF
2016-09-12 09:07:03 One.Mississippi.S01E06.1080p.WEB.H264-DEFLATE
2016-09-12 09:08:03 LaCochonne.16.09.12.Mia.Wallace.FRENCH.XXX.1080p.MP4-KTR
2016-09-12 09:10:47 Jon_Anderson_-_The_Promise_Ring-1997-aAF
2016-09-12 09:10:47 DirtyWivesClub.16.09.12.Abby.Cross.XXX.1080p.MP4-KTR
2016-09-12 09:11:01 Hot_Tuna_-_The_Best_Of_Hot_Tuna_2CD-(1998)-aAF
2016-09-12 09:12:18 NaughtyRichGirls.16.09.12.Heather.Vahn.XXX.1080p.MP4-KTR
2016-09-12 09:12:24 Hot_Tuna_-_The_Phosphorescent_Rat-(1973)-aAF
2016-09-12 09:18:44 Jonathan_Cain_-_Back_to_the_Innocence-(1995)-aAF
2016-09-12 09:19:49 Jonathan_Kalb_-_Shadow_Of_A_Man-(1999)-aAF
2016-09-12 09:25:51 Jonny_Copeland_-_Catch_Up_With_The_Blues-(1993)-aAF
2016-09-12 09:28:24 Spizoo.16.09.12.Jessica.Jaymes.Tease.BJ.XXX.1080p.MP4-KTR
2016-09-12 09:33:16 Necropolis_Brutal_Edition-Razor1911
2016-09-12 09:34:09 Stegeman.Op.De.Bres.S01E03.DUTCH.720p.HDTV.x264-iFH
2016-09-12 09:34:10 Stegeman.Op.De.Bres.S01E03.DUTCH.720p.HDTV.x264-iFH
2016-09-12 09:34:12 Necropolis_Brutal_Edition_MacOSX-Razor1911
2016-09-12 09:34:13 Necropolis_Brutal_Edition_MacOSX-Razor1911
2016-09-12 09:34:39 Lip.Sync.Battle.S03E00.All-Stars.Live.720p.HDTV.x264-ALTEREGO
2016-09-12 09:34:49 Lip.Sync.Battle.S03E00.All-Stars.Live.HDTV.x264-ALTEREGO
2016-09-12 09:36:06 Mork_Gryning-Tusen_Ar_Har_Gatt-Reissue-2016-BERC
2016-09-12 09:38:19 Journey_-_Departure-(1980)-aAF
2016-09-12 09:39:13 Journey_-_Evolution-(1979)-aAF
2016-09-12 09:41:03 Journey_-_Infinity-(1978)-aAF
2016-09-12 09:41:24 Circus.of.Fear.1966.iNTERNAL.BDRip.x264-LiBRARiANS
2016-09-12 09:41:58 Journey_-_Journey-(1975)-aAF
2016-09-12 09:42:15 Circus.of.Fear.1966.1080p.BluRay.x264-SADPANDA
2016-09-12 09:42:55 Journey_-_Look_Into_the_Future-(1976)-aAF
2016-09-12 09:44:21 AssParade.16.09.12.Harley.Jade.XXX.1080p.MP4-KTR
2016-09-12 09:52:40 BlacksOnMoms.16.09.12.Brooke.Tyler.XXX.1080p.MP4-KTR
2016-09-12 09:54:10 Judge_Dread_-_The_Legendary_Judge_Dread-(1998)-aAF
2016-09-12 09:59:37 Narcos.S02E05.2160p.WEBRip.X264-DEFLATE
2016-09-12 09:59:51 We.Wanna.Gang.Bang.Your.Mom.15.XXX.720p.WEBRip.MP4-VSEX
2016-09-12 09:59:52 We.Wanna.Gang.Bang.Your.Mom.15.XXX.720p.WEBRip.MP4-VSEX
2016-09-12 10:01:57 Jasmine.Jae.Gets.Her.Way.XXX.720p.WEBRip.MP4-VSEX
2016-09-12 10:01:58 Jasmine.Jae.Gets.Her.Way.XXX.720p.WEBRip.MP4-VSEX
2016-09-12 10:01:59 TeenSexMovs.16.09.12.Caroll.XXX.1080p.MP4-KTR
2016-09-12 10:02:00 Five.Golden.Dragons.1967.BDRip.x264-VoMiT
2016-09-12 10:03:20 TeenSexMovs.16.09.12.Caroll.XXX.2160p.MP4-KTR
2016-09-12 10:04:34 Jasmine.Jae.Gets.Her.Way.XXX.1080p.WEBRip.MP4-VSEX
2016-09-12 10:08:15 Mistresses.US.S04E05.SPANiSH.720p.HDTV.x264-BFN
2016-09-12 10:08:24 Papa.Canguro.S05E13.SPANiSH.720p.HDTV.x264-BFN
2016-09-12 10:08:51 Mistresses.US.S04E05.SPANiSH.HDTV.x264-BFN
2016-09-12 10:08:58 Papa.Canguro.S05E13.SPANiSH.HDTV.x264-BFN
2016-09-12 10:15:17 Executive.Assistant.XXX.2014.HDTV.720p.x264-SHDXXX
2016-09-12 10:15:29 Family.Feud.NZ.S01E151.720p.HDTV.x264-FiHTV
2016-09-12 10:15:43 We.Wanna.Gang.Bang.Your.Mom.15.XXX.1080p.WEBRip.MP4-VSEX
2016-09-12 10:18:49 Geheimnisse.der.digitalen.Revolution.E01.Der.Traum.von.der.klugen.Maschine.GERMAN.DOKU.WEBRiP.x264-redTV
2016-09-12 10:20:14 Executive.Assistant.XXX.2014.HDTV.1080p.x264-SHDXXX
2016-09-12 10:20:54 Family.Feud.NZ.S01E151.HDTV.x264-FiHTV
2016-09-12 10:25:52 Angry.Birds.2016.iTALiAN.BDRip.x264-NTROPiC
2016-09-12 10:27:05 Peter_Nice_Trio-Harp_Of_Gold_Son_Of_David-(NHS1)-WEB-1996-PRESCRiPTiON
2016-09-12 10:27:09 Angry.Birds.2016.iTALiAN.DTS.720p.BluRay.x264-NTROPiC
2016-09-12 10:27:59 Julie_Driscoll_Brian_Augher_-_Streetnoise-(1968)-aAF
2016-09-12 10:28:40 Landslide-Drum_And_Bossa_Buddah-(NHS16)-WEB-1999-PRESCRiPTiON
2016-09-12 10:29:00 Angry.Birds.2016.iTALiAN.DTS.1080p.BluRay.x264-NTROPiC
2016-09-12 10:30:44 Landslide-Drum_And_Bossa-(NHS23)-WEB-2000-PRESCRiPTiON_INT
2016-09-12 10:31:00 Railroad.Australia.S01E03.NLSUBBED.720p.HDTV.x264-iFH
2016-09-12 10:31:09 Angry.Birds.3D.2016.iTALiAN.DTS.1080p.BluRay.x264-NTROPiC
2016-09-12 10:31:38 High_Contrast-True_Colours-(NHS41)-WEB-2002-PRESCRiPTiON_INT
2016-09-12 10:32:21 WWE.Backlash.2016.GERMAN.DL.WS.WebHD.x264-HELLNO
2016-09-12 10:33:55 WWE.Backlash.2016.GERMAN.DL.WS.720p.WebHD.x264-HELLNO
2016-09-12 10:38:37 Brooklyn.Nine.Nine.S03E13.POLISH.720p.HDTV.x264-ProPLTV
2016-09-12 10:41:23 Brooklyn.Nine.Nine.S03E14.POLISH.720p.HDTV.x264-ProPLTV
2016-09-12 10:41:47 Il.Fatto.Quotidiano.09.11.2016.iTALiAN.RETAiL.eBook-DiVER
2016-09-12 10:44:05 Met-Art.com.16.09.12.Caralyn.Ratryle.XXX.IMAGESET-IEVA
2016-09-12 10:44:15 Home.And.Away.S29E146.720p.HDTV.x264-FiHTV
2016-09-12 10:44:17 Met-Art.com.16.09.12.Mia.D.Miliran.XXX.IMAGESET-IEVA
2016-09-12 10:44:29 Met-Art.com.16.09.12.Michelle.H.Fortida.XXX.IMAGESET-IEVA
2016-09-12 10:44:40 Met-Art.com.16.09.12.Nici.Dee.Somefi.XXX.IMAGESET-IEVA
2016-09-12 10:46:06 Downton.Abbey.S06E02.POLISH.720p.HDTV.x264-ProPLTV
2016-09-12 10:46:45 TS.Factor.5.XXX.1080p.WEBRiP.Untouched.MP4-JustDifferent
2016-09-12 10:47:36 TS.Factor.6.XXX.1080p.WEBRiP.Untouched.MP4-JustDifferent
2016-09-12 10:49:02 Home.And.Away.S29E146.HDTV.x264-FiHTV
2016-09-12 10:50:12 Il.Fatto.Quotidiano.09.12.2016.iTALiAN.RETAiL.eBook-DiVER
2016-09-12 10:50:59 Fear.The.Walking.Dead.S02E10.POLISH.720p.HDTV.x264-ProPLTV
2016-09-12 10:53:06 Justin_Hayward_-_Classic_Blue-(1994)-aAF
2016-09-12 10:55:52 Fleabag.S01E04.1080p.HDTV.x264-TLA
2016-09-12 10:55:53 Hap.and.Leonard.S01E02.POLISH.720p.HDTV.x264-ProPLTV
2016-09-12 10:56:19 Justin_Hayward_-_View_from_the_Hill-(1996)-aAF
2016-09-12 10:58:51 Timeless-Between_and_Beyond-WEB-2016-wAx
2016-09-12 10:59:01 Breakdown_Of_Sanity-Coexistence-WEB-2016-wAx
2016-09-12 11:00:49 Cyklotrasy.v2.42.Komplet.DC.05092016.Czech-rG
2016-09-12 11:03:31 MasterChef.S05E01.POLISH.720p.HDTV.x264-ProPLTV
2016-09-12 11:11:08 Turisticke.trasy.v2.42.Komplet.DC.09092016.Czech-rG
2016-09-12 11:11:12 MasterChef.S05E02.POLISH.720p.HDTV.x264-ProPLTV
2016-09-12 11:15:12 Mr.Robot.S02E05.POLISH.720p.HDTV.x264-ProPLTV
2016-09-12 11:18:15 Kim_Juna-Summer_Dream-WEB-KR-2016-TosK
2016-09-12 11:18:34 Angry.Birds.2016.MULTi.COMPLETE.BLURAY-RATPACK
2016-09-12 11:18:58 Mr.Robot.S02E06.POLISH.720p.HDTV.x264-ProPLTV
2016-09-12 11:22:39 Shortland.Street.S25E151.720p.HDTV.x264-FiHTV
2016-09-12 11:23:31 Na.Noze.S01E01.POLISH.720p.HDTV.x264-ProPLTV
2016-09-12 11:27:24 Angry.Birds.Der.Film.2016.German.DL.1080p.BluRay.AVC-RATPACK
2016-09-12 11:29:00 Na.Noze.S01E02.POLISH.720p.HDTV.x264-ProPLTV
2016-09-12 11:34:42 MC-Nudes.com_16.09.12.Tiffany.Shower.XXX.IMAGESET-GAGBALL
2016-09-12 11:34:47 Kantner-Slick_-_Baron_Von_Tollbooth__T.C.N.-(1973)-aAF
2016-09-12 11:34:48 Kantner-Slick_-_Baron_Von_Tollbooth__T.C.N.-(1973)-aAF
2016-09-12 11:35:12 Father.Figure.3.XXX.2014.HDTV.720p.x264-SHDXXX
2016-09-12 11:36:41 Quarry.S01E01.POLISH.720p.HDTV.x264-ProPLTV
2016-09-12 11:37:35 ALSScan.com_16.09.12.Sandy.and.Trisha.Uptown.Sandy.and.Trish.XXX.IMAGESET-GAGBALL
2016-09-12 11:38:33 Domai.com_16.09.12.Kara.Set.2.XXX.IMAGESET-GAGBALL
2016-09-12 11:39:45 Shortland.Street.S25E151.HDTV.x264-FiHTV
2016-09-12 11:40:56 Ray.Donovan.S04E05.POLISH.720p.HDTV.x264-ProPLTV
2016-09-12 11:41:34 EroticBeauty.com_16.09.12.Tulia.Presenting.Tulia.XXX.IMAGESET-GAGBALL
2016-09-12 11:44:35 Errotica-Archives.com_16.09.12.Stella.Lane.Bellese.XXX.IMAGESET-GAGBALL
2016-09-12 11:45:16 Ray.Donovan.S04E06.POLISH.720p.HDTV.x264-ProPLTV
2016-09-12 11:45:45 EternalDesire.com_16.09.12.Gracie.A.Picanto.XXX.IMAGESET-GAGBALL
2016-09-12 11:47:11 GoddessNudes.com_16.09.12.Antanta.Set.1.XXX.IMAGESET-GAGBALL
2016-09-12 11:47:53 RylskyArt.com_16.09.12.Sarika.Isumadusa.XXX.IMAGESET-GAGBALL
2016-09-12 11:48:00 Schwiegertochter.gesucht.S10E01.GERMAN.DOKU.720p.HDTV.x264-RTL
2016-09-12 11:48:24 Schwiegertochter.gesucht.S10E01.GERMAN.DOKU.HDTV.x264-RTL
2016-09-12 11:49:19 Satisfaction.US.S02E01.POLISH.720p.HDTV.x264-ProPLTV
2016-09-12 11:50:52 VA-Defected_Presents_House_Masters_Armand_Van_Helden-HOMAS27CD-2CD-2016-BFHMP3
2016-09-12 11:51:00 Warcraft.2016.TrueHD.Atmos.AC3.MULTISUBS.1080p.BluRay.x264.HQ-TUSAHD
2016-09-12 11:53:09 Petit_Biscuit-Petit_Biscuit_EP-PB2-Retail-CD-2016-BFHMP3
2016-09-12 11:53:30 Satisfaction.US.S02E02.POLISH.720p.HDTV.x264-ProPLTV
2016-09-12 11:53:38 SexArt.com_16.09.12.Adel.C.Saniada.XXX.IMAGESET-GAGBALL
2016-09-12 11:57:05 Satisfaction.US.S02E03.POLISH.720p.HDTV.x264-ProPLTV
2016-09-12 11:58:17 Geheimnisse.der.digitalen.Revolution.E01.Der.Traum.von.der.klugen.Maschine.GERMAN.DOKU.720p.WebHD.x264-redTV
2016-09-12 11:58:47 Fyenso_Jumo-Coup_Franc-(WEB)-FR-2016-H5N1
2016-09-12 11:59:18 Rip.Off.Britain.S08E01.720p.HDTV.x264-C4TV
2016-09-12 12:00:49 Satisfaction.US.S02E04.POLISH.720p.HDTV.x264-ProPLTV
2016-09-12 12:02:02 TheLifeErotic.com_16.09.12.Olga.Effervescent.XXX.IMAGESET-GAGBALL
2016-09-12 12:03:17 WhenGirlsPlay.com_16.09.12.Nina.North.and.Selena.Storm.Try.Before.You.Buy.XXX.IMAGESET-GAGBALL
2016-09-12 12:05:56 The.Secret.2016.S01E01.POLISH.720p.HDTV.x264-ProPLTV
2016-09-12 12:07:52 PlayboyPlus.com_16.09.12.Clara.Day.In.Bed.XXX.IMAGESET-GAGBALL
2016-09-12 12:10:29 Supergirl.S01E16.FRENCH.720p.HDTV.x264-PANZeR
2016-09-12 12:10:42 The.Secret.2016.S01E02.POLISH.720p.HDTV.x264-ProPLTV
2016-09-12 12:12:00 Supergirl.S01E17.FRENCH.720p.HDTV.x264-PANZeR
2016-09-12 12:13:34 ATKPetites.com_16.09.12.Sabrina.Rey.Coeds.XXX.IMAGESET-GAGBALL
2016-09-12 12:15:39 ATKPremium.com_16.09.12.Olivia.Lua.XXX.IMAGESET-GAGBALL
2016-09-12 12:17:02 AuntJudys.com_16.09.12.Alice.Chambers.Foot.Fetish.XXX.IMAGESET-GAGBALL
2016-09-12 12:17:34 Trapped.2015.S01E01.POLISH.720p.HDTV.x264-ProPLTV
2016-09-12 12:20:03 Warcraft.2016.3D.HSBS.MULTISUBS.1080p.BluRay.x264.HQ-TUSAHD
2016-09-12 12:20:13 Braquo.S04E05.FRENCH.HDTV.x264-AMB3R
2016-09-12 12:21:22 IDPhotoCapture.inPhoto.Capture.PS.v4.17.4-BEAN
2016-09-12 12:21:54 IDPhotoCapture.inPhoto.ID.PS.v4.17.4-BEAN
2016-09-12 12:23:48 Trapped.2015.S01E02.POLISH.720p.HDTV.x264-ProPLTV
2016-09-12 12:28:22 Border.Patrol.S09E08.720p.HDTV.x264-FiHTV
2016-09-12 12:28:49 AuntJudys.com_16.09.12.Sheena.Ryder.Over.30.XXX.IMAGESET-GAGBALL
2016-09-12 12:29:20 Casanovas_Schwule_Seite-Das_Rocknroll_Imperium_Schlaegt_Zurueck-DE-CD-FLAC-2002-NBFLAC
2016-09-12 12:32:35 War.And.Peace.2016.S01E01.POLISH.720p.HDTV.x264-ProPLTV
2016-09-12 12:32:39 Border.Patrol.S09E08.HDTV.x264-FiHTV
2016-09-12 12:34:26 Matthew_Heyer_And_Jonas_Wak-We_Are_Alive-(ARDP208)-WEB-2016-UKHx
2016-09-12 12:37:34 Andy_Andress-Best_Of-WEB-DE-2016-JUSTiFY
2016-09-12 12:38:07 Betafearz-L.E.N.O-AD003-WEB-2016-JUSTiFY
2016-09-12 12:38:31 Courage-Shadow_Dance_(Incl._Darryn_M_Rmx)-WEB-2016-JUSTiFY
2016-09-12 12:39:08 DJ_Fade-Adrenaline-TR028-WEB-2016-JUSTiFY
2016-09-12 12:39:56 Jane.The.Virgin.S02E04.FRENCH.1080p.HDTV.X264-Ryotox
2016-09-12 12:40:56 War.And.Peace.2016.S01E02.POLISH.720p.HDTV.x264-ProPLTV
2016-09-12 12:41:35 Falko_Niestolik-Make_It_Better-WEB-2016-JUSTiFY
2016-09-12 12:41:44 Murdoch.Mysteries.S09E04.FRENCH.1080p.HDTV.x264-Ryotox
2016-09-12 12:41:59 Fitz_and_The_Tantrums-Handclap_(Remixes_Pt._1)-WEB-2016-JUSTiFY
2016-09-12 12:42:27 Fitz_and_The_Tantrums-Handclap_(Remixes_Pt._2)-WEB-2016-JUSTiFY
2016-09-12 12:42:49 Frohnatur-Karussell-WEB-DE-2016-JUSTiFY
2016-09-12 12:43:13 Gefuehlsmensch_and_Nachtschicht-Geh_Deinen_Weg-WEB-DE-2016-JUSTiFY
2016-09-12 12:43:33 Ich_Bin_Froehlich-Mit_Uns-WEB-DE-2016-JUSTiFY
2016-09-12 12:43:55 Ilya_Golitsyn-Sunset_In_New_Zealand-GM193-WEB-2016-JUSTiFY
2016-09-12 12:44:30 Just_Kiddin-Fall_For_You_(Remixes)-WEB-2016-JUSTiFY
2016-09-12 12:45:10 Katylyst-Remembrance-MELO002-WEB-2016-JUSTiFY
2016-09-12 12:45:43 Ken_Mackenzie-Venus_(Club_303_Mix)-10110042-WEB-2016-JUSTiFY
2016-09-12 12:51:29 HotAndMean.com_16.09.12.Brooke.Paige.and.Marsha.May.My.Boyfriends.Mom.XXX.IMAGESET-GAGBALL
2016-09-12 12:51:34 Fernando_Marquez-Anejo-ES-CD-FLAC-2015-FrB
2016-09-12 12:53:07 Shockone-Universus-(VPRLP005)-WEB-2013-PRESCRiPTiON_INT
2016-09-12 12:53:31 H.E.R.-H.E.R._Volume_1-WEB-2016-ENRAGED
2016-09-12 12:53:47 Irv_da_Phenom-Dream_Big_Hustle_Hard_Vol_1-WEB-2011-ENRAGED
2016-09-12 12:54:03 Irv_da_Phenom-Dream_Big_Hustle_Hard_Vol_2-WEB-2016-ENRAGED
2016-09-12 12:54:19 Irv_da_Phenom-Free-WEB-2010-ENRAGED
2016-09-12 12:54:35 Irv_da_Phenom-Tire_Shops_and_Night_Clubs-WEB-2009-ENRAGED
2016-09-12 12:54:51 Sadboy-The_First_Ese-WEB-2016-ENRAGED
2016-09-12 12:55:07 Wale-One_Reason_(Flex)_feat_Eric_Bellinger-Single-WEB-2016-ENRAGED
2016-09-12 12:58:51 Teddy_Killerz-Violence_EP-(EATBRAIN007)-WEB-2013-PRESCRiPTiON
2016-09-12 12:59:44 Ram_Trilogy-Chapter_5-(RAMM40D)-WEB-2002-PRESCRiPTiON
2016-09-12 13:04:26 Rage.Tage.der.Vergeltung.German.2016.AC3.BDRiP.x264-XF
2016-09-12 13:07:18 DJ_Fresh-Signal-(RAMM46D)-WEB-2003-PRESCRiPTiON
2016-09-12 13:07:50 Dynamite_MC_And_Origin_Unknown-Hotness-(RAMM45D)-WEB-2003-PRESCRiPTiON
2016-09-12 13:08:16 Ram_Trilogy-Screamer_EP-(RAMM44D)-WEB-2003-PRESCRiPTiON
2016-09-12 13:08:44 Rage.Tage.der.Vergeltung.2016.German.720p.BluRay.x264-ENCOUNTERS
2016-09-12 13:09:04 VA-Ram_Raiders_Part_4-(RAMM48D)-WEB-2004-PRESCRiPTiON
2016-09-12 13:09:28 VA-Ram_Raiders_Part_5-(RAMM49D)-WEB-2004-PRESCRiPTiON
2016-09-12 13:09:54 102.Minutes.That.Changed.America.15th.Anniversary.Edition.2016.720p.WEB.H264-TURBO
2016-09-12 13:11:40 911.S02E01.FRENCH.720p.HDTV.x264-BAWLS
2016-09-12 13:12:09 911.S02E01.FRENCH.HDTV.x264-BAWLS
2016-09-12 13:14:29 WWE.Backlash.2016.Kickoff.INTERNAL.720p.WEB.h264-DEATHMATCH
2016-09-12 13:15:12 Code.1.S04E10.720p.HDTV.x264-FiHTV
2016-09-12 13:15:57 WWE.Backlash.2016.Kickoff.WEB.h264-DEATHMATCH
2016-09-12 13:17:55 WWE.Backlash.2016.INTERNAL.720p.WEB.h264-DEATHMATCH
2016-09-12 13:18:27 Code.1.S04E10.HDTV.x264-FiHTV
2016-09-12 13:18:55 Mainshock-I_Like_To_Stay-DEU142-WEB-2016-JUSTiFY
2016-09-12 13:19:00 Marco_Mc_Neil-Touch_The_Sky-AM022-WEB-2016-JUSTiFY
2016-09-12 13:19:02 WWE.Backlash.2016.WEB.h264-DEATHMATCH
2016-09-12 13:19:09 Crimes.Of.Passion.1984.Directors.Cut.DTS-HD.DTS.1080p.BluRay.x264.HQ-TUSAHD
2016-09-12 13:19:10 Crimes.Of.Passion.1984.Directors.Cut.DTS-HD.DTS.1080p.BluRay.x264.HQ-TUSAHD
2016-09-12 13:19:18 Wanttall-Flame_Of_Love-DEU166-WEB-2016-JUSTiFY
2016-09-12 13:19:24 The.Block.AU.S12E13.HDTV.x264-FQM
2016-09-12 13:20:20 Winky_Wiryawan-Playlist-WEB-2014-JUSTiFY
2016-09-12 13:21:16 Mellari-Sputnik-EVO027-WEB-2016-JUSTiFY
2016-09-12 13:21:22 Mousai_Sound-Follow_Your_Dreams-VGR03-WEB-2016-JUSTiFY
2016-09-12 13:21:23 Mousai_Sound-Follow_Your_Dreams-VGR03-WEB-2016-JUSTiFY
2016-09-12 13:21:29 Nashback_vs_Monaco-You_Are_My_Music-NMYAM-WEB-2016-JUSTiFY
2016-09-12 13:21:30 Nashback_vs_Monaco-You_Are_My_Music-NMYAM-WEB-2016-JUSTiFY
2016-09-12 13:21:36 NuroGL-The_Day_Has_Gone-TMR006-WEB-2016-JUSTiFY
2016-09-12 13:21:43 Paul_Patt-Heavy_Dreams-U468-WEB-2016-JUSTiFY
2016-09-12 13:21:44 Paul_Patt-Heavy_Dreams-U468-WEB-2016-JUSTiFY
2016-09-12 13:21:50 Skyguardian-Unity-SP0079-WEB-2016-JUSTiFY
2016-09-12 13:21:57 Tep_No-The_Best_Crew_(Remixes)-WEB-2016-JUSTiFY
2016-09-12 13:22:42 VA-Big_Room_Alarm_Vol._1-RVMCOMP049A-WEB-2015-JUSTiFY
2016-09-12 13:24:24 VA-Big_Room_Alarm_Vol._2-RVMCOMP071A-WEB-2015-JUSTiFY
2016-09-12 13:25:43 Keith_Urban_-_Keith_Urban-(1999)-aAF
2016-09-12 13:25:45 Days.E11.SUBFRENCH.1080p.WEBRiP.x264-AZR
2016-09-12 13:26:05 VA-Big_Room_Alarm_Vol._3-RVMCOMP107A-WEB-2015-JUSTiFY
2016-09-12 13:28:23 VA-Big_Room_Alarm_Vol._4-RVMCOMP129A-WEB-2015-JUSTiFY
2016-09-12 13:30:18 Morbid_Angel-Ignominious-2005-AMRC
2016-09-12 13:30:19 Morbid_Angel-Ignominious-2005-AMRC
2016-09-12 13:30:37 VA-Big_Room_Alarm_Vol._7-RVMCOMP283A-WEB-2016-JUSTiFY
2016-09-12 13:31:58 Shokugeki.No.Soma.S02E11.SUBFRENCH.1080p.WEBRiP.x264-AZR
2016-09-12 13:33:02 VA-Big_Room_Alarm_Vol._8-RVMCOMP328C-WEB-2016-JUSTiFY
2016-09-12 13:33:09 VA-Semitrance_Records_(The_May_Releases_2015)-10092349-WEB-2015-JUSTiFY
2016-09-12 13:33:10 VA-Semitrance_Records_(The_May_Releases_2015)-10092349-WEB-2015-JUSTiFY
2016-09-12 13:33:57 Wanttall-Wild_Free-STA001-WEB-2016-JUSTiFY
2016-09-12 13:35:23 Winky_Wiryawan-Playlist_The_Remixes-WEB-2016-JUSTiFY
2016-09-12 13:41:06 Tales.of.Zestiria.the.X.E10.SUBFRENCH.1080p.WEBRiP.x264-AZR
2016-09-12 13:42:41 MetArtX.com_16.09.12.Alecto.Waves.Of.Blue.XXX.IMAGESET-GAGBALL
2016-09-12 13:43:15 Big.Brother.US.S18E38.HDTV.x264-CROOKS
2016-09-12 13:46:38 Le.Monde.13.Septembre.2016.French.Retail.eBook-FMR
2016-09-12 13:46:42 Le.Monde.Dossier.13.Septembre.2016.French.Retail.eBook-FMR
2016-09-12 13:46:46 Le.Monde.Eco.et.Entreprise.13.Septembre.2016.French.Retail.eBook-FMR
2016-09-12 13:47:40 Suze.net_16.09.07.Lanny.Barby.XXX.IMAGESET-GAGBALL
2016-09-12 13:48:08 Suze.net_16.09.08.Crissy.Moran.XXX.IMAGESET-GAGBALL
2016-09-12 13:50:46 Warcraft.The.Beginning.3D.HOU.2016.German.DL.1080p.BluRay.x264-COiNCiDENCE
2016-09-12 13:53:54 Americas.911.Flag-Rise.From.The.Ashes.2016.720p.WEB.H264-TURBO
2016-09-12 13:55:12 A.Waltz.Through.The.Hills.1988.DVDRip.x264-PFa
2016-09-12 14:00:06 ReadyOrNotHereICum.16.09.12.Francys.Belle.Any.Given.Sunday.XXX.1080p.MP4-KTR
2016-09-12 14:01:05 Tag.And.Rename.v3.9.8.Multilingual.Cracked-rG
2016-09-12 14:01:11 BackroomCastingCouch.16.09.12.Bella.XXX.720p.MP4-KTR
2016-09-12 14:01:21 Warcraft.The.Beginning.3D.HSBS.2016.German.DL.1080p.BluRay.x264-COiNCiDENCE
2016-09-12 14:01:22 Warcraft.The.Beginning.3D.HSBS.2016.German.DL.1080p.BluRay.x264-COiNCiDENCE
2016-09-12 14:01:35 NFL.2016.09.11.Patriots.vs.Cardinals.720p.HDTV.x264-BAJSKORV
2016-09-12 14:02:52 VA-Kontor_Top_Of_The_Clubs_Volume_71-PROPER-3CD-FLAC-2016-NBFLAC
2016-09-12 14:03:29 Rage.Tage.der.Vergeltung.2016.German.DL.1080p.BluRay.x264-ENCOUNTERS
2016-09-12 14:03:53 Omega_Crosby-2016_The_Album-WEB-2016-ENRAGED
2016-09-12 14:05:46 VA-Magic_Island_Vol._7_Album_Sampler_3-(MAGIC148)-WEB-2016-SPANK
2016-09-12 14:10:06 UFC.203.1080p.HDTV.x264-VERUM
2016-09-12 14:10:13 DirtyWivesClub.16.09.12.Abby.Cross.XXX.2160p.MP4-KTR
2016-09-12 14:11:52 StalkHer.2015.DVDRip.x264-PFa
2016-09-12 14:12:41 NaughtyRichGirls.16.09.12.Heather.Vahn.XXX.2160p.MP4-KTR
2016-09-12 14:15:17 Perdidos.S02E01.SPANiSH.720p.HDTV.x264-BFN
2016-09-12 14:15:25 Perdidos.S02E02.SPANiSH.720p.HDTV.x264-BFN
2016-09-12 14:15:34 Perdidos.S02E03.SPANiSH.720p.HDTV.x264-BFN
2016-09-12 14:15:42 Perdidos.S02E04.SPANiSH.720p.HDTV.x264-BFN
2016-09-12 14:15:50 Perdidos.S02E05.SPANiSH.720p.HDTV.x264-BFN
2016-09-12 14:15:51 Perdidos.S02E05.SPANiSH.720p.HDTV.x264-BFN
2016-09-12 14:15:59 Perdidos.S02E06.SPANiSH.720p.HDTV.x264-BFN
2016-09-12 14:16:07 Perdidos.S02E07.SPANiSH.720p.HDTV.x264-BFN
2016-09-12 14:16:16 Perdidos.S02E08.SPANiSH.720p.HDTV.x264-BFN
2016-09-12 14:16:24 Perdidos.S02E09.SPANiSH.720p.HDTV.x264-BFN
2016-09-12 14:16:33 Perdidos.S02E10.SPANiSH.720p.HDTV.x264-BFN
2016-09-12 14:16:42 Perdidos.S02E11.SPANiSH.720p.HDTV.x264-BFN
2016-09-12 14:16:50 Perdidos.S02E12.SPANiSH.720p.HDTV.x264-BFN
2016-09-12 14:16:58 Perdidos.S02E13.SPANiSH.720p.HDTV.x264-BFN
2016-09-12 14:17:07 Perdidos.S02E14.SPANiSH.720p.HDTV.x264-BFN
2016-09-12 14:17:15 Perdidos.S02E15.SPANiSH.720p.HDTV.x264-BFN
2016-09-12 14:17:24 Perdidos.S02E16.SPANiSH.720p.HDTV.x264-BFN
2016-09-12 14:17:33 Perdidos.S02E17.SPANiSH.720p.HDTV.x264-BFN
2016-09-12 14:17:41 Perdidos.S02E18.SPANiSH.720p.HDTV.x264-BFN
2016-09-12 14:17:50 Perdidos.S02E19.SPANiSH.720p.HDTV.x264-BFN
2016-09-12 14:17:58 Perdidos.S02E20.SPANiSH.720p.HDTV.x264-BFN
2016-09-12 14:18:07 Perdidos.S02E21.SPANiSH.720p.HDTV.x264-BFN
2016-09-12 14:18:15 Perdidos.S02E22.SPANiSH.720p.HDTV.x264-BFN
2016-09-12 14:18:24 Perdidos.S02E23.SPANiSH.720p.HDTV.x264-BFN
2016-09-12 14:18:32 Perdidos.S02E24.FiNAL.SPANiSH.720p.HDTV.x264-BFN
2016-09-12 14:23:55 E.Cup.Moms.Finger.1st.Time.Teens.XXX.2012.HDTV.720p.x264-SHDXXX
2016-09-12 14:26:36 E.Cup.Moms.Finger.1st.Time.Teens.XXX.2012.HDTV.1080p.x264-SHDXXX
2016-09-12 14:26:37 E.Cup.Moms.Finger.1st.Time.Teens.XXX.2012.HDTV.1080p.x264-SHDXXX
2016-09-12 14:28:50 Squareface-SKIDROW
2016-09-12 14:32:47 Kenny_Loggins_-_Return_to_Pooh_Corner-(1994)-aAF
2016-09-12 14:35:06 Mr.Robot.S02E01.UNCENSORED.1080p.WEB.X264-DEFLATE
2016-09-12 14:35:14 Kenny_Loggins_-_Yesterday_Today_Tomorrow.-(1997)-aAF
2016-09-12 14:39:32 Perdidos.S02E01.SPANiSH.HDTV.x264-BFN
2016-09-12 14:39:40 Perdidos.S02E02.SPANiSH.HDTV.x264-BFN
2016-09-12 14:39:49 Perdidos.S02E03.SPANiSH.HDTV.x264-BFN
2016-09-12 14:39:57 Perdidos.S02E04.SPANiSH.HDTV.x264-BFN
2016-09-12 14:40:06 Perdidos.S02E05.SPANiSH.HDTV.x264-BFN
2016-09-12 14:40:06 Mr.Robot.S02E02.1080p.WEB.X264-DEFLATE
2016-09-12 14:40:14 Perdidos.S02E06.SPANiSH.HDTV.x264-BFN
2016-09-12 14:40:22 Perdidos.S02E07.SPANiSH.HDTV.x264-BFN
2016-09-12 14:40:31 Perdidos.S02E08.SPANiSH.HDTV.x264-BFN
2016-09-12 14:40:39 BeefBattle.-.Duell.am.Grill.E30.The.Rolling.Men.German.DOKU.1080p.HDTV.x264-ATAX
2016-09-12 14:40:39 Perdidos.S02E09.SPANiSH.HDTV.x264-BFN
2016-09-12 14:40:48 Perdidos.S02E10.SPANiSH.HDTV.x264-BFN
2016-09-12 14:40:48 Kenny_Neal_-_Blues_Fallin_Down_Like_Rain-(1998)-aAF
2016-09-12 14:40:56 Perdidos.S02E11.SPANiSH.HDTV.x264-BFN
2016-09-12 14:41:05 Perdidos.S02E12.SPANiSH.HDTV.x264-BFN
2016-09-12 14:41:13 Perdidos.S02E13.SPANiSH.HDTV.x264-BFN
2016-09-12 14:41:20 WWE.RAW.2016.09.05.PROPER.720p.HDTV.x264-KYR
2016-09-12 14:41:22 The.Daughter.2015.DVDRip.x264-PFa
2016-09-12 14:41:23 Perdidos.S02E14.SPANiSH.HDTV.x264-BFN
2016-09-12 14:41:31 Perdidos.S02E15.SPANiSH.HDTV.x264-BFN
2016-09-12 14:41:40 Perdidos.S02E16.SPANiSH.HDTV.x264-BFN
2016-09-12 14:41:47 Perdidos.S02E17.SPANiSH.HDTV.x264-BFN
2016-09-12 14:41:56 Perdidos.S02E18.SPANiSH.HDTV.x264-BFN
2016-09-12 14:42:04 Perdidos.S02E19.SPANiSH.HDTV.x264-BFN
2016-09-12 14:42:13 Perdidos.S02E20.SPANiSH.HDTV.x264-BFN
2016-09-12 14:42:21 BeefBattle.-.Duell.am.Grill.E30.The.Rolling.Men.German.DOKU.720p.HDTV.x264-ATAX
2016-09-12 14:42:21 Perdidos.S02E21.SPANiSH.HDTV.x264-BFN
2016-09-12 14:42:31 Perdidos.S02E22.SPANiSH.HDTV.x264-BFN
2016-09-12 14:42:39 Perdidos.S02E23.SPANiSH.HDTV.x264-BFN
2016-09-12 14:42:47 Perdidos.S02E24.FiNAL.SPANiSH.HDTV.x264-BFN
2016-09-12 14:43:24 Kenny_Neal_-_Deluxe_Edition-(1997)-aAF
2016-09-12 14:43:38 BeefBattle.-.Duell.am.Grill.E30.The.Rolling.Men.German.DOKU.HDTVRip.x264-ATAX
2016-09-12 14:45:08 Mr.Robot.S02E03.UNCENSORED.1080p.WEB.X264-DEFLATE
2016-09-12 14:45:44 Kenny_Neal_-_Hoodoo_Moon-(1994)-aAF
2016-09-12 14:47:31 Springtoifel-10_Jahre_Satanische_Takte-DE-CD-FLAC-1991-NBFLAC
2016-09-12 14:47:37 Kenny_Neal_-_What_You_Got-(2000)-aAF
2016-09-12 14:49:46 Blanks_77-Killer_Blanks-CD-FLAC-1995-NBFLAC
2016-09-12 14:49:52 The.Conjuring.2.DVDR-iGNiTiON
2016-09-12 14:49:53 The.Conjuring.2.DVDR-iGNiTiON
2016-09-12 14:50:13 Mr.Robot.S02E04.UNCENSORED.1080p.WEB.X264-DEFLATE
2016-09-12 14:52:00 Flex.and.Shanice.S03E08.HDTV.x264-CRiMSO
2016-09-12 14:52:27 CBeebies.Prom.2016.WEB.h264-ROFL
2016-09-12 14:52:27 CBeebies.Prom.2016.720p.WEB.h264-ROFL
2016-09-12 14:52:28 CBeebies.Prom.2016.720p.WEB.h264-ROFL
2016-09-12 14:52:29 Radio.2.Live.in.Hyde.Park.2016.Andreya.Triana.WEB.h264-ROFL
2016-09-12 14:52:30 Radio.2.Live.in.Hyde.Park.2016.Andreya.Triana.720p.WEB.h264-ROFL
2016-09-12 14:52:32 Radio.2.Live.in.Hyde.Park.2016.Elton.John.WEB.h264-ROFL
2016-09-12 14:52:34 Radio.2.Live.in.Hyde.Park.2016.Elton.John.720p.WEB.h264-ROFL
2016-09-12 14:52:36 Radio.2.Live.in.Hyde.Park.2016.Gregory.Porter.WEB.h264-ROFL
2016-09-12 14:52:38 Radio.2.Live.in.Hyde.Park.2016.Gregory.Porter.720p.WEB.h264-ROFL
2016-09-12 14:52:40 Radio.2.Live.in.Hyde.Park.2016.Jamie.Lawson.WEB.h264-ROFL
2016-09-12 14:52:42 Radio.2.Live.in.Hyde.Park.2016.Jamie.Lawson.720p.WEB.h264-ROFL
2016-09-12 14:52:45 Radio.2.Live.in.Hyde.Park.2016.LeAnn.Rimes.WEB.h264-ROFL
2016-09-12 14:52:46 Radio.2.Live.in.Hyde.Park.2016.LeAnn.Rimes.720p.WEB.h264-ROFL
2016-09-12 14:52:48 Radio.2.Live.in.Hyde.Park.2016.Madness.WEB.h264-ROFL
2016-09-12 14:52:50 Radio.2.Live.in.Hyde.Park.2016.Madness.720p.WEB.h264-ROFL
2016-09-12 14:52:52 Radio.2.Live.in.Hyde.Park.2016.Status.Quo.WEB.h264-ROFL
2016-09-12 14:52:54 Radio.2.Live.in.Hyde.Park.2016.Status.Quo.720p.WEB.h264-ROFL
2016-09-12 14:52:56 Radio.2.Live.in.Hyde.Park.2016.Travis.WEB.h264-ROFL
2016-09-12 14:52:58 Radio.2.Live.in.Hyde.Park.2016.Travis.720p.WEB.h264-ROFL
2016-09-12 14:52:59 Radio.2.Live.in.Hyde.Park.2016.Travis.720p.WEB.h264-ROFL
2016-09-12 14:55:14 Mr.Robot.S02E05.UNCENSORED.1080p.WEB.X264-DEFLATE
2016-09-12 14:57:08 Flex.and.Shanice.S03E07.HDTV.x264-CRiMSO
2016-09-12 15:00:14 Mr.Robot.S02E06.UNCENSORED.1080p.WEB.X264-DEFLATE
2016-09-12 15:00:41 Thin_Lizzy-Black_Rose-A_Rock_Legend-Japanese_Reissue-199X-AMRC
2016-09-12 15:05:26 Mr.Robot.S02E07.UNCENSORED.1080p.WEB.X264-DEFLATE
2016-09-12 15:05:26 Vengeance.Sound.Vengeance.Essential.Clubsounds.Vol.5.MiDi.WAV.DVDR-DYNAMiCS
2016-09-12 15:05:27 Vengeance.Sound.Vengeance.Essential.Clubsounds.Vol.5.MiDi.WAV.DVDR-DYNAMiCS
2016-09-12 15:05:39 Vengeance.Sound.Vengeance.Essential.Deep.House.WAV.DVDR-DYNAMiCS
2016-09-12 15:05:40 Vengeance.Sound.Vengeance.Essential.Deep.House.WAV.DVDR-DYNAMiCS
2016-09-12 15:06:36 Cosmid.16.09.12.Lacci.Rutland.XXX.720p.MP4-KTR
2016-09-12 15:08:41 Vengeance.Sound.Vengeance.Essential.Dubstep.Vol.1.WAV.DVDR-DYNAMiCS
2016-09-12 15:08:55 Vengeance.Sound.Vengeance.Essential.House.Vol.4.WAV.DVDR-DYNAMiCS
2016-09-12 15:10:26 Mr.Robot.S02E08.UNCENSORED.1080p.WEB.X264-DEFLATE
2016-09-12 15:10:29 Tracks.2016-09-10.German.WEBRiP.x264-RAiNDEER
2016-09-12 15:10:30 Tracks.2016-09-10.German.WEBRiP.x264-RAiNDEER
2016-09-12 15:10:58 Die_Antwoord-Fat_Faded_Fuck_Face-WEB-2016-AZF
2016-09-12 15:11:14 The_Band_Perry-Comeback_Kid-WEB-2016-AZF
2016-09-12 15:11:15 Vengeance.Sound.Vengeance.Pop.Essentials.Vol.2.MiDi.WAV.DVDR-DYNAMiCS
2016-09-12 15:11:23 Tracks.2016-09-10.German.720p.WebHD.x264-RAiNDEER
2016-09-12 15:11:27 PlumperPass.16.09.12.Kimmie.Kaboom.Sex.Test.XXX.1080p.MP4-KTR
2016-09-12 15:11:28 Vengeance.Sound.Vengeance.Ultimate.Fills.Vol.3.MiDi.WAV.DVDR-DYNAMiCS
2016-09-12 15:11:35 MMA.Eddie.Bravo.Invitational.8.The.Middleweights.720p.WEB.h264-DEATHMATCH
2016-09-12 15:12:19 Versilian.Studios.Harpsichord.KONTAKT-DYNAMiCS
2016-09-12 15:13:12 Kentucky_Headhunters_-_From_Grass_String_Ranch-(2000)-aAF
2016-09-12 15:13:17 Building.Star.Trek.German.DOKU.WEBRiP.x264-RAiNDEER
2016-09-12 15:13:36 Building.Star.Trek.German.DOKU.720p.WebHD.x264-RAiNDEER
2016-09-12 15:13:56 MF_Doom-Special_Blends_Vol_1_And_2-2CD-2004-C4
2016-09-12 15:14:36 Kentucky_Headhunters_-_Pickin_on_Nashville-(1989)-aAF
2016-09-12 15:17:46 Lip.Sync.Battle.S00E00.1080p.WEB.x264-HEAT
2016-09-12 15:18:09 MIRC.v7.46-rG
2016-09-12 15:20:02 3LW-3LW-2000-FR3SH_INT
2016-09-12 15:21:28 The_Notorious_B.I.G.-Born_Again-1999-FR3SH_INT
2016-09-12 15:22:18 The_Notorious_B.I.G.-Life_After_Death-2CD-1997-FR3SH_INT
2016-09-12 15:22:26 Braquo.S04E05.FRENCH.1080p.HDTV.x264-SH0W
2016-09-12 15:23:04 VA-Down_To_Earth-(OST)-2001-FR3SH_INT
2016-09-12 15:23:36 Nas-I_Am-1999-RMG
2016-09-12 15:23:57 VA-The_Wood-(OST)-1999-FR3SH_INT
2016-09-12 15:24:17 MMA.Eddie.Bravo.Invitational.8.The.Middleweights.WEB.h264-DEATHMATCH
2016-09-12 15:29:30 Winners.and.Losers.S05E12-E13.HDTV.x264-FQM
2016-09-12 15:30:19 MLS.2016.07.31.Portland.Timbers.Vs.Sporting.Kansas.City.720p.HDTV.x264-LiNKLE
2016-09-12 15:34:49 Hard.Target.2.PAL.DVDR-iGNiTiON
2016-09-12 15:34:50 Hard.Target.2.PAL.DVDR-iGNiTiON
2016-09-12 15:35:16 Papoose-Election_Day_(Papoose_For_The_Streets)-2004-C4
2016-09-12 15:37:12 Tom_Fall_-_Irok-(TRCR001)-WEB-2012-HB
2016-09-12 15:42:20 Kryder_-_Ultima-(TRCR004)-WEB-2012-HB
2016-09-12 15:42:21 Kryder_-_Ultima-(TRCR004)-WEB-2012-HB
2016-09-12 15:43:33 Lip.Sync.Battle.S03E00.DIRFIX.1080p.WEB.x264-HEAT
2016-09-12 15:44:30 Fear.the.Walking.Dead.S02E11.Pablo.und.Jessica.German.720p.WebHD.h264.READNFO.iNTERNAL-ENTiCEMENT
2016-09-12 15:44:50 Artisan_And_Kate_Louise_Smith-I_Follow_(F.G._Noise_Remix)-(AMSTR135)-WEB-2016-UKHx
2016-09-12 15:45:13 Daleri_-_Touche-(TRCR005)-WEB-2012-HB
2016-09-12 15:45:48 Ciro_Visone_And_Rita_Visone-The_Boy_Forever-(DISCOVER183)-WEB-2016-UKHx
2016-09-12 15:46:35 Public_Enemy-Muse_Sick-N-Hour_Mess_Age-1994-CMS_INT
2016-09-12 15:46:38 Jochen_Miller-Cephalon_(Extended_Mix)-(ZOUK265)-WEB-2016-UKHx
2016-09-12 15:47:57 Kryder_-_Scorpio-(TRCR006)-WEB-2012-HB
2016-09-12 15:50:13 Fear.the.Walking.Dead.S02E11.Pablo.und.Jessica.German.WEBRip.x264.READNFO.iNTERNAL-ENTiCEMENT
2016-09-12 15:52:25 Sage.30.Etendue.Gestion.Commerciale.i7.v8.00.FRENCH.Incl.Keygen-NGEN
2016-09-12 15:53:54 Bomber.Boys.The.Fighting.Lancaster.S01E01.DVDRip.x264-GHOULS
2016-09-12 15:53:58 Braquo.S04E05.NFO.FiX.FRENCH.HDTV.x264-AMB3R
2016-09-12 15:54:08 Fear.the.Walking.Dead.S02E11.Pablo.und.Jessica.German.1080p.WebHD.h264.READNFO-ENTiCEMENT
2016-09-12 15:54:57 Bomber.Boys.The.Fighting.Lancaster.S01E02.DVDRip.x264-GHOULS
2016-09-12 15:55:29 Bomber.Boys.The.Fighting.Lancaster.S01E03.DVDRip.x264-GHOULS
2016-09-12 15:56:04 Bomber.Boys.The.Fighting.Lancaster.S01E04.DVDRip.x264-GHOULS
2016-09-12 15:57:27 Joey_Dale_And_Olly_James-Higher-(REVR272)-WEB-2016-UKHx
2016-09-12 15:59:07 Audien_-_Sup-(TRCR010A)-WEB-2012-HB
2016-09-12 15:59:35 PunishTeens.16.09.12.Evie.Olson.XXX.1080p.MP4-KTR
2016-09-12 16:02:44 Royce_Da_59-Rock_City_(Version_2.0)-2002-CMS_INT
2016-09-12 16:04:33 Daleri_Ft._Vice_-_Somebody_Told_Me_(En_Route)-(TRCR012)-WEB-2013-HB
2016-09-12 16:04:50 Your.Naughty.Niece.Gets.Nailed.XXX.2015.HDTV.720p.x264-SHDXXX
2016-09-12 16:05:58 Your.Naughty.Niece.Gets.Nailed.XXX.2015.HDTV.1080p.x264-SHDXXX
2016-09-12 16:07:54 Xanti_And_Jake_Shanahan_And_Jensby_-_Justice__Timewarp-(TRCR013A)-WEB-2013-HB
2016-09-12 16:08:23 Video2Brain.CompTia.LinuxPlus.LX0.103.Teil.3.GNU.und.Unix.Befehle.GERMAN-PANTHEON
2016-09-12 16:09:58 Daleri_-_Pitch_Please-(TRCR014)-WEB-2013-HB
2016-09-12 16:12:08 Carl_Nunes_and_Jake_Shanahan_Ft._Shaun_Frank_-_We_Are-(TRCR015)-WEB-2013-HB
2016-09-12 16:14:28 Daleri_-_Curare-(TRCR016A)-WEB-2013-HB
2016-09-12 16:17:57 Vicetone_Ft._Jonny_Rose_-_Stars_(Incl._Edit)-(TRCR017)-WEB-2013-HB
2016-09-12 16:19:56 Innobright.Altus.v1.5.30.LINUX.X64-AMPED
2016-09-12 16:20:01 Alex_Sonata_Ft._Quilla_-_Alive-(TRCR018A)-WEB-2013-HB
2016-09-12 16:20:01 Innobright.Altus.v1.5.30.X64-AMPED
2016-09-12 16:20:45 Rage.Tage.der.Vergeltung.2016.DUAL.COMPLETE.BLURAY-GMB
2016-09-12 16:22:56 Martin_Volt_and_Quintin_State_Ft._Rico_and_Miella_-_Shadows-(TRCR019A)-WEB-2013-HB
2016-09-12 16:23:38 Yu-Gi-Oh.Arc-V.S02E08.German.ANiME.1080p.HDTV.x264-ATAX
2016-09-12 16:23:39 Yu-Gi-Oh.Arc-V.S02E08.German.ANiME.1080p.HDTV.x264-ATAX
2016-09-12 16:25:04 Maison_and_Dragen_-_Wow-(TRCR020A)-WEB-2013-HB
2016-09-12 16:25:05 Maison_and_Dragen_-_Wow-(TRCR020A)-WEB-2013-HB
2016-09-12 16:26:33 Audien_-_Ciao_(Incl._Edit)-(TRCR021A)-WEB-2013-HB
2016-09-12 16:27:05 Yu-Gi-Oh.Arc-V.S02E08.German.ANiME.720p.HDTV.x264-ATAX
2016-09-12 16:28:12 Yu-Gi-Oh.Arc-V.S02E08.German.ANiME.HDTVRip.x264-ATAX
2016-09-12 16:29:17 Yu-Gi-Oh.Arc-V.S02E09.German.ANiME.1080p.HDTV.x264-ATAX
2016-09-12 16:30:01 Kim_Mitchell_-_Akimbo_Alogo-(1984)-aAF
2016-09-12 16:30:23 Vicetone_Ft._Jonny_Rose_-_Stars_(Remixes)-(TRCR022)-WEB-2013-HB
2016-09-12 16:30:31 Yu-Gi-Oh.Arc-V.S02E09.German.ANiME.720p.HDTV.x264-ATAX
2016-09-12 16:30:53 Vicetone_Ft._Jonny_Rose_-_Stars_(Remixes
2016-09-12 16:31:39 Yu-Gi-Oh.Arc-V.S02E09.German.ANiME.HDTVRip.x264-ATAX
2016-09-12 16:32:43 Yu-Gi-Oh.Arc-V.S02E10.German.ANiME.1080p.HDTV.x264-ATAX
2016-09-12 16:32:45 Caught.Red.Handed.UK.S05E06.720p.WEB.h264-spamTV
2016-09-12 16:32:54 Maison_and_Dragen_-_Colosseum_(Incl._Edit)-(TRCR024A)-WEB-2013-HB
2016-09-12 16:33:58 Yu-Gi-Oh.Arc-V.S02E10.German.ANiME.720p.HDTV.x264-ATAX
2016-09-12 16:34:14 Dominik_Eulberg_-_Loveland_Legacy_(Frisky_Radio)-SBD-09-10-2016-TALiON_INT
2016-09-12 16:34:17 Caught.Red.Handed.UK.S05E06.WEB.h264-spamTV
2016-09-12 16:35:07 Yu-Gi-Oh.Arc-V.S02E10.German.ANiME.HDTVRip.x264-ATAX
2016-09-12 16:36:12 Yu-Gi-Oh.Arc-V.S02E11.German.ANiME.1080p.HDTV.x264-ATAX
2016-09-12 16:36:24 Ruf.der.Macht.Im.Sumpf.der.Korruption.2016.German.DL.DTS.720p.BluRay.x264-CiNEViSiON
2016-09-12 16:36:35 Bass_King_vs_X-Vertigo_Ft._Mmx_-_Dusk-(TRCR026A)-WEB-2013-HB
2016-09-12 16:36:46 The.Man.Who.Squeezes.Muscles.Searching.for.Purple.Aki.720p.WEB.h264-spamTV
2016-09-12 16:37:25 Yu-Gi-Oh.Arc-V.S02E11.German.ANiME.720p.HDTV.x264-ATAX
2016-09-12 16:38:31 Yu-Gi-Oh.Arc-V.S02E11.German.ANiME.HDTVRip.x264-ATAX
2016-09-12 16:38:54 The.Man.Who.Squeezes.Muscles.Searching.for.Purple.Aki.WEB.h264-spamTV
2016-09-12 16:39:35 Yu-Gi-Oh.Arc-V.S02E12.German.ANiME.1080p.HDTV.x264-ATAX
2016-09-12 16:40:39 Heatbeat_and_Chris_Schweizer_-_Nasty_(Incl._Original_Mix)-(TRCR027A)-WEB-2013-HB
2016-09-12 16:40:46 Yu-Gi-Oh.Arc-V.S02E12.German.ANiME.720p.HDTV.x264-ATAX
2016-09-12 16:41:50 Yu-Gi-Oh.Arc-V.S02E12.German.ANiME.HDTVRip.x264-ATAX
2016-09-12 16:47:44 TeenPies.16.09.12.Hailey.Reed.XXX.1080p.MP4-KTR
2016-09-12 16:48:00 Doctors.S18E58.720p.WEB.h264-spamTV
2016-09-12 16:50:20 Doctors.S18E58.WEB.h264-spamTV
2016-09-12 16:53:36 Bargain.Hunt.S45E01.Builth.Wells.1.720p.WEB.h264-spamTV
2016-09-12 16:55:11 Brief.Encounters.S01.DIRFIX.DVDRip.x264-OUIJA
2016-09-12 16:56:38 Ruf.der.Macht.Im.Sumpf.der.Korruption.German.2016.AC3.BDRiP.x264-CiNEViSiON
2016-09-12 16:57:06 Bargain.Hunt.S45E01.Builth.Wells.1.WEB.h264-spamTV
2016-09-12 17:05:53 Mr._Pit-Tattoo_and_Karma-COLD062-WEB-2016-TraX
2016-09-12 17:06:27 King_Crimson_-_THRaKaTTaK-(1996)-aAF
2016-09-12 17:08:15 MomXXX.16.09.12.Bibi.Fox.Horny.Housewife.Desperate.For.Sex.XXX.1080p.MP4-KTR
2016-09-12 17:09:59 King_James_-_King_James-(1995)-aAF
2016-09-12 17:10:55 King_James_-_The_Fall-(2000)-aAF
2016-09-12 17:18:15 Marjorie.L.Baldwin.-.Beyond.Schizophrenia.2016.RETAiL.eBOOK-DiSTRiBUTiON
2016-09-12 17:18:31 Wiley.-.J.K.Lassers.Your.Income.Tax.2016.Edition.6.2015.RETAiL.eBOOK-DiSTRiBUTiON
2016-09-12 17:22:34 FakeCop.16.09.12.Carmel.Anderson.XXX.1080p.MP4-KTR
2016-09-12 17:26:20 Marcus_Schossow_-_Amsterdam-(CODER028B)-WEB-2016-QMI
2016-09-12 17:26:44 Porn18.E16.Olivia.Grace.Fitness.Chick.XXX.1080p.MP4-KTR
2016-09-12 17:27:37 Porn18.E17.Sonya.Sweet.Anal.Toy.For.Sexy.Cat.XXX.1080p.MP4-KTR
2016-09-12 17:28:21 Code.Geass.Lelouch.Of.The.Rebellion.E09.FRENCH.720p.BluRay.x264-KAZETV
2016-09-12 17:28:32 Code.Geass.Lelouch.Of.The.Rebellion.E09.SUBFRENCH.720p.BluRay.x264-KAZETV
2016-09-12 17:28:46 Code.Geass.Lelouch.Of.The.Rebellion.E09.MULTi.1080p.BluRay.x264-KAZETV
2016-09-12 17:29:07 Code.Geass.Lelouch.Of.The.Rebellion.E10.FRENCH.720p.BluRay.x264-KAZETV
2016-09-12 17:29:23 Code.Geass.Lelouch.Of.The.Rebellion.E10.SUBFRENCH.720p.BluRay.x264-KAZETV
2016-09-12 17:29:42 Porn18.E18.Daphne.Klyde.My.Angry.English.Teacher.XXX.1080p.MP4-KTR
2016-09-12 17:29:45 Code.Geass.Lelouch.Of.The.Rebellion.E10.MULTi.1080p.BluRay.x264-KAZETV
2016-09-12 17:30:53 Escaping.Polygamy.S02E09.Honor.Thy.Father.HDTV.x264-WaLMaRT
2016-09-12 17:31:05 Porn18.E19.Alexis.Crystal.And.Lady.Dee.Mr.Anonymous.Cock.XXX.1080p.MP4-KTR
2016-09-12 17:31:58 Porn18.E20.Sweet.Cat.Getting.Off.XXX.1080p.MP4-KTR
2016-09-12 17:32:38 Saint.Seiya.Soul.Of.Gold.E01.FRENCH.720p.BluRay.x264-KAZETV
2016-09-12 17:32:39 Saint.Seiya.Soul.Of.Gold.E01.FRENCH.720p.BluRay.x264-KAZETV
2016-09-12 17:32:51 Saint.Seiya.Soul.Of.Gold.E01.SUBFRENCH.720p.BluRay.x264-KAZETV
2016-09-12 17:33:05 Saint.Seiya.Soul.Of.Gold.E01.MULTi.1080p.BluRay.x264-KAZETV
2016-09-12 17:36:02 Fairy.Tail.E234.FRENCH.720p.HDTV.x264-AMB3R
2016-09-12 17:37:05 Fairy.Tail.E235.FRENCH.720p.HDTV.x264-AMB3R
2016-09-12 17:37:25 UFC.203.SOURCE.SAMPLE.720p.HDTV.x264-VERUM
2016-09-12 17:37:37 Jamillah.and.Aladdin.S02E19.WEB.h264-ROFL
2016-09-12 17:37:39 Jamillah.and.Aladdin.S02E19.720p.WEB.h264-ROFL
2016-09-12 17:37:41 Melody.S01E02.WEB.h264-ROFL
2016-09-12 17:37:42 Melody.S01E02.720p.WEB.h264-ROFL
2016-09-12 17:37:42 Melody.S01E02.WEB.h264-ROFL
2016-09-12 17:37:44 Melody.S01E03.WEB.h264-ROFL
2016-09-12 17:37:45 Melody.S01E03.720p.WEB.h264-ROFL
2016-09-12 17:37:47 Melody.S01E04.WEB.h264-ROFL
2016-09-12 17:37:48 Melody.S01E04.WEB.h264-ROFL
2016-09-12 17:37:48 Melody.S01E04.720p.WEB.h264-ROFL
2016-09-12 17:37:53 Melody.S01E05.WEB.h264-ROFL
2016-09-12 17:37:54 Melody.S01E05.720p.WEB.h264-ROFL
2016-09-12 17:37:56 Melody.S01E06.WEB.h264-ROFL
2016-09-12 17:37:57 Melody.S01E06.720p.WEB.h264-ROFL
2016-09-12 17:38:00 Melody.S01E07.WEB.h264-ROFL
2016-09-12 17:38:02 Melody.S01E08.WEB.h264-ROFL
2016-09-12 17:38:04 Melody.S01E07.720p.WEB.h264-ROFL
2016-09-12 17:38:05 Melody.S01E08.720p.WEB.h264-ROFL
2016-09-12 17:38:08 Melody.S01E09.WEB.h264-ROFL
2016-09-12 17:38:08 Melody.S01E09.720p.WEB.h264-ROFL
2016-09-12 17:38:12 Melody.S01E10.WEB.h264-ROFL
2016-09-12 17:38:12 Melody.S01E10.720p.WEB.h264-ROFL
2016-09-12 17:38:12 Melody.S01E11.WEB.h264-ROFL
2016-09-12 17:38:15 Fairy.Tail.E234.FRENCH.HDTV.x264-AMB3R
2016-09-12 17:38:18 Melody.S01E11.720p.WEB.h264-ROFL
2016-09-12 17:38:20 Melody.S01E12.720p.WEB.h264-ROFL
2016-09-12 17:38:20 Melody.S01E12.WEB.h264-ROFL
2016-09-12 17:38:23 Melody.S01E13.WEB.h264-ROFL
2016-09-12 17:38:25 Melody.S01E13.720p.WEB.h264-ROFL
2016-09-12 17:38:28 Melody.S01E14.720p.WEB.h264-ROFL
2016-09-12 17:38:36 Melody.S01E15.WEB.h264-ROFL
2016-09-12 17:38:36 Melody.S01E15.720p.WEB.h264-ROFL
2016-09-12 17:38:38 Melody.S01E16.WEB.h264-ROFL
2016-09-12 17:38:38 Melody.S01E17.720p.WEB.h264-ROFL
2016-09-12 17:38:39 Melody.S01E17.WEB.h264-ROFL
2016-09-12 17:38:43 Melody.S01E14.WEB.h264-ROFL
2016-09-12 17:38:44 Melody.S01E18.720p.WEB.h264-ROFL
2016-09-12 17:38:45 Melody.S01E19.WEB.h264-ROFL
2016-09-12 17:38:50 Melody.S01E19.720p.WEB.h264-ROFL
2016-09-12 17:38:50 Melody.S01E20.WEB.h264-ROFL
2016-09-12 17:38:51 Melody.S01E19.720p.WEB.h264-ROFL
2016-09-12 17:38:52 Melody.S01E20.WEB.h264-ROFL
2016-09-12 17:38:56 Melody.S01E20.720p.WEB.h264-ROFL
2016-09-12 17:39:00 Melody.S01E18.WEB.h264-ROFL
2016-09-12 17:39:02 Melody.S01E20.720p.WEB.h264-ROFL
2016-09-12 17:39:07 Melody.S01E16.720p.WEB.h264-ROFL
2016-09-12 17:39:12 Melody.S01E16.720p.WEB.h264-ROFL
2016-09-12 17:39:22 Wild.and.Weird.S02E10.WEB.h264-ROFL
2016-09-12 17:39:23 Fairy.Tail.E235.FRENCH.HDTV.x264-AMB3R
2016-09-12 17:39:24 Wild.and.Weird.S02E10.WEB.h264-ROFL
2016-09-12 17:40:23 One-Punch.Man.E01.SUBFRENCH.720p.HDTV.x264-AMB3R
2016-09-12 17:41:27 One-Punch.Man.E02.SUBFRENCH.720p.HDTV.x264-AMB3R
2016-09-12 17:41:28 Stop.flood.race.very.inc.raced.rls.S01E01.720p.WEB.h264-ROFL
2016-09-12 17:41:51 Korpiklaani-FC_Lahti_(Single)-WEB-FI-2016-I_KnoW_INT
2016-09-12 17:41:52 Kool_and_The_Gang_-_The_Best_Of-1969-1976-(1993)-aAF
2016-09-12 17:42:00 Stop.flood.race.very.inc.raced.rls.S01E02.720p.WEB.h264-ROFL
2016-09-12 17:42:09 Korpiklaani-FC_Lahti_(Single)-WEB-FI-2016
2016-09-12 17:42:33 One-Punch.Man.E01.SUBFRENCH.HDTV.x264-AMB3R
2016-09-12 17:43:02 Kiss.Rocks.Vegas.Deluxe.Edition.2016.NTSC.DVD9.BONUS.MDVDR-AURORA
2016-09-12 17:43:35 One-Punch.Man.E02.SUBFRENCH.HDTV.x264-AMB3R
2016-09-12 17:50:58 The.Walk.2015.3D.FRENCH.1080p.BluRay.x264-JoKeR
2016-09-12 17:52:34 Colette.16.09.11.Anny.Aurora.And.Naomi.Woods.Ride.Em.Cowgirls.XXX.1080p.MP4-KTR
2016-09-12 17:53:19 Krokus_-_Stampede-(1990)-aAF
2016-09-12 17:53:44 Colette.16.09.11.Anny.Aurora.And.Naomi.Woods.Ride.Em.Cowgirls.XXX.2160p.MP4-KTR
2016-09-12 17:54:14 Xenius.-.Salz.Schadet.es.der.Gesundheit.720p.GERMAN.DOKU.HDTV.x264-OWG
2016-09-12 17:54:46 Xenius.-.Zivile.Drohnen.Helfer.aus.der.Luft.oder.Big.Brother.720p.GERMAN.DOKU.HDTV.x264-OWG
2016-09-12 17:55:05 Xenius.-.Zivile.Drohnen.Helfer.aus.der.Luft.oder.Big.Brother.GERMAN.DOKU.HDTVRip.x264-OWG
2016-09-12 17:55:07 VA_-_Tanecni_Liga_182-(537_309-1)-2016-ZzZz
2016-09-12 17:55:24 Krokus_-_The_Definitive_Collection-(2000)-aAF
2016-09-12 17:56:51 LIVE.with.Kelly.2016.09.12.Patrick.Dempsey.720p.HDTV.x264-CROOKS
2016-09-12 17:56:59 LIVE.with.Kelly.2016.09.12.Patrick.Dempsey.HDTV.x264-CROOKS
2016-09-12 17:59:19 VA_-_Gartenfeten_Mix_Volume_11_(Mixed_By_DJ_Mischen)-BOOTLEG-WEB-2015-ZzZz_INT
2016-09-12 17:59:35 102.Minutes.That.Changed.America.15th.Anniversary.Edition.2016.HDTV.x264-UAV
2016-09-12 18:01:59 Trailblazers.Expedition.Wissenschaft.S01E01.Rein.in.Abenteuer.German.DOKU.HDTVRiP.x264-UTOPiA
2016-09-12 18:02:19 SOKO.5113.S39E08.Der.Schwimmer.German.720p.HDTV.x264-ATAX
2016-09-12 18:02:50 Yes.Chef.S01E06.720p.WEB.h264-spamTV
2016-09-12 18:03:51 Yes.Chef.S01E06.WEB.h264-spamTV
2016-09-12 18:06:00 Ruf.der.Macht.Im.Sumpf.der.Korruption.2016.German.DL.DTS.1080p.BluRay.x264-CiNEViSiON
2016-09-12 18:07:17 102.Minutes.That.Changed.America.15th.Anniversary.Edition.2016.720p.HDTV.X264-UAV
2016-09-12 18:11:05 Xenius.-.Salz.Schadet.es.der.Gesundheit.GERMAN.DOKU.HDTVRiP.x264-OWG
2016-09-12 18:11:58 Eve.UK.S02E01.WEB.h264-spamTV
2016-09-12 18:13:10 Eve.UK.S02E02.WEB.h264-spamTV
2016-09-12 18:13:55 Lacy_J_Dalton_-_Survivor-(1990)-aAF
2016-09-12 18:14:17 Eve.UK.S02E03.WEB.h264-spamTV
2016-09-12 18:15:25 Eve.UK.S02E04.WEB.h264-spamTV
2016-09-12 18:16:31 9.11-15.Years.Later.2016.READNFO.720p.HDTV.x264-DHD
2016-09-12 18:16:34 Eve.UK.S02E05.WEB.h264-spamTV
2016-09-12 18:17:37 Eve.UK.S02E06.WEB.h264-spamTV
2016-09-12 18:18:53 Eve.UK.S02E07.WEB.h264-spamTV
2016-09-12 18:18:54 Eve.UK.S02E07.WEB.h264-spamTV
2016-09-12 18:19:24 9.11-Inside.the.Pentagon.2016.720p.HDTV.x264-DHD
2016-09-12 18:19:56 Eve.UK.S02E08.WEB.h264-spamTV
2016-09-12 18:20:06 Die.Hueter.der.Kartoffel.GERMAN.DOKU.720p.HDTV.x264-Pumuck
2016-09-12 18:20:59 Eve.UK.S02E09.WEB.h264-spamTV
2016-09-12 18:22:02 Eve.UK.S02E10.WEB.h264-spamTV
2016-09-12 18:22:07 Die.Hueter.der.Kartoffel.GERMAN.DOKU.WS.HDTVRip.x264-Pumuck
2016-09-12 18:22:45 Panzer_Bulldozer-Aparteid-WEB-RU-2014-I_KnoW_INT
2016-09-12 18:22:46 Panzer_Bulldozer-Aparteid-WEB-RU-2014-I_KnoW_INT
2016-09-12 18:23:06 Eve.UK.S02E11.WEB.h264-spamTV
2016-09-12 18:23:59 9.11-The.Longest.War.2016.720p.HDTV.x264-DHD
2016-09-12 18:24:08 Gestrandet.im.Paradies.Deutsche.Rentner.in.Pattaya.GERMAN.DOKU.WS.HDTVRip.x264-Pumuck
2016-09-12 18:24:09 Gestrandet.im.Paradies.Deutsche.Rentner.in.Pattaya.GERMAN.DOKU.WS.HDTVRip.x264-Pumuck
2016-09-12 18:24:09 Eve.UK.S02E12.WEB.h264-spamTV
2016-09-12 18:26:04 Helden.der.Nacht.Die.Seelensammler.von.Bangkok.GERMAN.DOKU.WS.HDTVRip.x264-Pumuck
2016-09-12 18:27:35 Rob.And.Chyna.S01E01.1080p.WEB.x264-TURBO
2016-09-12 18:27:36 Rob.And.Chyna.S01E01.1080p.WEB.x264-TURBO
2016-09-12 18:27:58 Lari_White_-_Wishes-(1994)-aAF
2016-09-12 18:27:59 Lari_White_-_Wishes-(1994)-aAF
2016-09-12 18:28:33 Viken_Arman-Souq_(Bonus_Track)-(WEB)-2016-H5N1_iNT
2016-09-12 18:30:33 Naruto.Shippuden.S13.D01.German.2007.ANiME.PAL.DVDR-CiA
2016-09-12 18:30:34 Naruto.Shippuden.S13.D01.German.2007.ANiME.PAL.DVDR-CiA
2016-09-12 18:30:50 Naruto.Shippuden.S13.D02.German.2007.ANiME.PAL.DVDR-CiA
2016-09-12 18:30:55 SOKO.5113.S39E08.Der.Schwimmer.German.HDTVRip.x264-ATAX
2016-09-12 18:31:06 Naruto.Shippuden.S13.D03.German.2007.ANiME.PAL.DVDR-CiA
2016-09-12 18:32:00 SOKO.5113.S39E09.Alte.Kameraden.German.720p.HDTV.x264-ATAX
2016-09-12 18:33:09 SOKO.5113.S39E09.Alte.Kameraden.German.HDTVRip.x264-ATAX
2016-09-12 18:34:13 SOKO.5113.S39E10.Es.bleibt.in.der.Familie.German.720p.HDTV.x264-ATAX
2016-09-12 18:34:38 Last_Crack_-_Sinister_Funkhouse_17-(1989)-aAF
2016-09-12 18:35:23 SOKO.5113.S39E10.Es.bleibt.in.der.Familie.German.HDTVRip.x264-ATAX
2016-09-12 18:37:50 WickedPictures.The.Preachers.Daughter.XXX.720p.MP4-KTR
2016-09-12 18:38:56 Video2Brain.PowerPoint.2016.Visualisierung.GERMAN-PANTHEON
2016-09-12 18:38:57 Video2Brain.PowerPoint.2016.Visualisierung.GERMAN-PANTHEON
2016-09-12 18:40:13 Escaping.Polygamy.S02E06.Not.Without.My.Daughter.720p.HDTV.x264-WaLMaRT
2016-09-12 18:42:16 Laura_Nyro_-_Angel_In_The_Dark-(2001)-aAF
2016-09-12 18:42:53 Americas.9.11.Flag-Rise.from.the.Ashes.2016.720p.HDTV.x264-DHD
2016-09-12 18:43:57 Fear.the.Walking.Dead.S02E11.1080p.HDTV.x264-BAJSKORV
2016-09-12 18:44:20 Whiskey.Tango.Foxtrot.German.DL.720p.BluRay.x264-ROOR
2016-09-12 18:44:51 Antiques.Road.Trip.S13E06.720p.WEB.h264-spamTV
2016-09-12 18:44:52 Antiques.Road.Trip.S13E06.720p.WEB.h264-spamTV
2016-09-12 18:45:05 WickedPictures.The.Preachers.Daughter.XXX.1080p.MP4-KTR
2016-09-12 18:45:57 Antiques.Road.Trip.S13E06.WEB.h264-spamTV
2016-09-12 18:46:08 Whiskey.Tango.Foxtrot.German.DL.1080p.BluRay.x264-ROOR
2016-09-12 18:46:16 OST-Ariflare-Contract_Soundtrack-WEB-2016-DARKSiDERS_iNT
2016-09-12 18:47:28 Whiskey.Tango.Foxtrot.German.BDRip.x264-ROOR
2016-09-12 18:49:28 Laurie_Lewis_-_Laurie_Lewis_n_Her_Bluegrass_Pals-(1999)-aAF
2016-09-12 18:53:45 Kery_James-Dernier_MC-(WEB)-FR-2013-OND_iNT
2016-09-12 18:54:45 Barfuss.2005.German.1080p.HDTV.x264-TiPToP
2016-09-12 18:54:46 Escaping.Polygamy.S02E07.Fight.Like.a.Mother.720p.HDTV.x264-WaLMaRT
2016-09-12 18:54:47 Escaping.Polygamy.S02E07.Fight.Like.a.Mother.720p.HDTV.x264-WaLMaRT
2016-09-12 18:56:36 Barfuss.2005.German.720p.HDTV.x264-TiPToP
2016-09-12 18:59:24 Emitt_Rhodes-Rainbow_Ends-2016-gnvr
2016-09-12 19:00:04 Inspektor.Gadget.1999.German.DL.1080p.HDTV.x264-TiPToP
2016-09-12 19:02:15 Inspektor.Gadget.1999.German.DL.720p.HDTV.x264.INTERNAL-TiPToP
2016-09-12 19:03:05 ActiveState.Komodo.IDE.v10.1.1.89474.for.Linux-BEAN
2016-09-12 19:03:22 ActiveState.Komodo.IDE.v10.1.1.89474.for.Linux.x64-BEAN
2016-09-12 19:03:38 ActiveState.Komodo.IDE.v10.1.1.89474.for.MacOSX.Intel-BEAN
2016-09-12 19:03:53 ActiveState.Komodo.IDE.v10.1.1.89474.for.Windows.Incl.Keygen-BEAN
2016-09-12 19:04:11 WebSupergoo.ABCpdf.DotNET.v10.114-BEAN
2016-09-12 19:04:27 WebSupergoo.ABCpdf.DotNET.v10.114.x64-BEAN
2016-09-12 19:06:15 Lee_Aaron_-_Lee_Aaron-(1987)-aAF
2016-09-12 19:06:59 Hans_Bouffmyhre-Insurgency_EP__Part_1-WEB-2016-WAV
2016-09-12 19:08:14 Lee_Ann_Womack_-_Some_Things_I_Know-(1998)-aAF
2016-09-12 19:10:09 Syndone-Eros_And_Thanatos-IT-2016-gnvr
2016-09-12 19:10:42 Escaping.Polygamy.S02E08.The.Cost.of.Temptation.720p.HDTV.x264-WaLMaRT
2016-09-12 19:10:56 Star.Trek.The.Next.Generation.S01E01E02.MULTi.1080p.BluRay.x264-UKDTV
2016-09-12 19:10:57 Star.Trek.The.Next.Generation.S01E01E02.MULTi.1080p.BluRay.x264-UKDTV
2016-09-12 19:12:08 Man.O.War.Corsair.Warhammer.Naval.Battles-RELOADED
2016-09-12 19:18:05 UBX127-Constant_Permutation__Part_1-WEB-2016-WAV
2016-09-12 19:20:54 Star.Trek.The.Next.Generation.S01E03.MULTi.1080p.BluRay.x264-UKDTV
2016-09-12 19:27:22 Star.Trek.The.Next.Generation.S01E04.MULTi.1080p.BluRay.x264-UKDTV
2016-09-12 19:32:58 My.Life.C64-PiKMiN
2016-09-12 19:34:25 Legacy_of_Sound_-_Holy_Groove-(1993)-aAF
2016-09-12 19:34:39 Making.of.James.Bond.007.Spectre.GERMAN.WS.HDTV.x264-aWake
2016-09-12 19:35:14 Leigh_Stephens_-_Red_Weather-(1969)-aAF
2016-09-12 19:35:31 Making.of.James.Bond.007.Spectre.GERMAN.WS.720p.HDTV.x264-aWake
2016-09-12 19:36:22 Ponyhof.S02E02.Pony.Farm.202.GERMAN.WS.HDTV.x264-aWake
2016-09-12 19:37:13 Ponyhof.S02E02.Pony.Farm.202.GERMAN.WS.720p.HDTV.x264-aWake
2016-09-12 19:38:05 Ponyhof.S02E02.Pony.Farm.202.GERMAN.WS.1080p.HDTV.x264-aWake
2016-09-12 19:40:09 Escaping.Polygamy.S02E09.Honor.Thy.Father.720p.HDTV.x264-WaLMaRT
2016-09-12 19:41:52 Tim_Mason_-_Anjunabeats_Worldwide_497-SAT-09-10-2016-TALiON
2016-09-12 19:41:59 Der.Koenig.von.St.Pauli.E03.Teil.3.1998.German.720p.HDTV.x264-TMSF
2016-09-12 19:42:31 Martin_Eyerer_-_Kling_Klong-SAT-09-11-2016-TALiON
2016-09-12 19:42:41 Leon_Russell_-_Carney-(1972)-aAF
2016-09-12 19:43:13 Steffen_Baumann_-_Sixty_Sessions-SAT-09-11-2016-TALiON
2016-09-12 19:44:03 Neil_Moore_-_HeavensGate_528-SAT-09-11-2016-TALiON
2016-09-12 19:44:03 Family_-_Bandstand-(1972)-aAF
2016-09-12 19:45:01 Wishes_and_Dreams_-_Live_at_Local_Heroes-SAT-09-11-2016-XDS
2016-09-12 19:45:10 Extravagance_SL_-_HeavensGate_528-SAT-09-11-2016-TALiON
2016-09-12 19:45:19 Max_Lian_-_In_the_Mix_at_Bouq_Radio-CABLE-09-10-2016-XDS
2016-09-12 19:45:30 Der.Koenig.von.St.Pauli.E04.Teil.4.1998.German.720p.HDTV.x264-TMSF
2016-09-12 19:45:38 Marcello_Nunzio_-_In_the_Mix_at_Bouq_Radio-CABLE-09-09-2016-XDS
2016-09-12 19:46:30 Hubert_Felix_Thiefaine-VIXI_Tour_XVII-(RETAiL)-2CD-FR-2016-SO
2016-09-12 19:52:54 VA-Les_Vrais_Savent_(Le_Meilleur_du_Rap_Francais)-WEB-FR-2015-USR
2016-09-12 19:52:55 VA-Les_Vrais_Savent_(Le_Meilleur_du_Rap_Francais)-WEB-FR-2015-USR
2016-09-12 19:52:57 Leviticus_-_Knights_Of_Heaven-(1989)-aAF
2016-09-12 19:52:59 Leviticus_-_Knights_Of_Heaven-(1989)-aAF
2016-09-12 19:53:33 VA-Les_Vrais_Savent_Vol._2_(Les_Classiques_du_Rap_Francais)-WEB-FR-2016-USR
2016-09-12 19:53:48 Leviticus_-_Setting_Fire_To_The_Earth-(1987)-aAF
2016-09-12 19:54:45 Leviticus_-_The_Strongest_Power-(1985)-aAF
2016-09-12 19:55:21 Santana_-_Odyssey-The_First_Live_Recording-(2000)-aAF
2016-09-12 19:55:22 Santana_-_Odyssey-The_First_Live_Recording-(2000)-aAF
2016-09-12 19:55:26 Acronym-Entagled_In_Vines-WEB-2016-WAV
2016-09-12 19:56:23 Capture.The.Flag.2015.NORDIC.TrueHD.Atmos.AC3.DTS.NORDICSUBS.1080p.BluRay.x264.HQ-TUSAHD
2016-09-12 19:57:01 Production_House-X_Static-PNT52-1993-OSM
2016-09-12 19:57:07 Production_House-X_Static-PNT40-1992-OSM
2016-09-12 19:57:14 Production_House-X_Static-PNT33-1992-OSM
2016-09-12 19:57:22 Production_House-VA-PNTCA6-1995-OSM
2016-09-12 19:57:27 Production_House-The_House_Crew-PNT47-1993-OSM
2016-09-12 19:57:27 Bobs.Burgers.S05E21.The.Oeder.Games.GERMAN.DUBBED.DL.1080p.WebHD.x264-TVP
2016-09-12 19:57:34 Production_House-The_House_Crew-PNT29R-1992-OSM
2016-09-12 19:57:41 Production_House-The_House_Crew-PNT10-199x-OSM
2016-09-12 19:57:49 Production_House-The_House_Crew-PNT029-1991-OSM
2016-09-12 19:57:56 Production_House-The_Brothers_Grimm-PNT36-1992-OSM
2016-09-12 19:58:02 Production_House-The_Brothers_Grimm-PNT27-199x-OSM
2016-09-12 19:58:09 Production_House-The_Brothers_Grimm-PNT048-1993-OSM
2016-09-12 19:58:16 Production_House-Notorious_(1_Sided)-PNT074-199x-OSM
2016-09-12 19:58:24 Production_House-Nino-PNT45-1993-OSM
2016-09-12 19:58:27 Light_Force_-_Mystical_Thieves-(1989)-aAF
2016-09-12 19:58:30 Production_House-Lucida-PNT61-1994-OSM
2016-09-12 19:58:38 Production_House-D_U_B_with_Longsy_D-PNT56-1993-OSM
2016-09-12 19:58:44 Production_House-D_M_S-PNT026-1991-OSM
2016-09-12 19:58:59 Production_House-DJ_Solo-PNT050-1993-OSM
2016-09-12 19:59:05 Production_House-DJ_Nut_Nut-PNT058R-1994-OSM
2016-09-12 19:59:12 Production_House-DJ_Devine_and_Essence-PNT73-1994-OSM
2016-09-12 19:59:19 Production_House-DJ_Devine-PNT059-1994-OSM
2016-09-12 19:59:24 Lightmare_-_The_Fool-(1997)-aAF
2016-09-12 19:59:26 Production_House-Blow_(Repacked)-PNT14-199x-OSM
2016-09-12 19:59:31 Bobs.Burgers.S05E21.The.Oeder.Games.GERMAN.DUBBED.DL.720p.WebHD.x264-TVP
2016-09-12 19:59:34 Production_House-Baby_D-PNT12-1990-OSM
2016-09-12 19:59:35 Production_House-Baby_D-PNT12-1990-OSM
2016-09-12 19:59:40 Production_House-Baby_D-PNT043-1992-OSM
2016-09-12 19:59:48 Production_House-Baby_D-PNT019-1991-OSM
2016-09-12 19:59:55 Production_House-Baby_D-PNT012-1990-OSM
2016-09-12 20:00:01 Production_House-Anti_Chaos-PNT049-1993-OSM
2016-09-12 20:00:05 Lightmare_-_Vampires-CDM-(1995)-aAF
2016-09-12 20:00:05 Last.Man.Standing.US.S05E03.iNTERNAL.HDTV.x264-TURBO
2016-09-12 20:00:06 Last.Man.Standing.US.S05E03.iNTERNAL.720p.HDTV.x264-TURBO
2016-09-12 20:00:06 Last.Man.Standing.US.S05E03.1080p.HDTV.H264-TURBO
2016-09-12 20:00:07 Last.Man.Standing.US.S05E03.1080p.HDTV.H264-TURBO
2016-09-12 20:00:08 Production_House-Acen-PNT51-1993-OSM
2016-09-12 20:00:15 Production_House-Acen-PNT051R2-1994-OSM
2016-09-12 20:00:24 Production_House-Acen-PNT034R-1992-OSM
2016-09-12 20:00:38 Whiskey.Tango.Foxtrot.2016.German.DL.1080p.BluRay.AVC-REMUX
2016-09-12 20:01:34 Bobs.Burgers.S05E21.The.Oeder.Games.GERMAN.DUBBED.WS.WebRip.x264-TVP
2016-09-12 20:01:56 Lee_Blaske_-_The_Immortal_Kiss_Of_The_Vampire-(1994)-aAF
2016-09-12 20:02:05 Strong_Arm_Steady-Gang_Mentality-2009-DiTF
2016-09-12 20:02:14 Saigon-The_Abandoned_Tracks_Volume_2_(Presented_By_Simzz_Beatz)-(Bootleg)-2005-MTD
2016-09-12 20:02:15 Saigon-The_Abandoned_Tracks_Volume_2_(Presented_By_Simzz_Beatz)-(Bootleg)-2005-MTD
2016-09-12 20:02:25 Redman-Dare_is_A_Darkside-1994-OSR
2016-09-12 20:02:34 Papoose_And_Memphis_Bleek-Bedstuy_Do_Or_Die-2005-C4
2016-09-12 20:02:35 Papoose_And_Memphis_Bleek-Bedstuy_Do_Or_Die-2005-C4
2016-09-12 20:02:43 KRS_One-Return_Of_The_Boom_Bap-1993-APM_INT
2016-09-12 20:03:42 Jimi_Hendrix-The_Cry_of_Love-(1971)-aAF
2016-09-12 20:04:42 Ghostface.Killah-Bulletproof_Wallets.Retail-2001-EGO
2016-09-12 20:04:43 Ghostface.Killah-Bulletproof_Wallets.Retail-2001-EGO
2016-09-12 20:05:22 wu-tang_feat_abdel-freestyle_2-remix-promo_cds-fr-2007-kis
2016-09-12 20:05:48 Lil_Ed_and_the_Blues_Imperial_-_What_You_See_-(1992)-aAF
2016-09-12 20:06:19 BLACKED.16.09.12.Lily.Labaeu.XXX.1080p.MP4-KTR
2016-09-12 20:07:00 Lili_and_Sussie_-_Whats_the_colour_of_love-CDM-(1990)-aAF
2016-09-12 20:07:01 Lili_and_Sussie_-_Whats_the_colour_of_love-CDM-(1990)-aAF
2016-09-12 20:07:21 BLACKED.16.09.12.Lily.Labaeu.XXX.2160p.MP4-KTR
2016-09-12 20:07:43 Foxcatcher.2014.ITALIAN.DTS.720p.BluRay.x264-CPY
2016-09-12 20:08:13 Lillian_Axe_-_Fields_Of_Yesterday-(1999)-aAF
2016-09-12 20:08:20 Moony-Dove_(I_ll_Be_Loving_You)-CDM-2001-TS
2016-09-12 20:08:40 VA-Trance_Empire_Vol_5_-_Pulsar_Mixed_by_Dj_Pi-2004-EWL
2016-09-12 20:09:01 Dr_Boom__The_Dominator_-_Bass_Cube-(1993)-aAF
2016-09-12 20:09:20 Downchild_Blues_Band_-_Good_Times_Guranteed-(1995)-aAF
2016-09-12 20:09:33 Lime_Spiders_-_Beethovens_Fist-(1990)-aAF
2016-09-12 20:09:40 Downchild_Blues_Band_-_Gone_Fishin-(1994)-aAF
2016-09-12 20:09:59 Downchild_Blues_Band_-_Double_Header-(1996)-aAF
2016-09-12 20:10:00 Downchild_Blues_Band_-_Double_Header-(1996)-aAF
2016-09-12 20:10:12 Vibes-Live_at_Slammin_Vinyl_and_Dream_FM-05-17-TAPE-1996-XTC
2016-09-12 20:10:19 Doc_Watson_-_Docabilly-(1995)-aAF
2016-09-12 20:10:40 TNT-DJ_Without_A_Brain-(TTC027)-PROPER-Vinyl-2005-MTC
2016-09-12 20:10:44 Lime_Spiders_-_Headcleaner-(1988)-aAF
2016-09-12 20:11:00 Taylor_Dayne-Cant_Fight_Fate-1989-Wyse
2016-09-12 20:11:20 Sensoria_-_Run_4_Love-(Vinyl)-IT-(1995)-rDCREw
2016-09-12 20:11:40 Sarah_McLachlan-Rarities_B-Sides_and_Other_Stuff-1996-Wyse
2016-09-12 20:11:46 Lime_Spiders_-_The_Cave_Comes_Alive-(1987)-aAF
2016-09-12 20:12:00 Rebeka_-_My_Druhy_Ja-2003-4CZ
2016-09-12 20:12:19 Peter_Wackel-Scheiss_Drauf_(___Mallorca_Ist_Nur_Einmal_Im_Jahr)_(Special_Edition)-WEB-DE-2013-VOiCE
2016-09-12 20:12:39 Molella_-_Love_Lasts_Forever-(Vinyl)-IT-(2001)-rDCREw
2016-09-12 20:12:58 Melodica_-_Back_to_the_East_(Club_Mix)-CDR-2003-KOSMOS_INT
2016-09-12 20:13:08 Escaping.Polygamy.S02E07.Fight.Like.a.Mother.REPACK.720p.HDTV.x264-WaLMaRT
2016-09-12 20:13:18 Joey_Negro_feat_Thelma_Houston-I_Need_Somebody_Tonight_(Audiowhores_Original_Mixes)-WEB-2013-SnS
2016-09-12 20:13:19 Joey_Negro_feat_Thelma_Houston-I_Need_Somebody_Tonight_(Audiowhores_Original_Mixes)-WEB-2013-SnS
2016-09-12 20:13:40 Joe_T_Vannelli_feat_Csilla__Genetic_Line_-_Play_With_The_Voice_In_Germany-CDM-1995-HB_INT
2016-09-12 20:13:59 Jirah_-_Universal_Mind-Promo-2004-WZ
2016-09-12 20:14:19 Jelly_For_The_Babies_and_Senores_Funkees-I_Know_You_Want_It__Remixes-WEB-2013-CBR
2016-09-12 20:14:41 HypeRavers_-_Rain_H-Core_And_Majkel-Remix-2004-VMC
2016-09-12 20:21:22 VA_-_Gartenfeten_Mix_Vol_6_(Mixed_By_DJ_Mischen)-BOOTLEG-WEB-2012-ZzZz_INT
2016-09-12 20:22:07 VA_-_Gartenfeten_Mix_Vol_6.5_Summer_Mix_(Mixed_By_DJ_Mischen)-BOOTLEG-WEB-2012-ZzZz_INT
2016-09-12 20:22:18 VA_-_Gartenfeten_Mix_Gold_Edition_(Mixed_By_DJ_Mischen)-BOOTLEG-WEB-2011-ZzZz_INT
2016-09-12 20:22:33 VA_-_Gartenfeten_Mix_Best_Of_(Mixed_By_DJ_Mischen)-BOOTLEG-WEB-2010-ZzZz_INT
2016-09-12 20:26:29 Dogos-SKIDROW
2016-09-12 20:27:49 Das.Universum.Eine.Reise.durch.Raum.und.Zeit.S04E02.Der.Venus.boeser.Zwilling.German.DOKU.1080p.BluRay.x264-TV4A
2016-09-12 20:29:16 Das.Universum.Eine.Reise.durch.Raum.und.Zeit.S04E02.Der.Venus.boeser.Zwilling.German.DOKU.720p.BluRay.x264-TV4A
2016-09-12 20:30:38 Das.Universum.Eine.Reise.durch.Raum.und.Zeit.S04E02.Der.Venus.boeser.Zwilling.German.DOKU.WS.BDRiP.x264-TV4A
2016-09-12 20:32:27 Das.Universum.Eine.Reise.durch.Raum.und.Zeit.S04E03.Das.schwarze.Loch.XXL.German.DOKU.1080p.BluRay.x264-TV4A
2016-09-12 20:33:53 Das.Universum.Eine.Reise.durch.Raum.und.Zeit.S04E03.Das.schwarze.Loch.XXL.German.DOKU.720p.BluRay.x264-TV4A
2016-09-12 20:34:50 Jason_Aldean-They_Dont_Know-2016-MTD
2016-09-12 20:34:53 Jason_Aldean-They_Dont_Know-CD-FLAC-2016-FORSAKEN
2016-09-12 20:35:15 Das.Universum.Eine.Reise.durch.Raum.und.Zeit.S04E03.Das.schwarze.Loch.XXL.German.DOKU.WS.BDRiP.x264-TV4A
2016-09-12 20:37:05 Das.Universum.Eine.Reise.durch.Raum.und.Zeit.S04E04.Am.Rande.des.Sonnensystems.German.DOKU.1080p.BluRay.x264-TV4A
2016-09-12 20:37:20 John_Digweed_-_Transitions_628__Incl_Lee_van_Dowski_Guestmix-SAT-09-10-2016-TALiON
2016-09-12 20:38:30 Das.Universum.Eine.Reise.durch.Raum.und.Zeit.S04E04.Am.Rande.des.Sonnensystems.German.DOKU.720p.BluRay.x264-TV4A
2016-09-12 20:39:49 Das.Universum.Eine.Reise.durch.Raum.und.Zeit.S04E04.Am.Rande.des.Sonnensystems.German.DOKU.WS.BDRiP.x264-TV4A
2016-09-12 20:40:19 The_Beatles-Live_At_The_Hollywood_Bowl-(Remastered_Deluxe_Edition)-2016-MTD
2016-09-12 20:40:25 The_Beatles-Live_At_The_Hollywood_Bowl-Deluxe_Edition_Remastered-CD-FLAC-2016-FORSAKEN
2016-09-12 20:40:26 The_Beatles-Live_At_The_Hollywood_Bowl-Deluxe_Edition_Remastered-CD-FLAC-2016-FORSAKEN
2016-09-12 20:42:12 Californication.S04D01.iNTERNAL.COMPLETE.BLURAY-GERUDO
2016-09-12 20:42:21 Das.Universum.Eine.Reise.durch.Raum.und.Zeit.S04E05.Der.Ursprung.des.Lebens.German.DOKU.1080p.BluRay.x264-TV4A
2016-09-12 20:43:55 NCIS.S13E14.Unter.Druck.GERMAN.DUBBED.WebHDRiP.x264-SOF
2016-09-12 20:44:08 Das.Universum.Eine.Reise.durch.Raum.und.Zeit.S04E05.Der.Ursprung.des.Lebens.German.DOKU.720p.BluRay.x264-TV4A
2016-09-12 20:44:38 NCIS.Los.Angeles.S07E19.Das.siebte.Kind.GERMAN.DUBBED.WebHDRiP.x264-SOF
2016-09-12 20:45:31 Das.Universum.Eine.Reise.durch.Raum.und.Zeit.S04E05.Der.Ursprung.des.Lebens.German.DOKU.WS.BDRiP.x264-TV4A
2016-09-12 20:46:02 Guardians.of.the.Galaxy.S01E15.Quills.Schwester.GERMAN.DL.DUBBED.1080p.WebHD.x264-TVP
2016-09-12 20:46:28 NCIS.Los.Angeles.S07E19.Das.siebte.Kind.GERMAN.DUBBED.DL.720p.WebHD.h264-euHD
2016-09-12 20:47:17 Lita_Ford_-_The_Best_Of_Lita_Ford-(1992)-aAF
2016-09-12 20:47:18 Das.Universum.Eine.Reise.durch.Raum.und.Zeit.S04E06.Geheimnisse.auf.dem.Mond.German.DOKU.1080p.BluRay.x264-TV4A
2016-09-12 20:47:37 Dicte.S03E04.DANiSH.720p.HDTV.x264-DiViSiON
2016-09-12 20:47:45 NCIS.S13E14.Unter.Druck.GERMAN.DUBBED.DL.720p.WebHD.h264-euHD
2016-09-12 20:47:57 Litmus_Green_-_Circle_That_A-(1995)-aAF
2016-09-12 20:48:05 Guardians.of.the.Galaxy.S01E15.Quills.Schwester.GERMAN.DL.DUBBED.720p.WebHD.x264-TVP
2016-09-12 20:49:04 Litmus_Green_-_Cock_Ring-(1999)-aAF
2016-09-12 20:49:06 Das.Universum.Eine.Reise.durch.Raum.und.Zeit.S04E06.Geheimnisse.auf.dem.Mond.German.DOKU.720p.BluRay.x264-TV4A
2016-09-12 20:49:39 Bee_Gees-Size_Isnt_Everything-CDA-1993-wAx
2016-09-12 20:50:09 Guardians.of.the.Galaxy.S01E15.Quills.Schwester.GERMAN.DUBBED.WS.WEBRip.x264-TVP
2016-09-12 20:50:32 Das.Universum.Eine.Reise.durch.Raum.und.Zeit.S04E06.Geheimnisse.auf.dem.Mond.German.DOKU.WS.BDRiP.x264-TV4A
2016-09-12 20:52:27 Das.Universum.Eine.Reise.durch.Raum.und.Zeit.S04E07.Die.Ozeane.German.DOKU.1080p.BluRay.x264-TV4A
2016-09-12 20:53:58 Das.Universum.Eine.Reise.durch.Raum.und.Zeit.S04E07.Die.Ozeane.German.DOKU.720p.BluRay.x264-TV4A
2016-09-12 20:55:20 Das.Universum.Eine.Reise.durch.Raum.und.Zeit.S04E07.Die.Ozeane.German.DOKU.WS.BDRiP.x264-TV4A
2016-09-12 20:55:43 Little_Feat__-_Let_It_Roll-(1988)-aAF
2016-09-12 20:55:56 Californication.S04D02.COMPLETE.BLURAY-GERUDO
2016-09-12 20:56:42 Little_Feat_-_Representing_The_Mambo-(1989)-aAF
2016-09-12 20:57:17 Das.Universum.Eine.Reise.durch.Raum.und.Zeit.S04E08.Macht.der.Masse.German.DOKU.1080p.BluRay.x264-TV4A
2016-09-12 20:58:16 Navy.CIS.S13E14.Unter.Druck.GERMAN.DUBBED.DL.1080p.WebHD.x264-TVP
2016-09-12 20:58:26 Little_Feat_-_The_Last_Record_Album-(1975)-aAF
2016-09-12 20:58:47 Das.Universum.Eine.Reise.durch.Raum.und.Zeit.S04E08.Macht.der.Masse.German.DOKU.720p.BluRay.x264-TV4A
2016-09-12 20:59:15 Little_Feat_-_Time_Loves_A_Hero-(1977)-aAF
2016-09-12 20:59:42 Sherlock.Holmes.2009.EXTRAS.iNTERNAL.DVDRip.x264-XME
2016-09-12 21:00:05 2001.A.Space.Odyssey.1968.EXTRAS.iNTERNAL.DVDRip.x264-XME
2016-09-12 21:00:08 Das.Universum.Eine.Reise.durch.Raum.und.Zeit.S04E08.Macht.der.Masse.German.DOKU.WS.BDRiP.x264-TV4A
2016-09-12 21:00:12 Trailblazers.Expedition.Wissenschaft.S01E01.Rein.in.Abenteuer.German.DL.DOKU.720p.HDTV.x264-WiSHTV
2016-09-12 21:00:13 Idol.2016.E10.SWEDiSH.720p.HDTV.x264-CCCAM
2016-09-12 21:00:23 Dicte.S03E04.DANiSH.HDTV.x264-RCDiVX
2016-09-12 21:01:10 Vem.Tror.Du.Att.Du.Ar.S09E03.SWEDiSH.720p.HDTV.x264-CCCAM
2016-09-12 21:06:47 Navy.CIS.L.A.S07E19.The.Seventh.Child.GERMAN.DUBBED.DL.1080p.WebHD.x264-TVP
2016-09-12 21:08:43 Sporloes.2016.09.12.DANiSH.720p.HDTV.x264-RCDiVX
2016-09-12 21:09:52 VA_-_Gartenfeten_Mix_Vol_1_(Mixed_By_DJ_Mischen)-BOOTLEG-WEB-2008-ZzZz_INT
2016-09-12 21:10:10 Promi.Big.Brother.S04E09.GERMAN.dTV.x264-iNFOTv
2016-09-12 21:10:13 VA_-_Gartenfeten_Mix_Vol_2_(Mixed_By_DJ_Mischen)-BOOTLEG-WEB-2009-ZzZz_INT
2016-09-12 21:10:30 Sporloes.2016.09.12.DANiSH.HDTV.x264-RCDiVX
2016-09-12 21:10:33 VA_-_Gartenfeten_Mix_Vol_3_Mini_(Mixed_By_DJ_Mischen)-BOOTLEG-WEB-2010-ZzZz_INT
2016-09-12 21:10:34 VA_-_Gartenfeten_Mix_Vol_3_Mini_(Mixed_By_DJ_Mischen)-BOOTLEG-WEB-2010-ZzZz_INT
2016-09-12 21:10:46 Betabox_Feat._Rael_-_Let_the_Music_Play-CDM-1998-LB
2016-09-12 21:10:49 Little_Richard_-_Little_Richard-(19xx)-aAF
2016-09-12 21:10:51 VA_-_Gartenfeten_Mix_Vol_4_(Mixed_By_DJ_Mischen)-BOOTLEG-WEB-2010-ZzZz_INT
2016-09-12 21:11:13 VA_-_Gartenfeten_Mix_Vol_5_(Mixed_By_DJ_Mischen)-BOOTLEG-WEB-2011-ZzZz_INT
2016-09-12 21:13:03 Dybvaaaaad.S07E03.DANiSH.720p.HDTV.x264-DiViSiON
2016-09-12 21:13:53 Emmerdale.2016.09.12.WEB.x264-HEAT
2016-09-12 21:14:28 Living_Death_-_Protected_From_Reality-(1988)-aAF
2016-09-12 21:15:25 Promi.Big.Brother.S04E10.GERMAN.dTV.x264-iNFOTv
2016-09-12 21:15:54 BlazBlue_Continuum_Shift_EXTEND_WORKING_READNFO_PSV-VENOM
2016-09-12 21:18:26 Handa-kun.E10.SUBFRENCH.720p.HDTV.x264-AMB3R
2016-09-12 21:20:32 De_Donatis_III_-_The_Sound-CDM-1996-LB
2016-09-12 21:20:38 Liz_Story_-_Escape_of_the_Circus_Ponies-(1991)-aAF
2016-09-12 21:20:47 Dario_G_-_The_Sunmachine_Remixes_CDM-1998-LB
2016-09-12 21:21:20 Liz_Story_-_Part_of_Fortune-(1988)-aAF
2016-09-12 21:22:09 Coronation.Street.2016.09.12.WEB.x264-HEAT
2016-09-12 21:22:10 Liz_Story_-_Solid_Colors-(1983)-aAF
2016-09-12 21:22:58 Liz_Story_-_Speechless-(1989)-aAF
2016-09-12 21:23:19 Freedom_Wars_WORKING_READNFO_PSV-VENOM
2016-09-12 21:23:33 Brad.Neelys.Harg.Nallin.Sclopio.Peepio.S01E09.720p.HDTV.x264-MiNDTHEGAP
2016-09-12 21:23:55 Liz_Story_-_Unaccountable_Effect-(1985)-aAF
2016-09-12 21:24:03 Brad.Neelys.Harg.Nallin.Sclopio.Peepio.S01E09.HDTV.x264-MiNDTHEGAP
2016-09-12 21:25:42 Action.Legion.Linux-ACTiVATED
2016-09-12 21:26:21 Did_You_Just_Hex_Me-Demo_CDR-2008-UTP
2016-09-12 21:27:07 Fuck_Off_-_Another_Sacrifice-Remastered-2012-MCA_int
2016-09-12 21:27:31 Handa-kun.E10.SUBFRENCH.HDTV.x264-AMB3R
2016-09-12 21:27:39 Jose_Andrea_Y_Uroboros_-_Resurreccion-ES-2015-MCA_int
2016-09-12 21:28:11 Saurom_-_Romances_form_Al-Andaluz-Digipak-EP-2008-MCA_int
2016-09-12 21:28:26 Dara.And.Eds.Great.Big.Adventure.S01E01.DVDRip.x264-GHOULS
2016-09-12 21:28:27 Dara.And.Eds.Great.Big.Adventure.S01E01.DVDRip.x264-GHOULS
2016-09-12 21:28:42 Ultimatium_-_New_Dawn_(Jap._Ed.)-2004-MCA_int
2016-09-12 21:29:14 Vanishing_Point_-_Distant_in_the_Sun_(Jap._Ed.)-2014-MCA_int
2016-09-12 21:29:40 Holder.Lov.Og.Orden.S01E04.DANiSH.HDTV.x264-RCDiVX
2016-09-12 21:29:45 Action.Legion.MacOSX-ACTiVATED
2016-09-12 21:30:27 LEGO_Star_Wars_The_Force_Awakens_PSV-VENOM
2016-09-12 21:30:35 Dara.And.Eds.Great.Big.Adventure.S01E02.DVDRip.x264-GHOULS
2016-09-12 21:30:36 Dara.And.Eds.Great.Big.Adventure.S01E02.DVDRip.x264-GHOULS
2016-09-12 21:31:14 Dara.And.Eds.Great.Big.Adventure.S01E03.DVDRip.x264-GHOULS
2016-09-12 21:32:41 PSY_-_Gangnam_Style_(Stomp_RMX)_(Mixed_By_DJ_Mischen)-BOOTLEG-WEB-2012-ZzZz_INT
2016-09-12 21:34:45 Erwischt.Peinliche.Sex.Geschichten.S01E03.German.DOKU.1080p.HDTV.x264-ATAX
2016-09-12 21:35:19 Holder.Lov.Og.Orden.S01E04.DANiSH.720p.HDTV.x264-DiViSiON
2016-09-12 21:35:25 Shiren_The_Wanderer_The_Tower_of_Fortune_and_the_Dice_of_Fate_PSV-VENOM
2016-09-12 21:36:00 Erwischt.Peinliche.Sex.Geschichten.S01E03.German.DOKU.720p.HDTV.x264-ATAX
2016-09-12 21:37:05 Erwischt.Peinliche.Sex.Geschichten.S01E03.German.DOKU.HDTVRip.x264-ATAX
2016-09-12 21:37:29 Obscuritas.MacOSX-ACTiVATED
2016-09-12 21:37:50 Pet_Shop_Boys_and_Echenique_Mix_-_Ultimate_One_More_Mix_(Super_Disco_Mix)-WEB-2012-ZzZz_INT
2016-09-12 21:38:02 Lonestar_-_Crazy_Nights-(1997)-aAF
2016-09-12 21:38:03 Lonestar_-_Crazy_Nights-(1997)-aAF
2016-09-12 21:38:09 Erwischt.Peinliche.Sex.Geschichten.S01E04.German.DOKU.1080p.HDTV.x264-ATAX
2016-09-12 21:39:20 Erwischt.Peinliche.Sex.Geschichten.S01E04.German.DOKU.720p.HDTV.x264-ATAX
2016-09-12 21:40:13 EastEnders.2016.09.12.720p.WEB.h264-HEAT
2016-09-12 21:40:25 Erwischt.Peinliche.Sex.Geschichten.S01E04.German.DOKU.HDTVRip.x264-ATAX
2016-09-12 21:40:46 Braqueurs.2015.COMPLETE.FRENCH.BLURAY-4FR
2016-09-12 21:40:48 Mezada_-_Back_to_Trancenation-CDM-1997-LB
2016-09-12 21:41:28 Erwischt.Peinliche.Sex.Geschichten.S01E05.German.DOKU.1080p.HDTV.x264-ATAX
2016-09-12 21:42:37 Erwischt.Peinliche.Sex.Geschichten.S01E05.German.DOKU.720p.HDTV.x264-ATAX
2016-09-12 21:43:05 Noergaards.Netfix.S04E04.DANiSH.720p.HDTV.x264-DiViSiON
2016-09-12 21:43:29 Sly_Cooper_Thieves_in_Time_WORKING_READNFO_PSV-VENOM
2016-09-12 21:43:42 Erwischt.Peinliche.Sex.Geschichten.S01E05.German.DOKU.HDTVRip.x264-ATAX
2016-09-12 21:44:25 The.Storm.Guard.Darkness.is.Coming.MacOSX-ACTiVATED
2016-09-12 21:44:46 Erwischt.Peinliche.Sex.Geschichten.S01E06.German.DOKU.1080p.HDTV.x264-ATAX
2016-09-12 21:45:57 Erwischt.Peinliche.Sex.Geschichten.S01E06.German.DOKU.720p.HDTV.x264-ATAX
2016-09-12 21:47:02 Erwischt.Peinliche.Sex.Geschichten.S01E06.German.DOKU.HDTVRip.x264-ATAX
2016-09-12 21:47:20 Motive.S04E06.FRENCH.HDTV.x264-PANZeR
2016-09-12 21:48:05 Erwischt.Peinliche.Sex.Geschichten.S01E07.German.DOKU.1080p.HDTV.x264-ATAX
2016-09-12 21:49:16 Erwischt.Peinliche.Sex.Geschichten.S01E07.German.DOKU.720p.HDTV.x264-ATAX
2016-09-12 21:49:17 Soul_Sacrifice_WORKING_READNFO_PSV-VENOM
2016-09-12 21:49:20 Soul_Sacrifice_WORKING_READNFO_PSV-VENOM
2016-09-12 21:49:24 Trial.by.Viking.Linux-ACTiVATED
2016-09-12 21:49:25 Trial.by.Viking.Linux-ACTiVATED
2016-09-12 21:50:20 Erwischt.Peinliche.Sex.Geschichten.S01E07.German.DOKU.HDTVRip.x264-ATAX
2016-09-12 21:50:21 DR1.Dokumentaren.Medicinens.Pris.DANiSH.720p.HDTV.x264-RCDiVX
2016-09-12 21:51:23 Erwischt.Peinliche.Sex.Geschichten.S01E08.German.DOKU.1080p.HDTV.x264-ATAX
2016-09-12 21:51:33 Amaama.to.Inazuma.E11.SUBFRENCH.1080p.WEBRiP.x264-KANGOKU
2016-09-12 21:52:21 Amaama.to.Inazuma.E11.SUBFRENCH.720p.WEBRiP.x264-KANGOKU
2016-09-12 21:52:35 Lorrie_Morgan_-_Greatest_Hits-(1995)-aAF
2016-09-12 21:52:35 Erwischt.Peinliche.Sex.Geschichten.S01E08.German.DOKU.720p.HDTV.x264-ATAX
2016-09-12 21:52:36 Erwischt.Peinliche.Sex.Geschichten.S01E08.German.DOKU.720p.HDTV.x264-ATAX
2016-09-12 21:52:37 Vetenskapens.Varld.2016.E23.SWEDiSH.720p.HDTV.x264-KAFFEREP
2016-09-12 21:52:49 Mob.Psycho.100.E10.SUBFRENCH.1080p.WEBRiP.x264-KANGOKU
2016-09-12 21:53:15 Mob.Psycho.100.E10.SUBFRENCH.720p.WEBRiP.x264-KANGOKU
2016-09-12 21:53:28 Lorrie_Morgan_-_Leave_The_Light_On-(1989)-aAF
2016-09-12 21:53:38 The_Wolf_Among_Us_PSV-VENOM
2016-09-12 21:53:41 Erwischt.Peinliche.Sex.Geschichten.S01E08.German.DOKU.HDTVRip.x264-ATAX
2016-09-12 21:53:44 New.Game.E11.SUBFRENCH.1080p.WEBRiP.x264-KANGOKU
2016-09-12 21:54:16 New.Game.E11.SUBFRENCH.720p.WEBRiP.x264-KANGOKU
2016-09-12 21:54:36 Kmetija.Nov.Zacetek.S03E04.SI.HDTV.x264-RADiOACTiVE
2016-09-12 21:54:46 Taboo.Tattoo.E11.SUBFRENCH.1080p.WEBRiP.x264-KANGOKU
2016-09-12 21:54:49 Kmetija.Nov.Zacetek.S03E04.SI.720p.HDTV.x264-RADiOACTiVE
2016-09-12 21:54:49 Lorrie_Morgan_-_My_Heart-(1999)-aAF
2016-09-12 21:55:16 Taboo.Tattoo.E11.SUBFRENCH.720p.WEBRiP.x264-KANGOKU
2016-09-12 21:55:19 DR1.Dokumentaren.Medicinens.Pris.DANiSH.HDTV.x264-RCDiVX
2016-09-12 21:55:38 Lorrie_Morgan_-_Super_Hits-(1998)-aAF
2016-09-12 21:56:46 The.Burning.Curse.2015.German.DL.1080p.BluRay.AVC-UNTAVC
2016-09-12 21:57:28 Rum.For.Dig.S01E04.SWEDiSH.720p.HDTV.x264-CCCAM
2016-09-12 21:58:44 Lorrie_Morgan_-_The_Essential_Lorrie_Morgan-(1998)-aAF
2016-09-12 21:59:25 Antligen.Hemma.S40E02.SWEDiSH.720p.HDTV.x264-CCCAM
2016-09-12 21:59:34 Lorrie_Morgan_-_War_Paint-(1994)-aAF
2016-09-12 21:59:35 Lorrie_Morgan_-_War_Paint-(1994)-aAF
2016-09-12 21:59:38 Gangsta.S01E12.ANIME.SPANiSH.HDTV.X264-LPH
2016-09-12 22:01:06 Elitehundene.S01E04.DANiSH.720p.HDTV.x264-DiViSiON
2016-09-12 22:02:38 Beauty.and.the.Beast.S03E02.German.DVDRip.x264-iNTENTiON
2016-09-12 22:03:50 Braquo.S04E01.FRENCH.HDTV.x264-PANZeR
2016-09-12 22:04:25 Mit.Spanien.S01E06.DANiSH.720p.HDTV.x264-RCDiVX
2016-09-12 22:04:55 Beauty.and.the.Beast.S03E03.German.DVDRip.x264-iNTENTiON
2016-09-12 22:06:22 Elitehundene.S01E04.DANiSH.HDTV.x264-RCDiVX
2016-09-12 22:06:59 NASCAR.Heat.Evolution-CODEX
2016-09-12 22:07:11 Beauty.and.the.Beast.S03E04.German.DVDRip.x264-iNTENTiON
2016-09-12 22:09:28 Beauty.and.the.Beast.S03E05.German.DVDRip.x264-iNTENTiON
2016-09-12 22:10:58 Mr.Sardonicus.1961.1080p.BluRay.x264-SADPANDA
2016-09-12 22:11:19 Mit.Spanien.S01E06.DANiSH.HDTV.x264-RCDiVX
2016-09-12 22:11:37 Lost_Goat_-_Equator-(1999)-aAF
2016-09-12 22:11:44 Beauty.and.the.Beast.S03E06.German.DVDRip.x264-iNTENTiON
2016-09-12 22:11:54 Klaes.The.Roommate.S02E02.DANiSH.720p.HDTV.x264-DiViSiON
2016-09-12 22:12:04 Masters.of.Sex.S04E01.SUBFRENCH.720p.HDTV.x264-SH0W
2016-09-12 22:12:45 Gangsta.S01E12.ANIME.SPANiSH.720p.HDTV.X264-LPH
2016-09-12 22:13:49 Homicidal.1961.720p.BluRay.x264-SADPANDA
2016-09-12 22:14:01 Beauty.and.the.Beast.S03E07.German.DVDRip.x264-iNTENTiON
2016-09-12 22:14:20 William_Sheller-Stylus-(RETAiL)-FR-2015-SO
2016-09-12 22:15:30 Homicidal.1961.1080p.BluRay.x264-SADPANDA
2016-09-12 22:16:17 Beauty.and.the.Beast.S03E08.German.DVDRip.x264-iNTENTiON
2016-09-12 22:17:50 Liane_Foly-Crooneuse-(RETAiL)-FR-2016-SO
2016-09-12 22:18:34 Beauty.and.the.Beast.S03E09.German.DVDRip.x264-iNTENTiON
2016-09-12 22:18:39 Police.Interceptors.S11E02.720p.HDTV.x264-C4TV
2016-09-12 22:19:42 Mr.Sardonicus.1961.iNTERNAL.BDRip.x264-LiBRARiANS
2016-09-12 22:19:43 Homicidal.1961.iNTERNAL.BDRip.x264-LiBRARiANS
2016-09-12 22:20:50 Beauty.and.the.Beast.S03E10.German.DVDRip.x264-iNTENTiON
2016-09-12 22:21:12 Amir-Au_Coeur_De_Moi-(RETAiL)-FR-2016-SO
2016-09-12 22:22:50 Moonwalkers.2015.COMPLETE.FR.BLURAY-4FR
2016-09-12 22:23:00 Dokter.Tinus.S05E03.DUTCH.720p.HDTV.x264-DiFFERENT
2016-09-12 22:23:06 Beauty.and.the.Beast.S03E11.German.DVDRip.x264-iNTENTiON
2016-09-12 22:23:49 Saints.Row.Gat.Out.of.Hell.MULTi8-PROPHET
2016-09-12 22:25:10 Robinson.Ekspeditionen.S18E03.DANiSH.720p.HDTV.x264-DiViSiON
2016-09-12 22:25:24 Beauty.and.the.Beast.S03E12.German.DVDRip.x264-iNTENTiON
2016-09-12 22:25:39 Hubert_Felix_Thiefaine-VIXI_Tour_XVII-FR-REPACK-2CD-FLAC-2016-Mrflac
2016-09-12 22:26:47 Doc_Gyneco-Premiere_Consultation-FR-Deluxe_Edition-2CD-FLAC-2016-Mrflac
2016-09-12 22:27:40 Beauty.and.the.Beast.S03E13.German.DVDRip.x264-iNTENTiON
2016-09-12 22:30:16 CSI.S14E01.PL.HDTV.x264-A4O
2016-09-12 22:30:17 Everlight-Its_About_Acid-(OUT053)-WEB-2016-UKHx
2016-09-12 22:33:21 Frainbreeze-Well_Never_Die-(TM057)-WEB-2016-UKHx
2016-09-12 22:34:12 Rodzinka.pl.S09E02.PL.HDTV.x264-A4O
2016-09-12 22:34:56 Motive.S04E07.FRENCH.HDTV.x264-PANZeR
2016-09-12 22:35:26 Mike_Sanders-Boomerang-(GROTESQUE035)-WEB-2016-UKHx
2016-09-12 22:36:58 Loverboy_-_Big_Ones-track_14_fix-(1989)-aAF
2016-09-12 22:37:05 Trapped.S01E01.PL.HDTV.x264-A4O
2016-09-12 22:37:34 Brian_Cross-Radio_Show_(Europa_FM)-DVBT-10-09-2016-EiTheLMP3
2016-09-12 22:37:35 Brian_Cross-Radio_Show_(Europa_FM)-DVBT-10-09-2016-EiTheLMP3
2016-09-12 22:37:50 Henry_Saiz-El_Laberinto_(Radio_3)-DVBT-10-09-2016-EiTheLMP3
2016-09-12 22:37:51 Henry_Saiz-El_Laberinto_(Radio_3)-DVBT-10-09-2016-EiTheLMP3
2016-09-12 22:37:59 Loverboy_-_Keep_It_Up-(1983)-aAF
2016-09-12 22:38:13 Wally_Lopez-Insomnia_(Europa_FM)-DVBT-09-09-2016-EiTheLMP3
2016-09-12 22:39:07 Dark.Matter.S02E10.GERMAN.DUBBED.DL.1080p.WebHD.x264-TVP
2016-09-12 22:39:10 Loverboy_-_Loverboy-(1980)-aAF
2016-09-12 22:39:11 Loverboy_-_Loverboy-(1980)-aAF
2016-09-12 22:40:40 Trapped.S01E02.PL.HDTV.x264-A4O
2016-09-12 22:40:49 Tune_Brothers_-_Housesession_977-SAT-09-02-2016-TALiON
2016-09-12 22:41:26 DBN_-_Housesession_977-SAT-09-03-2016-TALiON
2016-09-12 22:41:47 Tune_Brothers_-_Housesession_978-SAT-09-09-2016-TALiON
2016-09-12 22:41:47 Gangsta.S01E12.ANIME.SPANiSH.1080p.HDTV.X264-LPH
2016-09-12 22:42:04 The.Rap.Game.S01E06.Shakin.Things.Up.720p.HDTV.x264-WaLMaRT
2016-09-12 22:42:12 Tobi_Kramer_-_Housesession_978-SAT-09-10-2016-TALiON
2016-09-12 22:43:54 3Run_Amok_-_Jericocaine-(SUP_001)-WEB-2016-ZzZz
2016-09-12 22:44:03 Braquo.S04E01.FRENCH.720p.HDTV.x264-DEAL
2016-09-12 22:44:37 Carlos_Gallardo_Feat_Zara_Markho_-_Colombia_Remixes-(GR_237)-WEB-SP-2016-ZzZz
2016-09-12 22:44:58 Karlssons.S01E02.SWEDiSH.720p.WEB.h264-SweWR
2016-09-12 22:45:07 Damien.S01E04.PL.HDTV.x264-A4O
2016-09-12 22:45:28 Supernatural.S11E04.FRENCH.HDTV.x264-AMB3R
2016-09-12 22:45:30 Danilo_Orsini_And_Cristian_Cretaro_-_The_World_Of_Noize-(CDRB_245)-WEB-2016-ZzZz
2016-09-12 22:45:51 Paradise.Hotel.S08E03.SWEDiSH.720p.HDTV.x264-CCCAM
2016-09-12 22:46:04 DJ_Maca_Atomix_-_Increase-(SKUSGLATAM_01)-WEB-2016-ZzZz
2016-09-12 22:46:18 DJ_Marininsk_Feat_Slava_Jones_-_Love_Is_Magic-(MARININSK_099)-WEB-2016-ZzZz
2016-09-12 22:46:19 DJ_Marininsk_Feat_Slava_Jones_-_Love_Is_Magic-(MARININSK_099)-WEB-2016-ZzZz
2016-09-12 22:46:34 Dj_Zant_And_Noizekid_And_Jay_Silva_And_White_Vox_-_El_Trompito_Remix_EP-(VOX_059)-WEB-2016-ZzZz
2016-09-12 22:46:51 DOD_-_Zipper-(DOORN_271AP)-WEB-2016-ZzZz
2016-09-12 22:47:03 3rd_Halflyfe_Feat_DS_Slanger_-_Do_Some_Ratchet-(CAT_86095)-WEB-2016-ZzZz
2016-09-12 22:47:36 Chicco_Secci_And_Cristian_Marchi_-_Remata-(SP_1165AP)-WEB-2016-ZzZz
2016-09-12 22:47:51 Dropfire_-_Vortex-(SSH_142)-WEB-2016-ZzZz
2016-09-12 22:48:16 ECS_Ferrer_-_Audio_Apocalypse-(NC_028)-WEB-2016-ZzZz
2016-09-12 22:48:30 Edward_Silver_-_Moonstone-(361497_1039616)-WEB-2016-ZzZz
2016-09-12 22:48:34 Braquo.S04E02.FRENCH.720p.HDTV.x264-SH0W
2016-09-12 22:48:43 Ely_Yabu_-_Feel_The_Beat_(Original_Mix)-(361497_0218043)-WEB-2016-ZzZz
2016-09-12 22:48:59 Archer.2009.S07E06.SPANiSH.HDTV.X264-LPH
2016-09-12 22:49:11 Exodus_And_Richard_Grey_-_What_You_Say_(Remixes)-(PHM_628)-WEB-2016-ZzZz
2016-09-12 22:49:16 Karlssons.S01E03.SWEDiSH.720p.WEB.h264-SweWR
2016-09-12 22:49:25 F_And_P_House_Project_-_Spellbound-(505496_0136991)-WEB-2016-ZzZz
2016-09-12 22:49:41 Farbwall_-_Pure_Sensation_Sensational_Charts_2016_(September_Global_World_Summer_Top_Charts)-(763003_7949398)-WEB-2016-ZzZz
2016-09-12 22:51:21 Archer.2009.S07E06.SPANiSH.720p.HDTV.X264-LPH
2016-09-12 22:51:39 Robinson.Ekspeditionen.S18E03.DANiSH.HDTV.x264-RCDiVX
2016-09-12 22:52:37 Braquo.S04E02.FRENCH.HDTV.x264-PANZeR
2016-09-12 22:53:16 Supreme_NTM-Authentik_Deluxe-FR-Deluxe_Edition-2CD-FLAC-2016-Mrflac
2016-09-12 22:55:08 Tunnelbanan.S04E03.SWEDiSH.1080p.WEB.h264-SweWR
2016-09-12 22:55:12 Lucky_Peterson_-_Lucky_Strikes-(1989)-aAF
2016-09-12 22:56:06 Lou_Tavano-For_You-2016-gF
2016-09-12 22:56:07 Lou_Tavano-For_You-2016-gF
2016-09-12 22:56:17 Lucky_Peterson_-_Ridin-(1984)-aAF
2016-09-12 22:56:30 Die.1000.Augen.der.Ninja.1985.German.DL.RATED.WS.BDRiP.x264-RAiNDEER
2016-09-12 22:56:49 Michael_Wollny_Trio-Klangspuren-2016-gF
2016-09-12 22:57:20 Tord_Gustavsen-What_Was_Said-2016-gF
2016-09-12 22:58:20 Cold.Feet.S06E02.720p.HDTV.x264-ORGANiC
2016-09-12 22:59:14 Cold.Feet.S06E02.HDTV.x264-ORGANiC
2016-09-12 22:59:42 Breaking.News.Med.Filip.Och.Fredrik.S05E05.SWEDiSH.720p.HDTV.x264-xD2V
2016-09-12 23:01:01 Kendji_Girac-Ensemble-FR-CD-FLAC-2015-Mrflac
2016-09-12 23:01:04 Ripper.Street.S04E04.720p.HDTV.x264-FoV
2016-09-12 23:01:47 VA_-_Dance_Route_33_(Fresh_Dance_Megamix)_Part_I_(Mixed_By_DJ_Adamex)-BOOTLEG-WEB-2011-ZzZz_INT
2016-09-12 23:01:48 VA_-_Dance_Route_33_(Fresh_Dance_Megamix)_Part_I_(Mixed_By_DJ_Adamex)-BOOTLEG-WEB-2011-ZzZz_INT
2016-09-12 23:02:07 VA_-_Dance_Route_33_(Fresh_Dance_Megamix)_Part_II_(Mixed_By_DJ_Adamex)-BOOTLEG-WEB-2011-ZzZz_INT
2016-09-12 23:02:19 VA_-_Dance_Route_33_Megamix_The_80s_Part_I_(Mixed_By_DJ_Adamex)-BOOTLEG-WEB-2011-ZzZz_INT
2016-09-12 23:02:35 VA_-_Studio_Mixhausen_Die_Foxmania_Vol_01-BOOTLEG-WEB-DE-2010-ZzZz_INT
2016-09-12 23:02:52 VA_-_Studio_Mixhausen_Die_Foxmania_Vol_02-BOOTLEG-WEB-DE-2010-ZzZz_INT
2016-09-12 23:02:56 Ahmed.Sylla.Avec.Un.Grand.A.2016.FRENCH.720p.HDTV.x264-SH0W
2016-09-12 23:03:04 VA_-_Studio_Mixhausen_Slow_Beats_Vol_01-BOOTLEG-WEB-2011-ZzZz_INT
2016-09-12 23:03:17 Ahmed.Sylla.Avec.Un.Grand.A.2016.FRENCH.HDTV.x264-SH0W
2016-09-12 23:05:30 Luther_Allison_-_Bad_News_Is_Coming-(2001)-aAF
2016-09-12 23:06:41 Luther_Allison_-_Luthers_Blues-(2001)-aAF
2016-09-12 23:08:58 Luther_Allison_-_Where_Have_You_Been-(1996)-aAF
2016-09-12 23:09:18 Brian_Cross-Radio_Show_(Europa_FM)-DVBT-11-09-2016-EiTheLMP3
2016-09-12 23:09:20 Kook.S05E01.EE.PDTV.x264-EMX
2016-09-12 23:09:41 Naabriplika.S07E01.EE.PDTV.x264-EMX
2016-09-12 23:09:42 Ripper.Street.S04E04.1080p.HDTV.x264-MORiTZ
2016-09-12 23:09:46 Di_Martino-Europa_Baila_(Europa_FM)-DVBT-11-09-2016-EiTheLMP3
2016-09-12 23:09:47 Di_Martino-Europa_Baila_(Europa_FM)-DVBT-11-09-2016-EiTheLMP3
2016-09-12 23:10:23 Quique_Tejada-Europa_Baila_(Europa_FM)-DVBT-10-09-2016-EiTheLMP3
2016-09-12 23:10:41 Steve_Aoki-Aokis_House_240_(Europa_FM)-DVBT-11-09-2016-EiTheLMP3
2016-09-12 23:10:57 Last.Man.Standing.US.S04E19.GERMAN.DL.DUBBED.1080p.WebHD.h264-VoDTv
2016-09-12 23:11:04 Yves_V-V_Sessions_063_(Europa_FM)-DVBT-11-09-2016-EiTheLMP3
2016-09-12 23:11:06 Supernatural.S11E04.FRENCH.1080p.HDTV.x264-Ryotox
2016-09-12 23:11:14 Kim_Walker-Smith-When_Christmas_Comes-CD-2014-VOLDiES
2016-09-12 23:12:40 Kim_Walker-Smith-When_Christmas_Comes-CD-FLAC-2014-VOLDiES
2016-09-12 23:13:41 Dokter.Tinus.S05E03.DUTCH.1080p.HDTV.x264-DiFFERENT
2016-09-12 23:13:47 Last.Man.Standing.US.S04E19.GERMAN.DUBBED.720p.WebHD.h264-idTV
2016-09-12 23:14:45 Thomas_Klein-Immer_Und_Immer-CD-DE-2004-VOLDiES
2016-09-12 23:15:36 Last.Man.Standing.US.S04E19.GERMAN.Dubbed.WEBRiP.x264-idTV
2016-09-12 23:16:14 Archer.2009.S07E06.SPANiSH.1080p.HDTV.X264-LPH
2016-09-12 23:16:26 Lynn_Anderson_-_Live_At_Billy_Bobs_Texas-(2000)-aAF
2016-09-12 23:16:27 Lynn_Anderson_-_Live_At_Billy_Bobs_Texas-(2000)-aAF
2016-09-12 23:18:40 Ballers.2015.S02E08.SUBFRENCH.720p.HDTV.x264-SH0W
2016-09-12 23:20:11 Ballers.2015.S02E08.SUBFRENCH.HDTV.x264-SH0W
2016-09-12 23:20:13 Caffiends-No_Gods_No_Decaf-WEB-2015-ENTiTLED
2016-09-12 23:20:38 Cats_in_Congress-We_Spent_All_Our_Money_on_This-EP-WEB-2016-ENTiTLED
2016-09-12 23:20:55 Knife_Party_And_Tom_Morello-Battle_Sirens-Single-WEB-2016-ENTiTLED
2016-09-12 23:21:18 Summer_Wars-Acoustic-EP-WEB-2016-ENTiTLED
2016-09-12 23:21:19 Summer_Wars-Acoustic-EP-WEB-2016-ENTiTLED
2016-09-12 23:21:47 The_Old_Fashioned-Valiance-WEB-2015-ENTiTLED
2016-09-12 23:22:45 Ein.Hauch.von.Himmel.S02E21.German.Dubbed.DVDRiP.XViD-DiRTYDUB
2016-09-12 23:22:51 Ein.Hauch.von.Himmel.S02E22.German.Dubbed.DVDRiP.XViD-DiRTYDUB
2016-09-12 23:22:56 Ein.Hauch.von.Himmel.S02E23.German.Dubbed.DVDRiP.XViD-DiRTYDUB
2016-09-12 23:23:04 Ein.Hauch.von.Himmel.S02E24.German.Dubbed.DVDRiP.XViD-DiRTYDUB
2016-09-12 23:23:06 Thomas_Klein-Immer_Und_Immer-DE-CD-FLAC-2004-VOLDiES
2016-09-12 23:23:07 Thomas_Klein-Immer_Und_Immer-DE-CD-FLAC-2004-VOLDiES
2016-09-12 23:23:38 Supernatural.S11E04.FRENCH.720p.HDTV.x264-SH0W
2016-09-12 23:23:52 Fear.The.Walking.Dead.S02E11.Pablo.Jessica.GERMAN.DL.DUBBED.720p.WebHD.x264-TVP
2016-09-12 23:24:16 Masters.of.Sex.S04E01.SUBFRENCH.HDTV.x264-SH0W
2016-09-12 23:24:42 HerrH-Mach_Mal_Lauter-CD-DE-2015-VOLDiES
2016-09-12 23:25:15 Minority.Report.S01E01.Die.Rueckkehr.German.720p.HDTV.x264-OHD
2016-09-12 23:25:33 herrH-Mach_Mal_Lauter-DE-CD-FLAC-2015-VOLDiES
2016-09-12 23:25:35 HerrH-Mach_Mal_Lauter-DE-CD-FLAC-2015-VOLDiES
2016-09-12 23:25:55 Fear.The.Walking.Dead.S02E11.Pablo.Jessica.GERMAN.DUBBED.WebRip.x264-TVP
2016-09-12 23:26:06 Minority.Report.S01E01.Die.Rueckkehr.German.HDTVRip.x264-OHD
2016-09-12 23:26:59 Papad.Mammad.S01E01.EE.PDTV.x264-EMX
2016-09-12 23:27:14 Mord.im.Pfarrhaus.2005.German.1080p.HDTV.x264-TiPToP
2016-09-12 23:28:21 Celebrity.Home.Secrets.S00E00.WEB.x264-HEAT
2016-09-12 23:28:37 Handa-Kun.E08.SUBFRENCH.1080p.WEBRiP.x264-AZR
2016-09-12 23:28:37 Supernatural.S11E05.FRENCH.HDTV.x264-AMB3R
2016-09-12 23:28:38 Supernatural.S11E05.FRENCH.HDTV.x264-AMB3R
2016-09-12 23:30:06 Mord.im.Pfarrhaus.2005.German.720p.HDTV.x264.INTERNAL-TiPToP
2016-09-12 23:30:07 Mord.im.Pfarrhaus.2005.German.720p.HDTV.x264.INTERNAL-TiPToP
2016-09-12 23:32:01 1979.Revolution.Black.Friday.MacOSX-ACTiVATED
2016-09-12 23:32:14 Zaertliche.Chaoten.2.1988.German.1080p.HDTV.x264-TiPToP
2016-09-12 23:33:57 Fabio_Rovazzi_-_Andiamo_A_Comandare__Special_Version-WEB-IT-2016-iDC
2016-09-12 23:35:37 LetsTryAnal.com_16.09.12.Felicity.Feline.Tattooed.Busty.Babe.Tries.Anal.XXX.iMAGESET-YAPG
2016-09-12 23:35:57 Celebrity.Home.Secrets.S01E03.DIRFIX.WEB.x264-HEAT
2016-09-12 23:36:18 Stardust.Galaxy.Warriors.Stellar.Climax.Linux-ACTiVATED
2016-09-12 23:36:22 IKnowThatGirl.com_16.09.11.Avery.Adair.Tall.Teen.Has.Naughty.Sex.XXX.iMAGESET-YAPG
2016-09-12 23:36:23 IKnowThatGirl.com_16.09.11.Avery.Adair.Tall.Teen.Has.Naughty.Sex.XXX.iMAGESET-YAPG
2016-09-12 23:36:35 Zaertliche.Chaoten.2.1988.German.720p.HDTV.x264-TiPToP
2016-09-12 23:37:12 979.Revolution.Black.Friday.MacOSX-ACTiVATED
2016-09-12 23:37:19 PervsOnPatrol.com_16.09.10.Jamie.Marleigh.POV.Facial.For.Ebony.Jogger.XXX.iMAGESET-YAPG
2016-09-12 23:37:52 Outsiders.S12E01.SWEDiSH.1080p.WEB.h264-SweWR
2016-09-12 23:39:06 TeensLikeItBig.com_16.09.12.Bailey.Brooke.Girl.Next.Door.XXX.iMAGESET-YAPG
2016-09-12 23:40:44 BrazzersExxtra.com_16.09.07.Gabriella.Paltrova.And.Casey.Calvert.S.Is.For.Squirt.XXX.iMAGESET-YAPG
2016-09-12 23:41:35 Secrets.Of.The.SAS.In.Their.Own.Words.S01E01.DiRFiX.720p.HDTV.x264-C4TV
2016-09-12 23:42:10 MILFsLikeItBig.com_16.09.11.Synthia.Fixx.Sister.In.Law.Means.Well.XXX.iMAGESET-YAPG
2016-09-12 23:42:26 Stardust.Galaxy.Warriors.Stellar.Climax.MacOSX-ACTiVATED
2016-09-12 23:42:41 Secrets.Of.The.SAS.In.Their.Own.Words.S01E02.720p.HDTV.x264-C4TV
2016-09-12 23:44:29 BigTitsAtWork.com_16.09.10.Rachel.Roxxx.And.Skyla.Novea.Hungry.For.A.Job.XXX.iMAGESET-YAPG
2016-09-12 23:48:26 FirstTimeAuditions.com_16.09.12.Bea.Wolf.Beautiful.Bea.XXX.iMAGESET-YAPG
2016-09-12 23:49:55 DoctorAdventures.com_16.09.10.Melissa.Moore.A.POV.Patient.Pounding.XXX.iMAGESET-YAPG
2016-09-12 23:49:56 DoctorAdventures.com_16.09.10.Melissa.Moore.A.POV.Patient.Pounding.XXX.iMAGESET-YAPG
2016-09-12 23:50:04 Motive.S04E06.FRENCH.720p.HDTV.x264-SH0W
2016-09-12 23:52:22 Supernatural.S11E05.FRENCH.1080p.HDTV.x264-Ryotox
2016-09-12 23:52:23 Supernatural.S11E05.FRENCH.1080p.HDTV.x264-Ryotox
2016-09-12 23:53:09 MilfHunter.com_16.09.12.Dana.Dearmond.Sexy.MILF.XXX.iMAGESET-YAPG
2016-09-12 23:53:40 Hautnah.German.2004.DVDRiP.x264.iNTERNAL-CiA
2016-09-12 23:54:19 Ein.grosses.Ding.German.1999.DVDRiP.x264-CiA
2016-09-12 23:55:56 Cordon.S02E02.FLEMISH.INTERNAL.WEBRip.x264-OMER
2016-09-12 23:56:13 StreetBlowJobs.com_16.09.11.Lexy.Bandera.Sexy.Lexy.XXX.iMAGESET-YAPG
2016-09-12 23:57:37 The.Rap.Game.S01E07.Fights.Camera.Action.720p.HDTV.x264-WaLMaRT
2016-09-12 23:58:19 Criminal.Minds.S11E21.FRENCH.HDTV.x264-SH0W
2016-09-12 23:58:42 Absolute_Hero-Please_Regret_This-WEB-2015-ENTiTLED
2016-09-12 23:59:15 Born_Rivals-Gallows_Humor-WEB-2016-ENTiTLED
2016-09-12 23:59:16 MikeInBrazil.com_16.09.11.Fernandinha.Fernandes.Tasty.Brazilian.XXX.iMAGESET-YAPG
2016-09-12 23:59:23 Minority.Report.S01E01.Die.Rueckkehr.German.1080p.HDTV.x264-OHD
2016-09-12 23:59:46 Calvinball-Last_Orders-WEB-2013-ENTiTLED